<?xml version="1.0" encoding="UTF-8" standalone="no" ?>
<gpx xmlns="http://www.topografix.com/GPX/1/1" xmlns:xsi="http://www.w3.org/2001/XMLSchema-instance" xsi:schemaLocation="http://www.topografix.com/GPX/1/1 http://www.topografix.com/GPX/1/1/gpx.xsd" version="1.1" creator="VisuGPX - https://www.visugpx.com">
  <metadata>
    <name>Bois de creuse</name>
  </metadata>
  <trk>
    <name><![CDATA[Bois de creuse_1]]></name>
    <trkseg>
      <trkpt lat="49.82932" lon="2.16161">
        <ele>121.5</ele>
        <time>2015-11-01T12:54:23Z</time>
      </trkpt>
      <trkpt lat="49.82935" lon="2.16162">
        <ele>121.7</ele>
        <time>2015-11-01T12:54:26Z</time>
      </trkpt>
      <trkpt lat="49.82937" lon="2.1616">
        <ele>121.7</ele>
        <time>2015-11-01T12:54:30Z</time>
      </trkpt>
      <trkpt lat="49.82934" lon="2.16159">
        <ele>121.4</ele>
        <time>2015-11-01T12:54:31Z</time>
      </trkpt>
      <trkpt lat="49.82939" lon="2.16154">
        <ele>121.4</ele>
        <time>2015-11-01T12:54:35Z</time>
      </trkpt>
      <trkpt lat="49.82942" lon="2.16148">
        <ele>121.1</ele>
        <time>2015-11-01T12:54:37Z</time>
      </trkpt>
      <trkpt lat="49.82946" lon="2.16142">
        <ele>120.9</ele>
        <time>2015-11-01T12:54:39Z</time>
      </trkpt>
      <trkpt lat="49.82948" lon="2.16137">
        <ele>120.7</ele>
        <time>2015-11-01T12:54:41Z</time>
      </trkpt>
      <trkpt lat="49.82949" lon="2.16133">
        <ele>120.4</ele>
        <time>2015-11-01T12:54:49Z</time>
      </trkpt>
      <trkpt lat="49.82945" lon="2.16134">
        <ele>120.3</ele>
        <time>2015-11-01T12:58:01Z</time>
      </trkpt>
      <trkpt lat="49.82943" lon="2.16137">
        <ele>120.4</ele>
        <time>2015-11-01T12:58:06Z</time>
      </trkpt>
      <trkpt lat="49.8294" lon="2.1614">
        <ele>120.6</ele>
        <time>2015-11-01T12:58:10Z</time>
      </trkpt>
      <trkpt lat="49.82938" lon="2.16143">
        <ele>120.7</ele>
        <time>2015-11-01T12:58:12Z</time>
      </trkpt>
      <trkpt lat="49.82936" lon="2.16147">
        <ele>120.8</ele>
        <time>2015-11-01T12:58:17Z</time>
      </trkpt>
      <trkpt lat="49.82934" lon="2.1615">
        <ele>120.9</ele>
        <time>2015-11-01T12:58:22Z</time>
      </trkpt>
      <trkpt lat="49.82931" lon="2.16153">
        <ele>120.9</ele>
        <time>2015-11-01T12:58:25Z</time>
      </trkpt>
      <trkpt lat="49.82929" lon="2.16154">
        <ele>120.9</ele>
        <time>2015-11-01T12:58:30Z</time>
      </trkpt>
      <trkpt lat="49.82926" lon="2.16157">
        <ele>120.9</ele>
        <time>2015-11-01T12:58:34Z</time>
      </trkpt>
      <trkpt lat="49.82924" lon="2.16159">
        <ele>120.8</ele>
        <time>2015-11-01T12:58:37Z</time>
      </trkpt>
      <trkpt lat="49.82922" lon="2.16164">
        <ele>121</ele>
        <time>2015-11-01T12:58:41Z</time>
      </trkpt>
      <trkpt lat="49.82919" lon="2.16167">
        <ele>120.9</ele>
        <time>2015-11-01T12:58:48Z</time>
      </trkpt>
      <trkpt lat="49.82917" lon="2.1617">
        <ele>120.9</ele>
        <time>2015-11-01T12:58:52Z</time>
      </trkpt>
      <trkpt lat="49.82914" lon="2.16169">
        <ele>120.6</ele>
        <time>2015-11-01T12:58:56Z</time>
      </trkpt>
      <trkpt lat="49.82912" lon="2.16172">
        <ele>120.6</ele>
        <time>2015-11-01T12:59:00Z</time>
      </trkpt>
      <trkpt lat="49.82909" lon="2.16174">
        <ele>120.5</ele>
        <time>2015-11-01T12:59:04Z</time>
      </trkpt>
      <trkpt lat="49.82906" lon="2.16175">
        <ele>120.3</ele>
        <time>2015-11-01T12:59:06Z</time>
      </trkpt>
      <trkpt lat="49.82903" lon="2.16179">
        <ele>120.2</ele>
        <time>2015-11-01T12:59:09Z</time>
      </trkpt>
      <trkpt lat="49.829" lon="2.16181">
        <ele>120</ele>
        <time>2015-11-01T12:59:12Z</time>
      </trkpt>
      <trkpt lat="49.82898" lon="2.16185">
        <ele>119.9</ele>
        <time>2015-11-01T12:59:15Z</time>
      </trkpt>
      <trkpt lat="49.82895" lon="2.16187">
        <ele>119.7</ele>
        <time>2015-11-01T12:59:17Z</time>
      </trkpt>
      <trkpt lat="49.82892" lon="2.16188">
        <ele>119.5</ele>
        <time>2015-11-01T12:59:19Z</time>
      </trkpt>
      <trkpt lat="49.8289" lon="2.16191">
        <ele>119.3</ele>
        <time>2015-11-01T12:59:24Z</time>
      </trkpt>
      <trkpt lat="49.82888" lon="2.16196">
        <ele>119.2</ele>
        <time>2015-11-01T12:59:27Z</time>
      </trkpt>
      <trkpt lat="49.82886" lon="2.16198">
        <ele>119</ele>
        <time>2015-11-01T12:59:29Z</time>
      </trkpt>
      <trkpt lat="49.82883" lon="2.162">
        <ele>118.7</ele>
        <time>2015-11-01T12:59:32Z</time>
      </trkpt>
      <trkpt lat="49.8288" lon="2.16202">
        <ele>118.5</ele>
        <time>2015-11-01T12:59:37Z</time>
      </trkpt>
      <trkpt lat="49.82877" lon="2.16205">
        <ele>118.2</ele>
        <time>2015-11-01T12:59:40Z</time>
      </trkpt>
      <trkpt lat="49.82874" lon="2.16209">
        <ele>117.9</ele>
        <time>2015-11-01T12:59:44Z</time>
      </trkpt>
      <trkpt lat="49.82872" lon="2.16212">
        <ele>118</ele>
        <time>2015-11-01T12:59:47Z</time>
      </trkpt>
      <trkpt lat="49.82869" lon="2.16216">
        <ele>118</ele>
        <time>2015-11-01T12:59:51Z</time>
      </trkpt>
      <trkpt lat="49.82867" lon="2.16219">
        <ele>117.9</ele>
        <time>2015-11-01T12:59:53Z</time>
      </trkpt>
      <trkpt lat="49.82864" lon="2.16222">
        <ele>117.9</ele>
        <time>2015-11-01T12:59:55Z</time>
      </trkpt>
      <trkpt lat="49.82861" lon="2.16226">
        <ele>117.9</ele>
        <time>2015-11-01T12:59:57Z</time>
      </trkpt>
      <trkpt lat="49.82857" lon="2.16227">
        <ele>117.5</ele>
        <time>2015-11-01T13:00:00Z</time>
      </trkpt>
      <trkpt lat="49.82854" lon="2.16229">
        <ele>117.3</ele>
        <time>2015-11-01T13:00:03Z</time>
      </trkpt>
      <trkpt lat="49.82853" lon="2.16234">
        <ele>117.4</ele>
        <time>2015-11-01T13:00:07Z</time>
      </trkpt>
      <trkpt lat="49.82849" lon="2.16236">
        <ele>117.1</ele>
        <time>2015-11-01T13:00:09Z</time>
      </trkpt>
      <trkpt lat="49.82848" lon="2.1624">
        <ele>117.1</ele>
        <time>2015-11-01T13:00:13Z</time>
      </trkpt>
      <trkpt lat="49.82845" lon="2.16245">
        <ele>116.9</ele>
        <time>2015-11-01T13:00:17Z</time>
      </trkpt>
      <trkpt lat="49.82844" lon="2.16248">
        <ele>116.9</ele>
        <time>2015-11-01T13:00:21Z</time>
      </trkpt>
      <trkpt lat="49.8284" lon="2.1625">
        <ele>116.5</ele>
        <time>2015-11-01T13:00:24Z</time>
      </trkpt>
      <trkpt lat="49.82838" lon="2.16253">
        <ele>116.4</ele>
        <time>2015-11-01T13:00:27Z</time>
      </trkpt>
      <trkpt lat="49.82835" lon="2.16255">
        <ele>116</ele>
        <time>2015-11-01T13:00:30Z</time>
      </trkpt>
      <trkpt lat="49.82832" lon="2.16257">
        <ele>115.7</ele>
        <time>2015-11-01T13:00:32Z</time>
      </trkpt>
      <trkpt lat="49.82829" lon="2.16258">
        <ele>115.3</ele>
        <time>2015-11-01T13:00:36Z</time>
      </trkpt>
      <trkpt lat="49.82825" lon="2.16259">
        <ele>114.9</ele>
        <time>2015-11-01T13:00:38Z</time>
      </trkpt>
      <trkpt lat="49.82824" lon="2.16265">
        <ele>114.8</ele>
        <time>2015-11-01T13:00:40Z</time>
      </trkpt>
      <trkpt lat="49.82822" lon="2.16267">
        <ele>114.5</ele>
        <time>2015-11-01T13:00:44Z</time>
      </trkpt>
      <trkpt lat="49.8282" lon="2.16271">
        <ele>114.3</ele>
        <time>2015-11-01T13:00:47Z</time>
      </trkpt>
      <trkpt lat="49.82815" lon="2.16276">
        <ele>113.7</ele>
        <time>2015-11-01T13:00:49Z</time>
      </trkpt>
      <trkpt lat="49.82811" lon="2.16279">
        <ele>113</ele>
        <time>2015-11-01T13:00:52Z</time>
      </trkpt>
      <trkpt lat="49.82809" lon="2.16281">
        <ele>112.7</ele>
        <time>2015-11-01T13:00:54Z</time>
      </trkpt>
      <trkpt lat="49.82806" lon="2.16283">
        <ele>112.3</ele>
        <time>2015-11-01T13:00:56Z</time>
      </trkpt>
      <trkpt lat="49.82804" lon="2.16288">
        <ele>111.9</ele>
        <time>2015-11-01T13:01:00Z</time>
      </trkpt>
      <trkpt lat="49.82802" lon="2.16291">
        <ele>111.6</ele>
        <time>2015-11-01T13:01:05Z</time>
      </trkpt>
      <trkpt lat="49.82798" lon="2.16294">
        <ele>111</ele>
        <time>2015-11-01T13:01:08Z</time>
      </trkpt>
      <trkpt lat="49.82795" lon="2.16293">
        <ele>110.4</ele>
        <time>2015-11-01T13:01:14Z</time>
      </trkpt>
      <trkpt lat="49.82793" lon="2.16298">
        <ele>110.1</ele>
        <time>2015-11-01T13:01:17Z</time>
      </trkpt>
      <trkpt lat="49.8279" lon="2.16301">
        <ele>109.8</ele>
        <time>2015-11-01T13:01:20Z</time>
      </trkpt>
      <trkpt lat="49.82788" lon="2.16305">
        <ele>109.7</ele>
        <time>2015-11-01T13:01:24Z</time>
      </trkpt>
      <trkpt lat="49.82785" lon="2.16309">
        <ele>109.5</ele>
        <time>2015-11-01T13:01:28Z</time>
      </trkpt>
      <trkpt lat="49.82781" lon="2.16311">
        <ele>109.3</ele>
        <time>2015-11-01T13:01:29Z</time>
      </trkpt>
      <trkpt lat="49.82778" lon="2.16313">
        <ele>109.2</ele>
        <time>2015-11-01T13:01:32Z</time>
      </trkpt>
      <trkpt lat="49.82777" lon="2.16318">
        <ele>109.1</ele>
        <time>2015-11-01T13:01:37Z</time>
      </trkpt>
      <trkpt lat="49.82774" lon="2.16321">
        <ele>109</ele>
        <time>2015-11-01T13:01:40Z</time>
      </trkpt>
      <trkpt lat="49.8277" lon="2.16323">
        <ele>108.9</ele>
        <time>2015-11-01T13:01:43Z</time>
      </trkpt>
      <trkpt lat="49.82767" lon="2.16325">
        <ele>108.8</ele>
        <time>2015-11-01T13:01:45Z</time>
      </trkpt>
      <trkpt lat="49.82765" lon="2.16328">
        <ele>108.7</ele>
        <time>2015-11-01T13:01:47Z</time>
      </trkpt>
      <trkpt lat="49.82764" lon="2.16332">
        <ele>108.7</ele>
        <time>2015-11-01T13:01:49Z</time>
      </trkpt>
      <trkpt lat="49.82761" lon="2.16334">
        <ele>108.6</ele>
        <time>2015-11-01T13:01:52Z</time>
      </trkpt>
      <trkpt lat="49.82758" lon="2.16337">
        <ele>108.5</ele>
        <time>2015-11-01T13:01:55Z</time>
      </trkpt>
      <trkpt lat="49.82755" lon="2.1634">
        <ele>108.4</ele>
        <time>2015-11-01T13:02:00Z</time>
      </trkpt>
      <trkpt lat="49.82752" lon="2.16341">
        <ele>108.3</ele>
        <time>2015-11-01T13:02:02Z</time>
      </trkpt>
      <trkpt lat="49.82749" lon="2.16346">
        <ele>108.3</ele>
        <time>2015-11-01T13:02:04Z</time>
      </trkpt>
      <trkpt lat="49.82746" lon="2.16349">
        <ele>108.3</ele>
        <time>2015-11-01T13:02:09Z</time>
      </trkpt>
      <trkpt lat="49.82743" lon="2.16351">
        <ele>108.2</ele>
        <time>2015-11-01T13:02:11Z</time>
      </trkpt>
      <trkpt lat="49.82742" lon="2.16355">
        <ele>108.2</ele>
        <time>2015-11-01T13:02:15Z</time>
      </trkpt>
      <trkpt lat="49.82739" lon="2.16357">
        <ele>108.2</ele>
        <time>2015-11-01T13:02:16Z</time>
      </trkpt>
      <trkpt lat="49.82736" lon="2.16361">
        <ele>108.2</ele>
        <time>2015-11-01T13:02:19Z</time>
      </trkpt>
      <trkpt lat="49.82733" lon="2.16362">
        <ele>108.1</ele>
        <time>2015-11-01T13:02:22Z</time>
      </trkpt>
      <trkpt lat="49.82733" lon="2.16366">
        <ele>108.2</ele>
        <time>2015-11-01T13:02:27Z</time>
      </trkpt>
      <trkpt lat="49.8273" lon="2.16369">
        <ele>108.2</ele>
        <time>2015-11-01T13:02:31Z</time>
      </trkpt>
      <trkpt lat="49.82728" lon="2.16372">
        <ele>108.2</ele>
        <time>2015-11-01T13:02:35Z</time>
      </trkpt>
      <trkpt lat="49.82725" lon="2.16374">
        <ele>108.2</ele>
        <time>2015-11-01T13:02:37Z</time>
      </trkpt>
      <trkpt lat="49.82722" lon="2.16375">
        <ele>108.2</ele>
        <time>2015-11-01T13:02:38Z</time>
      </trkpt>
      <trkpt lat="49.8272" lon="2.16378">
        <ele>108</ele>
        <time>2015-11-01T13:02:40Z</time>
      </trkpt>
      <trkpt lat="49.82717" lon="2.16381">
        <ele>107.8</ele>
        <time>2015-11-01T13:02:42Z</time>
      </trkpt>
      <trkpt lat="49.82715" lon="2.16383">
        <ele>107.6</ele>
        <time>2015-11-01T13:02:44Z</time>
      </trkpt>
      <trkpt lat="49.8271" lon="2.16387">
        <ele>107.3</ele>
        <time>2015-11-01T13:02:47Z</time>
      </trkpt>
      <trkpt lat="49.82706" lon="2.16387">
        <ele>107.2</ele>
        <time>2015-11-01T13:02:53Z</time>
      </trkpt>
      <trkpt lat="49.82704" lon="2.16391">
        <ele>107</ele>
        <time>2015-11-01T13:02:56Z</time>
      </trkpt>
      <trkpt lat="49.82701" lon="2.16394">
        <ele>106.7</ele>
        <time>2015-11-01T13:03:01Z</time>
      </trkpt>
      <trkpt lat="49.82697" lon="2.16396">
        <ele>106.6</ele>
        <time>2015-11-01T13:03:04Z</time>
      </trkpt>
      <trkpt lat="49.82696" lon="2.16399">
        <ele>106.3</ele>
        <time>2015-11-01T13:03:06Z</time>
      </trkpt>
      <trkpt lat="49.82693" lon="2.16405">
        <ele>106</ele>
        <time>2015-11-01T13:03:09Z</time>
      </trkpt>
      <trkpt lat="49.82692" lon="2.1641">
        <ele>105.7</ele>
        <time>2015-11-01T13:03:11Z</time>
      </trkpt>
      <trkpt lat="49.82688" lon="2.16413">
        <ele>105.5</ele>
        <time>2015-11-01T13:03:15Z</time>
      </trkpt>
      <trkpt lat="49.82688" lon="2.16418">
        <ele>105.2</ele>
        <time>2015-11-01T13:03:17Z</time>
      </trkpt>
      <trkpt lat="49.82684" lon="2.16419">
        <ele>105.1</ele>
        <time>2015-11-01T13:03:20Z</time>
      </trkpt>
      <trkpt lat="49.82681" lon="2.16421">
        <ele>104.9</ele>
        <time>2015-11-01T13:03:22Z</time>
      </trkpt>
      <trkpt lat="49.82679" lon="2.16423">
        <ele>104.8</ele>
        <time>2015-11-01T13:03:24Z</time>
      </trkpt>
      <trkpt lat="49.82676" lon="2.16425">
        <ele>104.7</ele>
        <time>2015-11-01T13:03:26Z</time>
      </trkpt>
      <trkpt lat="49.82673" lon="2.16428">
        <ele>104.5</ele>
        <time>2015-11-01T13:03:29Z</time>
      </trkpt>
      <trkpt lat="49.82669" lon="2.1643">
        <ele>104.4</ele>
        <time>2015-11-01T13:03:32Z</time>
      </trkpt>
      <trkpt lat="49.82666" lon="2.16431">
        <ele>104.3</ele>
        <time>2015-11-01T13:03:34Z</time>
      </trkpt>
      <trkpt lat="49.82662" lon="2.16431">
        <ele>104.3</ele>
        <time>2015-11-01T13:03:36Z</time>
      </trkpt>
      <trkpt lat="49.8266" lon="2.16434">
        <ele>104.1</ele>
        <time>2015-11-01T13:03:43Z</time>
      </trkpt>
      <trkpt lat="49.82658" lon="2.16437">
        <ele>104</ele>
        <time>2015-11-01T13:03:47Z</time>
      </trkpt>
      <trkpt lat="49.82654" lon="2.1644">
        <ele>103.8</ele>
        <time>2015-11-01T13:03:49Z</time>
      </trkpt>
      <trkpt lat="49.82653" lon="2.16444">
        <ele>103.6</ele>
        <time>2015-11-01T13:03:52Z</time>
      </trkpt>
      <trkpt lat="49.8265" lon="2.16444">
        <ele>103.6</ele>
        <time>2015-11-01T13:03:55Z</time>
      </trkpt>
      <trkpt lat="49.82649" lon="2.16449">
        <ele>103.4</ele>
        <time>2015-11-01T13:03:58Z</time>
      </trkpt>
      <trkpt lat="49.82648" lon="2.16453">
        <ele>103.2</ele>
        <time>2015-11-01T13:04:02Z</time>
      </trkpt>
      <trkpt lat="49.82646" lon="2.16456">
        <ele>103.1</ele>
        <time>2015-11-01T13:04:04Z</time>
      </trkpt>
      <trkpt lat="49.82643" lon="2.16461">
        <ele>102.8</ele>
        <time>2015-11-01T13:04:07Z</time>
      </trkpt>
      <trkpt lat="49.8264" lon="2.16462">
        <ele>102.8</ele>
        <time>2015-11-01T13:04:10Z</time>
      </trkpt>
      <trkpt lat="49.82638" lon="2.16465">
        <ele>102.5</ele>
        <time>2015-11-01T13:04:12Z</time>
      </trkpt>
      <trkpt lat="49.82636" lon="2.16469">
        <ele>102.2</ele>
        <time>2015-11-01T13:04:16Z</time>
      </trkpt>
      <trkpt lat="49.82634" lon="2.16472">
        <ele>102</ele>
        <time>2015-11-01T13:04:19Z</time>
      </trkpt>
      <trkpt lat="49.82631" lon="2.16473">
        <ele>102</ele>
        <time>2015-11-01T13:04:22Z</time>
      </trkpt>
      <trkpt lat="49.82626" lon="2.16476">
        <ele>101.7</ele>
        <time>2015-11-01T13:04:25Z</time>
      </trkpt>
      <trkpt lat="49.82624" lon="2.1648">
        <ele>101.5</ele>
        <time>2015-11-01T13:04:29Z</time>
      </trkpt>
      <trkpt lat="49.82622" lon="2.16482">
        <ele>101.3</ele>
        <time>2015-11-01T13:04:30Z</time>
      </trkpt>
      <trkpt lat="49.82619" lon="2.16486">
        <ele>100.9</ele>
        <time>2015-11-01T13:04:33Z</time>
      </trkpt>
      <trkpt lat="49.82617" lon="2.1649">
        <ele>100.6</ele>
        <time>2015-11-01T13:04:36Z</time>
      </trkpt>
      <trkpt lat="49.82616" lon="2.16495">
        <ele>100.4</ele>
        <time>2015-11-01T13:04:39Z</time>
      </trkpt>
      <trkpt lat="49.82613" lon="2.16497">
        <ele>100.2</ele>
        <time>2015-11-01T13:04:40Z</time>
      </trkpt>
      <trkpt lat="49.82608" lon="2.165">
        <ele>100</ele>
        <time>2015-11-01T13:04:44Z</time>
      </trkpt>
      <trkpt lat="49.82606" lon="2.16504">
        <ele>99.7</ele>
        <time>2015-11-01T13:04:46Z</time>
      </trkpt>
      <trkpt lat="49.82603" lon="2.16508">
        <ele>99.5</ele>
        <time>2015-11-01T13:04:48Z</time>
      </trkpt>
      <trkpt lat="49.826" lon="2.16511">
        <ele>99.3</ele>
        <time>2015-11-01T13:04:51Z</time>
      </trkpt>
      <trkpt lat="49.82598" lon="2.16516">
        <ele>99.1</ele>
        <time>2015-11-01T13:04:54Z</time>
      </trkpt>
      <trkpt lat="49.82595" lon="2.16518">
        <ele>99</ele>
        <time>2015-11-01T13:04:56Z</time>
      </trkpt>
      <trkpt lat="49.82593" lon="2.16522">
        <ele>98.9</ele>
        <time>2015-11-01T13:04:58Z</time>
      </trkpt>
      <trkpt lat="49.82591" lon="2.16525">
        <ele>98.7</ele>
        <time>2015-11-01T13:05:00Z</time>
      </trkpt>
      <trkpt lat="49.82588" lon="2.16526">
        <ele>98.7</ele>
        <time>2015-11-01T13:05:02Z</time>
      </trkpt>
      <trkpt lat="49.82586" lon="2.16529">
        <ele>98.6</ele>
        <time>2015-11-01T13:05:04Z</time>
      </trkpt>
      <trkpt lat="49.82583" lon="2.16531">
        <ele>98.5</ele>
        <time>2015-11-01T13:05:08Z</time>
      </trkpt>
      <trkpt lat="49.82581" lon="2.16536">
        <ele>98.3</ele>
        <time>2015-11-01T13:05:10Z</time>
      </trkpt>
      <trkpt lat="49.8258" lon="2.16541">
        <ele>98.1</ele>
        <time>2015-11-01T13:05:13Z</time>
      </trkpt>
      <trkpt lat="49.82581" lon="2.16546">
        <ele>97.8</ele>
        <time>2015-11-01T13:05:16Z</time>
      </trkpt>
      <trkpt lat="49.82582" lon="2.1655">
        <ele>97.5</ele>
        <time>2015-11-01T13:05:19Z</time>
      </trkpt>
      <trkpt lat="49.82582" lon="2.16554">
        <ele>97.1</ele>
        <time>2015-11-01T13:05:22Z</time>
      </trkpt>
      <trkpt lat="49.82583" lon="2.16559">
        <ele>96.8</ele>
        <time>2015-11-01T13:05:25Z</time>
      </trkpt>
      <trkpt lat="49.82585" lon="2.16564">
        <ele>96.4</ele>
        <time>2015-11-01T13:05:28Z</time>
      </trkpt>
      <trkpt lat="49.82587" lon="2.16569">
        <ele>95.9</ele>
        <time>2015-11-01T13:05:31Z</time>
      </trkpt>
      <trkpt lat="49.82588" lon="2.16574">
        <ele>95.5</ele>
        <time>2015-11-01T13:05:36Z</time>
      </trkpt>
      <trkpt lat="49.8259" lon="2.16578">
        <ele>95.1</ele>
        <time>2015-11-01T13:05:41Z</time>
      </trkpt>
      <trkpt lat="49.82592" lon="2.16582">
        <ele>94.8</ele>
        <time>2015-11-01T13:05:46Z</time>
      </trkpt>
      <trkpt lat="49.82594" lon="2.16586">
        <ele>94.4</ele>
        <time>2015-11-01T13:05:49Z</time>
      </trkpt>
      <trkpt lat="49.82598" lon="2.16589">
        <ele>94.1</ele>
        <time>2015-11-01T13:05:53Z</time>
      </trkpt>
      <trkpt lat="49.82599" lon="2.16593">
        <ele>93.7</ele>
        <time>2015-11-01T13:05:56Z</time>
      </trkpt>
      <trkpt lat="49.82602" lon="2.16599">
        <ele>93.1</ele>
        <time>2015-11-01T13:05:59Z</time>
      </trkpt>
      <trkpt lat="49.82604" lon="2.16604">
        <ele>92.6</ele>
        <time>2015-11-01T13:06:03Z</time>
      </trkpt>
      <trkpt lat="49.82605" lon="2.1661">
        <ele>92.1</ele>
        <time>2015-11-01T13:06:07Z</time>
      </trkpt>
      <trkpt lat="49.82609" lon="2.16613">
        <ele>91.7</ele>
        <time>2015-11-01T13:06:10Z</time>
      </trkpt>
      <trkpt lat="49.82612" lon="2.16616">
        <ele>91.3</ele>
        <time>2015-11-01T13:06:12Z</time>
      </trkpt>
      <trkpt lat="49.82613" lon="2.16621">
        <ele>90.9</ele>
        <time>2015-11-01T13:06:15Z</time>
      </trkpt>
      <trkpt lat="49.82614" lon="2.16626">
        <ele>90.5</ele>
        <time>2015-11-01T13:06:17Z</time>
      </trkpt>
      <trkpt lat="49.82616" lon="2.16629">
        <ele>90.2</ele>
        <time>2015-11-01T13:06:21Z</time>
      </trkpt>
      <trkpt lat="49.82618" lon="2.16633">
        <ele>90</ele>
        <time>2015-11-01T13:06:24Z</time>
      </trkpt>
      <trkpt lat="49.82619" lon="2.16637">
        <ele>89.8</ele>
        <time>2015-11-01T13:06:26Z</time>
      </trkpt>
      <trkpt lat="49.82622" lon="2.16638">
        <ele>89.6</ele>
        <time>2015-11-01T13:06:29Z</time>
      </trkpt>
      <trkpt lat="49.82624" lon="2.16642">
        <ele>89.4</ele>
        <time>2015-11-01T13:06:32Z</time>
      </trkpt>
      <trkpt lat="49.82626" lon="2.16646">
        <ele>89.3</ele>
        <time>2015-11-01T13:06:35Z</time>
      </trkpt>
      <trkpt lat="49.82627" lon="2.16651">
        <ele>89.1</ele>
        <time>2015-11-01T13:06:38Z</time>
      </trkpt>
      <trkpt lat="49.82628" lon="2.16655">
        <ele>89</ele>
        <time>2015-11-01T13:06:40Z</time>
      </trkpt>
      <trkpt lat="49.82629" lon="2.1666">
        <ele>88.9</ele>
        <time>2015-11-01T13:06:44Z</time>
      </trkpt>
      <trkpt lat="49.82631" lon="2.16665">
        <ele>88.8</ele>
        <time>2015-11-01T13:06:47Z</time>
      </trkpt>
      <trkpt lat="49.82632" lon="2.1667">
        <ele>88.6</ele>
        <time>2015-11-01T13:06:50Z</time>
      </trkpt>
      <trkpt lat="49.82634" lon="2.16675">
        <ele>88.5</ele>
        <time>2015-11-01T13:06:53Z</time>
      </trkpt>
      <trkpt lat="49.82635" lon="2.1668">
        <ele>88.4</ele>
        <time>2015-11-01T13:06:56Z</time>
      </trkpt>
      <trkpt lat="49.82636" lon="2.16685">
        <ele>88.3</ele>
        <time>2015-11-01T13:07:00Z</time>
      </trkpt>
      <trkpt lat="49.82637" lon="2.16691">
        <ele>88.1</ele>
        <time>2015-11-01T13:07:04Z</time>
      </trkpt>
      <trkpt lat="49.82637" lon="2.16696">
        <ele>87.9</ele>
        <time>2015-11-01T13:07:06Z</time>
      </trkpt>
      <trkpt lat="49.82638" lon="2.167">
        <ele>87.8</ele>
        <time>2015-11-01T13:07:09Z</time>
      </trkpt>
      <trkpt lat="49.82639" lon="2.16706">
        <ele>87.6</ele>
        <time>2015-11-01T13:07:12Z</time>
      </trkpt>
      <trkpt lat="49.82639" lon="2.1671">
        <ele>87.5</ele>
        <time>2015-11-01T13:07:15Z</time>
      </trkpt>
      <trkpt lat="49.82641" lon="2.16713">
        <ele>87.6</ele>
        <time>2015-11-01T13:07:17Z</time>
      </trkpt>
      <trkpt lat="49.82642" lon="2.16719">
        <ele>87.6</ele>
        <time>2015-11-01T13:07:20Z</time>
      </trkpt>
      <trkpt lat="49.82643" lon="2.16723">
        <ele>87.6</ele>
        <time>2015-11-01T13:07:22Z</time>
      </trkpt>
      <trkpt lat="49.82645" lon="2.16728">
        <ele>87.7</ele>
        <time>2015-11-01T13:07:25Z</time>
      </trkpt>
      <trkpt lat="49.82646" lon="2.16733">
        <ele>87.7</ele>
        <time>2015-11-01T13:07:28Z</time>
      </trkpt>
      <trkpt lat="49.82647" lon="2.16739">
        <ele>87.7</ele>
        <time>2015-11-01T13:07:32Z</time>
      </trkpt>
      <trkpt lat="49.82649" lon="2.16744">
        <ele>87.7</ele>
        <time>2015-11-01T13:07:35Z</time>
      </trkpt>
      <trkpt lat="49.8265" lon="2.16748">
        <ele>87.8</ele>
        <time>2015-11-01T13:07:38Z</time>
      </trkpt>
      <trkpt lat="49.82651" lon="2.16752">
        <ele>87.8</ele>
        <time>2015-11-01T13:07:40Z</time>
      </trkpt>
      <trkpt lat="49.82652" lon="2.16755">
        <ele>87.8</ele>
        <time>2015-11-01T13:07:43Z</time>
      </trkpt>
      <trkpt lat="49.82656" lon="2.16759">
        <ele>87.9</ele>
        <time>2015-11-01T13:07:46Z</time>
      </trkpt>
      <trkpt lat="49.82657" lon="2.16764">
        <ele>87.9</ele>
        <time>2015-11-01T13:07:48Z</time>
      </trkpt>
      <trkpt lat="49.82658" lon="2.16769">
        <ele>87.9</ele>
        <time>2015-11-01T13:07:51Z</time>
      </trkpt>
      <trkpt lat="49.82659" lon="2.16773">
        <ele>87.9</ele>
        <time>2015-11-01T13:07:53Z</time>
      </trkpt>
      <trkpt lat="49.82661" lon="2.16778">
        <ele>87.9</ele>
        <time>2015-11-01T13:07:55Z</time>
      </trkpt>
      <trkpt lat="49.8266" lon="2.16785">
        <ele>87.9</ele>
        <time>2015-11-01T13:07:58Z</time>
      </trkpt>
      <trkpt lat="49.8266" lon="2.1679">
        <ele>87.9</ele>
        <time>2015-11-01T13:08:02Z</time>
      </trkpt>
      <trkpt lat="49.8266" lon="2.16796">
        <ele>87.8</ele>
        <time>2015-11-01T13:08:06Z</time>
      </trkpt>
      <trkpt lat="49.82662" lon="2.16799">
        <ele>87.9</ele>
        <time>2015-11-01T13:08:08Z</time>
      </trkpt>
      <trkpt lat="49.82663" lon="2.16803">
        <ele>87.9</ele>
        <time>2015-11-01T13:08:11Z</time>
      </trkpt>
      <trkpt lat="49.82665" lon="2.16809">
        <ele>88</ele>
        <time>2015-11-01T13:08:14Z</time>
      </trkpt>
      <trkpt lat="49.82666" lon="2.16813">
        <ele>88</ele>
        <time>2015-11-01T13:08:16Z</time>
      </trkpt>
      <trkpt lat="49.82667" lon="2.16817">
        <ele>88</ele>
        <time>2015-11-01T13:08:18Z</time>
      </trkpt>
      <trkpt lat="49.82668" lon="2.16822">
        <ele>88</ele>
        <time>2015-11-01T13:08:22Z</time>
      </trkpt>
      <trkpt lat="49.8267" lon="2.16825">
        <ele>88.1</ele>
        <time>2015-11-01T13:08:23Z</time>
      </trkpt>
      <trkpt lat="49.82669" lon="2.16829">
        <ele>88.1</ele>
        <time>2015-11-01T13:08:28Z</time>
      </trkpt>
      <trkpt lat="49.82671" lon="2.16834">
        <ele>88.1</ele>
        <time>2015-11-01T13:08:32Z</time>
      </trkpt>
      <trkpt lat="49.82673" lon="2.16837">
        <ele>88.2</ele>
        <time>2015-11-01T13:08:35Z</time>
      </trkpt>
      <trkpt lat="49.82676" lon="2.1684">
        <ele>88.2</ele>
        <time>2015-11-01T13:08:40Z</time>
      </trkpt>
      <trkpt lat="49.82679" lon="2.16843">
        <ele>88.3</ele>
        <time>2015-11-01T13:08:43Z</time>
      </trkpt>
      <trkpt lat="49.82682" lon="2.16845">
        <ele>88.4</ele>
        <time>2015-11-01T13:08:46Z</time>
      </trkpt>
      <trkpt lat="49.82684" lon="2.16849">
        <ele>88.4</ele>
        <time>2015-11-01T13:08:49Z</time>
      </trkpt>
      <trkpt lat="49.82685" lon="2.16853">
        <ele>88.4</ele>
        <time>2015-11-01T13:08:53Z</time>
      </trkpt>
      <trkpt lat="49.82686" lon="2.16858">
        <ele>88.5</ele>
        <time>2015-11-01T13:08:57Z</time>
      </trkpt>
      <trkpt lat="49.82689" lon="2.16862">
        <ele>88.5</ele>
        <time>2015-11-01T13:08:59Z</time>
      </trkpt>
      <trkpt lat="49.82689" lon="2.16866">
        <ele>88.5</ele>
        <time>2015-11-01T13:09:02Z</time>
      </trkpt>
      <trkpt lat="49.82692" lon="2.16868">
        <ele>88.6</ele>
        <time>2015-11-01T13:09:05Z</time>
      </trkpt>
      <trkpt lat="49.82694" lon="2.16872">
        <ele>88.6</ele>
        <time>2015-11-01T13:09:08Z</time>
      </trkpt>
      <trkpt lat="49.82697" lon="2.16871">
        <ele>88.7</ele>
        <time>2015-11-01T13:09:09Z</time>
      </trkpt>
      <trkpt lat="49.82698" lon="2.16876">
        <ele>88.7</ele>
        <time>2015-11-01T13:09:14Z</time>
      </trkpt>
      <trkpt lat="49.82702" lon="2.16878">
        <ele>88.8</ele>
        <time>2015-11-01T13:09:17Z</time>
      </trkpt>
      <trkpt lat="49.82706" lon="2.16881">
        <ele>88.9</ele>
        <time>2015-11-01T13:09:23Z</time>
      </trkpt>
      <trkpt lat="49.82708" lon="2.1688">
        <ele>88.9</ele>
        <time>2015-11-01T13:09:25Z</time>
      </trkpt>
      <trkpt lat="49.82712" lon="2.16881">
        <ele>89</ele>
        <time>2015-11-01T13:09:28Z</time>
      </trkpt>
      <trkpt lat="49.82715" lon="2.16884">
        <ele>89</ele>
        <time>2015-11-01T13:09:32Z</time>
      </trkpt>
      <trkpt lat="49.82717" lon="2.16886">
        <ele>89</ele>
        <time>2015-11-01T13:09:34Z</time>
      </trkpt>
      <trkpt lat="49.82721" lon="2.16889">
        <ele>89</ele>
        <time>2015-11-01T13:09:38Z</time>
      </trkpt>
      <trkpt lat="49.82726" lon="2.1689">
        <ele>89</ele>
        <time>2015-11-01T13:09:43Z</time>
      </trkpt>
      <trkpt lat="49.82729" lon="2.16894">
        <ele>89</ele>
        <time>2015-11-01T13:09:46Z</time>
      </trkpt>
      <trkpt lat="49.82733" lon="2.16897">
        <ele>89</ele>
        <time>2015-11-01T13:09:50Z</time>
      </trkpt>
      <trkpt lat="49.82735" lon="2.16898">
        <ele>89</ele>
        <time>2015-11-01T13:09:51Z</time>
      </trkpt>
      <trkpt lat="49.8274" lon="2.16899">
        <ele>89</ele>
        <time>2015-11-01T13:09:55Z</time>
      </trkpt>
      <trkpt lat="49.82742" lon="2.16902">
        <ele>89</ele>
        <time>2015-11-01T13:09:58Z</time>
      </trkpt>
      <trkpt lat="49.82744" lon="2.16905">
        <ele>88.9</ele>
        <time>2015-11-01T13:10:01Z</time>
      </trkpt>
      <trkpt lat="49.82747" lon="2.16906">
        <ele>88.9</ele>
        <time>2015-11-01T13:10:04Z</time>
      </trkpt>
      <trkpt lat="49.82751" lon="2.16908">
        <ele>88.9</ele>
        <time>2015-11-01T13:10:07Z</time>
      </trkpt>
      <trkpt lat="49.82754" lon="2.16909">
        <ele>88.9</ele>
        <time>2015-11-01T13:10:09Z</time>
      </trkpt>
      <trkpt lat="49.82757" lon="2.16909">
        <ele>88.9</ele>
        <time>2015-11-01T13:10:12Z</time>
      </trkpt>
      <trkpt lat="49.8276" lon="2.16912">
        <ele>88.9</ele>
        <time>2015-11-01T13:10:16Z</time>
      </trkpt>
      <trkpt lat="49.82762" lon="2.16915">
        <ele>88.9</ele>
        <time>2015-11-01T13:10:19Z</time>
      </trkpt>
      <trkpt lat="49.82767" lon="2.16915">
        <ele>88.9</ele>
        <time>2015-11-01T13:10:22Z</time>
      </trkpt>
      <trkpt lat="49.82769" lon="2.16919">
        <ele>88.8</ele>
        <time>2015-11-01T13:10:25Z</time>
      </trkpt>
      <trkpt lat="49.82774" lon="2.16919">
        <ele>88.8</ele>
        <time>2015-11-01T13:10:27Z</time>
      </trkpt>
      <trkpt lat="49.82777" lon="2.16922">
        <ele>88.8</ele>
        <time>2015-11-01T13:10:30Z</time>
      </trkpt>
      <trkpt lat="49.8278" lon="2.16926">
        <ele>88.7</ele>
        <time>2015-11-01T13:10:34Z</time>
      </trkpt>
      <trkpt lat="49.82783" lon="2.16928">
        <ele>88.7</ele>
        <time>2015-11-01T13:10:37Z</time>
      </trkpt>
      <trkpt lat="49.82785" lon="2.16931">
        <ele>88.6</ele>
        <time>2015-11-01T13:10:40Z</time>
      </trkpt>
      <trkpt lat="49.82786" lon="2.16936">
        <ele>88.5</ele>
        <time>2015-11-01T13:10:43Z</time>
      </trkpt>
      <trkpt lat="49.82789" lon="2.1694">
        <ele>88.4</ele>
        <time>2015-11-01T13:10:45Z</time>
      </trkpt>
      <trkpt lat="49.82791" lon="2.16945">
        <ele>88.3</ele>
        <time>2015-11-01T13:10:49Z</time>
      </trkpt>
      <trkpt lat="49.82793" lon="2.1695">
        <ele>88.3</ele>
        <time>2015-11-01T13:10:54Z</time>
      </trkpt>
      <trkpt lat="49.82795" lon="2.16952">
        <ele>88.3</ele>
        <time>2015-11-01T13:10:57Z</time>
      </trkpt>
      <trkpt lat="49.82797" lon="2.16955">
        <ele>88.3</ele>
        <time>2015-11-01T13:10:59Z</time>
      </trkpt>
      <trkpt lat="49.82801" lon="2.16957">
        <ele>88.3</ele>
        <time>2015-11-01T13:11:04Z</time>
      </trkpt>
      <trkpt lat="49.82803" lon="2.1696">
        <ele>88.4</ele>
        <time>2015-11-01T13:11:07Z</time>
      </trkpt>
      <trkpt lat="49.82806" lon="2.16966">
        <ele>88.4</ele>
        <time>2015-11-01T13:11:12Z</time>
      </trkpt>
      <trkpt lat="49.82809" lon="2.16968">
        <ele>88.5</ele>
        <time>2015-11-01T13:11:16Z</time>
      </trkpt>
      <trkpt lat="49.82812" lon="2.16974">
        <ele>88.6</ele>
        <time>2015-11-01T13:11:41Z</time>
      </trkpt>
      <trkpt lat="49.82814" lon="2.16977">
        <ele>88.7</ele>
        <time>2015-11-01T13:11:45Z</time>
      </trkpt>
      <trkpt lat="49.82818" lon="2.1698">
        <ele>88.8</ele>
        <time>2015-11-01T13:11:48Z</time>
      </trkpt>
      <trkpt lat="49.8282" lon="2.16983">
        <ele>88.8</ele>
        <time>2015-11-01T13:11:53Z</time>
      </trkpt>
      <trkpt lat="49.82822" lon="2.16987">
        <ele>88.9</ele>
        <time>2015-11-01T13:11:56Z</time>
      </trkpt>
      <trkpt lat="49.82824" lon="2.16991">
        <ele>88.9</ele>
        <time>2015-11-01T13:12:00Z</time>
      </trkpt>
      <trkpt lat="49.82827" lon="2.16991">
        <ele>89</ele>
        <time>2015-11-01T13:12:02Z</time>
      </trkpt>
      <trkpt lat="49.82829" lon="2.16993">
        <ele>89.1</ele>
        <time>2015-11-01T13:12:05Z</time>
      </trkpt>
      <trkpt lat="49.82832" lon="2.16997">
        <ele>89.2</ele>
        <time>2015-11-01T13:12:08Z</time>
      </trkpt>
      <trkpt lat="49.82835" lon="2.17">
        <ele>89.3</ele>
        <time>2015-11-01T13:12:11Z</time>
      </trkpt>
      <trkpt lat="49.82838" lon="2.17001">
        <ele>89.4</ele>
        <time>2015-11-01T13:12:14Z</time>
      </trkpt>
      <trkpt lat="49.8284" lon="2.17004">
        <ele>89.5</ele>
        <time>2015-11-01T13:12:17Z</time>
      </trkpt>
      <trkpt lat="49.82843" lon="2.17007">
        <ele>89.6</ele>
        <time>2015-11-01T13:12:20Z</time>
      </trkpt>
      <trkpt lat="49.82845" lon="2.1701">
        <ele>89.7</ele>
        <time>2015-11-01T13:12:23Z</time>
      </trkpt>
      <trkpt lat="49.82847" lon="2.17013">
        <ele>89.8</ele>
        <time>2015-11-01T13:12:27Z</time>
      </trkpt>
      <trkpt lat="49.8285" lon="2.17017">
        <ele>89.9</ele>
        <time>2015-11-01T13:12:31Z</time>
      </trkpt>
      <trkpt lat="49.82853" lon="2.17019">
        <ele>90</ele>
        <time>2015-11-01T13:12:34Z</time>
      </trkpt>
      <trkpt lat="49.82855" lon="2.17024">
        <ele>90.1</ele>
        <time>2015-11-01T13:12:38Z</time>
      </trkpt>
      <trkpt lat="49.82858" lon="2.17026">
        <ele>90.2</ele>
        <time>2015-11-01T13:12:41Z</time>
      </trkpt>
      <trkpt lat="49.8286" lon="2.17028">
        <ele>90.3</ele>
        <time>2015-11-01T13:12:44Z</time>
      </trkpt>
      <trkpt lat="49.82862" lon="2.17032">
        <ele>90.4</ele>
        <time>2015-11-01T13:12:47Z</time>
      </trkpt>
      <trkpt lat="49.82865" lon="2.17035">
        <ele>90.5</ele>
        <time>2015-11-01T13:12:51Z</time>
      </trkpt>
      <trkpt lat="49.82867" lon="2.17039">
        <ele>90.6</ele>
        <time>2015-11-01T13:12:54Z</time>
      </trkpt>
      <trkpt lat="49.82869" lon="2.17042">
        <ele>90.7</ele>
        <time>2015-11-01T13:12:57Z</time>
      </trkpt>
      <trkpt lat="49.82872" lon="2.17043">
        <ele>90.8</ele>
        <time>2015-11-01T13:13:03Z</time>
      </trkpt>
      <trkpt lat="49.82875" lon="2.17045">
        <ele>91</ele>
        <time>2015-11-01T13:13:06Z</time>
      </trkpt>
      <trkpt lat="49.82878" lon="2.17048">
        <ele>91.2</ele>
        <time>2015-11-01T13:13:09Z</time>
      </trkpt>
      <trkpt lat="49.8288" lon="2.17051">
        <ele>91.4</ele>
        <time>2015-11-01T13:13:11Z</time>
      </trkpt>
      <trkpt lat="49.82882" lon="2.17054">
        <ele>91.6</ele>
        <time>2015-11-01T13:13:15Z</time>
      </trkpt>
      <trkpt lat="49.82886" lon="2.17057">
        <ele>91.8</ele>
        <time>2015-11-01T13:13:18Z</time>
      </trkpt>
      <trkpt lat="49.82888" lon="2.17061">
        <ele>92</ele>
        <time>2015-11-01T13:13:22Z</time>
      </trkpt>
      <trkpt lat="49.82891" lon="2.17062">
        <ele>92.2</ele>
        <time>2015-11-01T13:13:26Z</time>
      </trkpt>
      <trkpt lat="49.82895" lon="2.17065">
        <ele>92.4</ele>
        <time>2015-11-01T13:13:30Z</time>
      </trkpt>
      <trkpt lat="49.82897" lon="2.17068">
        <ele>92.5</ele>
        <time>2015-11-01T13:13:32Z</time>
      </trkpt>
      <trkpt lat="49.82899" lon="2.17071">
        <ele>92.6</ele>
        <time>2015-11-01T13:13:34Z</time>
      </trkpt>
      <trkpt lat="49.82902" lon="2.17076">
        <ele>92.7</ele>
        <time>2015-11-01T13:13:37Z</time>
      </trkpt>
      <trkpt lat="49.82904" lon="2.17078">
        <ele>92.8</ele>
        <time>2015-11-01T13:13:40Z</time>
      </trkpt>
      <trkpt lat="49.82907" lon="2.17082">
        <ele>92.9</ele>
        <time>2015-11-01T13:13:44Z</time>
      </trkpt>
      <trkpt lat="49.82909" lon="2.17086">
        <ele>93</ele>
        <time>2015-11-01T13:13:48Z</time>
      </trkpt>
      <trkpt lat="49.82913" lon="2.17088">
        <ele>93.2</ele>
        <time>2015-11-01T13:13:53Z</time>
      </trkpt>
      <trkpt lat="49.82915" lon="2.17092">
        <ele>93.2</ele>
        <time>2015-11-01T13:13:56Z</time>
      </trkpt>
      <trkpt lat="49.82918" lon="2.17095">
        <ele>93.3</ele>
        <time>2015-11-01T13:13:59Z</time>
      </trkpt>
      <trkpt lat="49.8292" lon="2.17099">
        <ele>93.3</ele>
        <time>2015-11-01T13:14:01Z</time>
      </trkpt>
      <trkpt lat="49.82922" lon="2.17105">
        <ele>93.3</ele>
        <time>2015-11-01T13:14:04Z</time>
      </trkpt>
      <trkpt lat="49.82925" lon="2.17108">
        <ele>93.3</ele>
        <time>2015-11-01T13:14:07Z</time>
      </trkpt>
      <trkpt lat="49.82928" lon="2.17113">
        <ele>93.3</ele>
        <time>2015-11-01T13:14:09Z</time>
      </trkpt>
      <trkpt lat="49.8293" lon="2.17118">
        <ele>93.2</ele>
        <time>2015-11-01T13:14:12Z</time>
      </trkpt>
      <trkpt lat="49.82932" lon="2.1712">
        <ele>93.2</ele>
        <time>2015-11-01T13:14:15Z</time>
      </trkpt>
      <trkpt lat="49.82934" lon="2.17123">
        <ele>93.2</ele>
        <time>2015-11-01T13:14:20Z</time>
      </trkpt>
      <trkpt lat="49.82937" lon="2.17126">
        <ele>93.2</ele>
        <time>2015-11-01T13:14:22Z</time>
      </trkpt>
      <trkpt lat="49.82938" lon="2.1713">
        <ele>93.1</ele>
        <time>2015-11-01T13:14:25Z</time>
      </trkpt>
      <trkpt lat="49.8294" lon="2.17135">
        <ele>93.1</ele>
        <time>2015-11-01T13:14:29Z</time>
      </trkpt>
      <trkpt lat="49.82942" lon="2.17139">
        <ele>93</ele>
        <time>2015-11-01T13:14:36Z</time>
      </trkpt>
      <trkpt lat="49.82943" lon="2.17143">
        <ele>93</ele>
        <time>2015-11-01T13:14:39Z</time>
      </trkpt>
      <trkpt lat="49.82945" lon="2.17147">
        <ele>93</ele>
        <time>2015-11-01T13:14:42Z</time>
      </trkpt>
      <trkpt lat="49.82947" lon="2.17151">
        <ele>92.9</ele>
        <time>2015-11-01T13:14:44Z</time>
      </trkpt>
      <trkpt lat="49.82948" lon="2.17156">
        <ele>92.8</ele>
        <time>2015-11-01T13:14:47Z</time>
      </trkpt>
      <trkpt lat="49.8295" lon="2.1716">
        <ele>92.8</ele>
        <time>2015-11-01T13:14:49Z</time>
      </trkpt>
      <trkpt lat="49.82951" lon="2.17165">
        <ele>92.7</ele>
        <time>2015-11-01T13:14:52Z</time>
      </trkpt>
      <trkpt lat="49.82953" lon="2.17171">
        <ele>92.7</ele>
        <time>2015-11-01T13:14:55Z</time>
      </trkpt>
      <trkpt lat="49.82955" lon="2.17175">
        <ele>92.6</ele>
        <time>2015-11-01T13:14:58Z</time>
      </trkpt>
      <trkpt lat="49.82956" lon="2.1718">
        <ele>92.6</ele>
        <time>2015-11-01T13:15:00Z</time>
      </trkpt>
      <trkpt lat="49.82957" lon="2.17185">
        <ele>92.5</ele>
        <time>2015-11-01T13:15:03Z</time>
      </trkpt>
      <trkpt lat="49.82958" lon="2.1719">
        <ele>92.4</ele>
        <time>2015-11-01T13:15:06Z</time>
      </trkpt>
      <trkpt lat="49.82959" lon="2.17194">
        <ele>92.4</ele>
        <time>2015-11-01T13:15:09Z</time>
      </trkpt>
      <trkpt lat="49.82961" lon="2.17198">
        <ele>92.6</ele>
        <time>2015-11-01T13:15:13Z</time>
      </trkpt>
      <trkpt lat="49.82963" lon="2.17203">
        <ele>92.6</ele>
        <time>2015-11-01T13:15:17Z</time>
      </trkpt>
      <trkpt lat="49.82962" lon="2.17209">
        <ele>92.4</ele>
        <time>2015-11-01T13:15:20Z</time>
      </trkpt>
      <trkpt lat="49.82963" lon="2.17213">
        <ele>92.4</ele>
        <time>2015-11-01T13:15:24Z</time>
      </trkpt>
      <trkpt lat="49.82963" lon="2.17219">
        <ele>92.4</ele>
        <time>2015-11-01T13:15:28Z</time>
      </trkpt>
      <trkpt lat="49.82964" lon="2.17223">
        <ele>92.4</ele>
        <time>2015-11-01T13:15:33Z</time>
      </trkpt>
      <trkpt lat="49.82966" lon="2.17228">
        <ele>92.5</ele>
        <time>2015-11-01T13:15:37Z</time>
      </trkpt>
      <trkpt lat="49.82966" lon="2.17232">
        <ele>92.5</ele>
        <time>2015-11-01T13:15:41Z</time>
      </trkpt>
      <trkpt lat="49.82968" lon="2.17237">
        <ele>92.6</ele>
        <time>2015-11-01T13:15:43Z</time>
      </trkpt>
      <trkpt lat="49.82969" lon="2.17242">
        <ele>92.6</ele>
        <time>2015-11-01T13:15:45Z</time>
      </trkpt>
      <trkpt lat="49.82971" lon="2.17246">
        <ele>92.8</ele>
        <time>2015-11-01T13:15:47Z</time>
      </trkpt>
      <trkpt lat="49.82972" lon="2.17252">
        <ele>92.8</ele>
        <time>2015-11-01T13:15:50Z</time>
      </trkpt>
      <trkpt lat="49.82972" lon="2.17258">
        <ele>92.7</ele>
        <time>2015-11-01T13:15:53Z</time>
      </trkpt>
      <trkpt lat="49.82974" lon="2.17264">
        <ele>92.8</ele>
        <time>2015-11-01T13:15:57Z</time>
      </trkpt>
      <trkpt lat="49.82975" lon="2.17268">
        <ele>92.8</ele>
        <time>2015-11-01T13:15:59Z</time>
      </trkpt>
      <trkpt lat="49.82978" lon="2.17273">
        <ele>92.9</ele>
        <time>2015-11-01T13:16:03Z</time>
      </trkpt>
      <trkpt lat="49.82979" lon="2.17278">
        <ele>93</ele>
        <time>2015-11-01T13:16:05Z</time>
      </trkpt>
      <trkpt lat="49.8298" lon="2.17282">
        <ele>93</ele>
        <time>2015-11-01T13:16:08Z</time>
      </trkpt>
      <trkpt lat="49.82981" lon="2.17286">
        <ele>93.1</ele>
        <time>2015-11-01T13:16:11Z</time>
      </trkpt>
      <trkpt lat="49.82984" lon="2.1729">
        <ele>93.1</ele>
        <time>2015-11-01T13:16:13Z</time>
      </trkpt>
      <trkpt lat="49.82984" lon="2.17294">
        <ele>93.1</ele>
        <time>2015-11-01T13:16:16Z</time>
      </trkpt>
      <trkpt lat="49.82985" lon="2.173">
        <ele>93</ele>
        <time>2015-11-01T13:16:21Z</time>
      </trkpt>
      <trkpt lat="49.82987" lon="2.17304">
        <ele>92.9</ele>
        <time>2015-11-01T13:16:24Z</time>
      </trkpt>
      <trkpt lat="49.82989" lon="2.17308">
        <ele>92.9</ele>
        <time>2015-11-01T13:16:28Z</time>
      </trkpt>
      <trkpt lat="49.8299" lon="2.17313">
        <ele>92.8</ele>
        <time>2015-11-01T13:16:31Z</time>
      </trkpt>
      <trkpt lat="49.82992" lon="2.17318">
        <ele>92.7</ele>
        <time>2015-11-01T13:16:34Z</time>
      </trkpt>
      <trkpt lat="49.82994" lon="2.17323">
        <ele>92.7</ele>
        <time>2015-11-01T13:16:37Z</time>
      </trkpt>
      <trkpt lat="49.82996" lon="2.17326">
        <ele>92.7</ele>
        <time>2015-11-01T13:16:41Z</time>
      </trkpt>
      <trkpt lat="49.82997" lon="2.17331">
        <ele>92.6</ele>
        <time>2015-11-01T13:16:43Z</time>
      </trkpt>
      <trkpt lat="49.82998" lon="2.17335">
        <ele>92.5</ele>
        <time>2015-11-01T13:16:46Z</time>
      </trkpt>
      <trkpt lat="49.83" lon="2.1734">
        <ele>92.5</ele>
        <time>2015-11-01T13:16:49Z</time>
      </trkpt>
      <trkpt lat="49.83" lon="2.17344">
        <ele>92.3</ele>
        <time>2015-11-01T13:16:51Z</time>
      </trkpt>
      <trkpt lat="49.83001" lon="2.17349">
        <ele>92.1</ele>
        <time>2015-11-01T13:16:53Z</time>
      </trkpt>
      <trkpt lat="49.83002" lon="2.17355">
        <ele>92</ele>
        <time>2015-11-01T13:16:56Z</time>
      </trkpt>
      <trkpt lat="49.83003" lon="2.1736">
        <ele>91.8</ele>
        <time>2015-11-01T13:16:59Z</time>
      </trkpt>
      <trkpt lat="49.83002" lon="2.17365">
        <ele>91.5</ele>
        <time>2015-11-01T13:17:02Z</time>
      </trkpt>
      <trkpt lat="49.83004" lon="2.17369">
        <ele>91.5</ele>
        <time>2015-11-01T13:17:05Z</time>
      </trkpt>
      <trkpt lat="49.83005" lon="2.17374">
        <ele>91.4</ele>
        <time>2015-11-01T13:17:08Z</time>
      </trkpt>
      <trkpt lat="49.83006" lon="2.17378">
        <ele>91.3</ele>
        <time>2015-11-01T13:17:10Z</time>
      </trkpt>
      <trkpt lat="49.83006" lon="2.17383">
        <ele>91.1</ele>
        <time>2015-11-01T13:17:12Z</time>
      </trkpt>
      <trkpt lat="49.83007" lon="2.17387">
        <ele>91.1</ele>
        <time>2015-11-01T13:17:15Z</time>
      </trkpt>
      <trkpt lat="49.83008" lon="2.17392">
        <ele>91</ele>
        <time>2015-11-01T13:17:19Z</time>
      </trkpt>
      <trkpt lat="49.83009" lon="2.17396">
        <ele>90.9</ele>
        <time>2015-11-01T13:17:22Z</time>
      </trkpt>
      <trkpt lat="49.83009" lon="2.17401">
        <ele>90.7</ele>
        <time>2015-11-01T13:17:26Z</time>
      </trkpt>
      <trkpt lat="49.83009" lon="2.17406">
        <ele>90.5</ele>
        <time>2015-11-01T13:17:28Z</time>
      </trkpt>
      <trkpt lat="49.83008" lon="2.17411">
        <ele>90.3</ele>
        <time>2015-11-01T13:17:32Z</time>
      </trkpt>
      <trkpt lat="49.83009" lon="2.17415">
        <ele>90.2</ele>
        <time>2015-11-01T13:17:35Z</time>
      </trkpt>
      <trkpt lat="49.8301" lon="2.17421">
        <ele>90.1</ele>
        <time>2015-11-01T13:17:40Z</time>
      </trkpt>
      <trkpt lat="49.83011" lon="2.17425">
        <ele>89.9</ele>
        <time>2015-11-01T13:17:43Z</time>
      </trkpt>
      <trkpt lat="49.83011" lon="2.1743">
        <ele>89.9</ele>
        <time>2015-11-01T13:17:47Z</time>
      </trkpt>
      <trkpt lat="49.83012" lon="2.17434">
        <ele>89.7</ele>
        <time>2015-11-01T13:17:49Z</time>
      </trkpt>
      <trkpt lat="49.83015" lon="2.17437">
        <ele>89.8</ele>
        <time>2015-11-01T13:17:51Z</time>
      </trkpt>
      <trkpt lat="49.83016" lon="2.17445">
        <ele>89.6</ele>
        <time>2015-11-01T13:17:54Z</time>
      </trkpt>
      <trkpt lat="49.83016" lon="2.17452">
        <ele>89.4</ele>
        <time>2015-11-01T13:17:58Z</time>
      </trkpt>
      <trkpt lat="49.83017" lon="2.17457">
        <ele>89.3</ele>
        <time>2015-11-01T13:18:01Z</time>
      </trkpt>
      <trkpt lat="49.83019" lon="2.17461">
        <ele>89.4</ele>
        <time>2015-11-01T13:18:04Z</time>
      </trkpt>
      <trkpt lat="49.8302" lon="2.17466">
        <ele>89.5</ele>
        <time>2015-11-01T13:18:08Z</time>
      </trkpt>
      <trkpt lat="49.83019" lon="2.17471">
        <ele>89.5</ele>
        <time>2015-11-01T13:18:11Z</time>
      </trkpt>
      <trkpt lat="49.83021" lon="2.17475">
        <ele>89.7</ele>
        <time>2015-11-01T13:18:13Z</time>
      </trkpt>
      <trkpt lat="49.83023" lon="2.17478">
        <ele>89.9</ele>
        <time>2015-11-01T13:18:15Z</time>
      </trkpt>
      <trkpt lat="49.83024" lon="2.17482">
        <ele>90</ele>
        <time>2015-11-01T13:18:18Z</time>
      </trkpt>
      <trkpt lat="49.83026" lon="2.17486">
        <ele>90.2</ele>
        <time>2015-11-01T13:18:21Z</time>
      </trkpt>
      <trkpt lat="49.83029" lon="2.17489">
        <ele>90.4</ele>
        <time>2015-11-01T13:18:24Z</time>
      </trkpt>
      <trkpt lat="49.83031" lon="2.17493">
        <ele>90.6</ele>
        <time>2015-11-01T13:18:28Z</time>
      </trkpt>
      <trkpt lat="49.83034" lon="2.17497">
        <ele>90.9</ele>
        <time>2015-11-01T13:18:33Z</time>
      </trkpt>
      <trkpt lat="49.83036" lon="2.175">
        <ele>91.1</ele>
        <time>2015-11-01T13:18:35Z</time>
      </trkpt>
      <trkpt lat="49.83039" lon="2.17503">
        <ele>91.3</ele>
        <time>2015-11-01T13:18:43Z</time>
      </trkpt>
      <trkpt lat="49.83042" lon="2.17505">
        <ele>91.6</ele>
        <time>2015-11-01T13:18:46Z</time>
      </trkpt>
      <trkpt lat="49.83044" lon="2.17508">
        <ele>91.9</ele>
        <time>2015-11-01T13:18:51Z</time>
      </trkpt>
      <trkpt lat="49.83048" lon="2.17509">
        <ele>92.4</ele>
        <time>2015-11-01T13:18:54Z</time>
      </trkpt>
      <trkpt lat="49.83051" lon="2.17514">
        <ele>92.8</ele>
        <time>2015-11-01T13:18:58Z</time>
      </trkpt>
      <trkpt lat="49.83055" lon="2.17516">
        <ele>93.2</ele>
        <time>2015-11-01T13:19:02Z</time>
      </trkpt>
      <trkpt lat="49.83058" lon="2.17519">
        <ele>93.5</ele>
        <time>2015-11-01T13:19:07Z</time>
      </trkpt>
      <trkpt lat="49.83059" lon="2.17523">
        <ele>93.7</ele>
        <time>2015-11-01T13:19:10Z</time>
      </trkpt>
      <trkpt lat="49.83063" lon="2.17524">
        <ele>94.1</ele>
        <time>2015-11-01T13:19:15Z</time>
      </trkpt>
      <trkpt lat="49.83066" lon="2.17526">
        <ele>94.4</ele>
        <time>2015-11-01T13:19:19Z</time>
      </trkpt>
      <trkpt lat="49.83069" lon="2.1753">
        <ele>94.7</ele>
        <time>2015-11-01T13:19:23Z</time>
      </trkpt>
      <trkpt lat="49.83071" lon="2.17532">
        <ele>94.9</ele>
        <time>2015-11-01T13:19:26Z</time>
      </trkpt>
      <trkpt lat="49.83074" lon="2.17537">
        <ele>95.1</ele>
        <time>2015-11-01T13:19:30Z</time>
      </trkpt>
      <trkpt lat="49.83078" lon="2.17538">
        <ele>95.5</ele>
        <time>2015-11-01T13:19:33Z</time>
      </trkpt>
      <trkpt lat="49.8308" lon="2.1754">
        <ele>95.7</ele>
        <time>2015-11-01T13:19:36Z</time>
      </trkpt>
      <trkpt lat="49.83083" lon="2.1754">
        <ele>96</ele>
        <time>2015-11-01T13:19:40Z</time>
      </trkpt>
      <trkpt lat="49.83086" lon="2.17543">
        <ele>96.2</ele>
        <time>2015-11-01T13:19:44Z</time>
      </trkpt>
      <trkpt lat="49.83087" lon="2.17546">
        <ele>96.2</ele>
        <time>2015-11-01T13:19:49Z</time>
      </trkpt>
      <trkpt lat="49.8309" lon="2.17549">
        <ele>96.2</ele>
        <time>2015-11-01T13:19:53Z</time>
      </trkpt>
      <trkpt lat="49.83093" lon="2.17552">
        <ele>96.4</ele>
        <time>2015-11-01T13:19:57Z</time>
      </trkpt>
      <trkpt lat="49.83095" lon="2.17556">
        <ele>96.4</ele>
        <time>2015-11-01T13:20:01Z</time>
      </trkpt>
      <trkpt lat="49.83097" lon="2.1756">
        <ele>96.3</ele>
        <time>2015-11-01T13:20:07Z</time>
      </trkpt>
      <trkpt lat="49.83101" lon="2.17562">
        <ele>96.5</ele>
        <time>2015-11-01T13:20:20Z</time>
      </trkpt>
      <trkpt lat="49.83103" lon="2.17563">
        <ele>96.7</ele>
        <time>2015-11-01T13:20:28Z</time>
      </trkpt>
      <trkpt lat="49.83104" lon="2.17567">
        <ele>96.5</ele>
        <time>2015-11-01T13:20:32Z</time>
      </trkpt>
      <trkpt lat="49.83107" lon="2.1757">
        <ele>96.5</ele>
        <time>2015-11-01T13:20:34Z</time>
      </trkpt>
      <trkpt lat="49.8311" lon="2.17572">
        <ele>96.6</ele>
        <time>2015-11-01T13:20:37Z</time>
      </trkpt>
      <trkpt lat="49.83112" lon="2.17575">
        <ele>96.6</ele>
        <time>2015-11-01T13:20:39Z</time>
      </trkpt>
      <trkpt lat="49.83114" lon="2.17579">
        <ele>96.5</ele>
        <time>2015-11-01T13:20:44Z</time>
      </trkpt>
      <trkpt lat="49.83117" lon="2.17581">
        <ele>96.6</ele>
        <time>2015-11-01T13:20:48Z</time>
      </trkpt>
      <trkpt lat="49.8312" lon="2.17584">
        <ele>96.6</ele>
        <time>2015-11-01T13:20:52Z</time>
      </trkpt>
      <trkpt lat="49.83121" lon="2.17589">
        <ele>96.4</ele>
        <time>2015-11-01T13:20:56Z</time>
      </trkpt>
      <trkpt lat="49.83125" lon="2.17588">
        <ele>96.7</ele>
        <time>2015-11-01T13:20:58Z</time>
      </trkpt>
      <trkpt lat="49.83128" lon="2.1759">
        <ele>97</ele>
        <time>2015-11-01T13:21:01Z</time>
      </trkpt>
      <trkpt lat="49.83129" lon="2.17594">
        <ele>96.9</ele>
        <time>2015-11-01T13:21:05Z</time>
      </trkpt>
      <trkpt lat="49.83131" lon="2.17597">
        <ele>97</ele>
        <time>2015-11-01T13:21:10Z</time>
      </trkpt>
      <trkpt lat="49.83133" lon="2.176">
        <ele>97.1</ele>
        <time>2015-11-01T13:21:13Z</time>
      </trkpt>
      <trkpt lat="49.83136" lon="2.17605">
        <ele>97.1</ele>
        <time>2015-11-01T13:21:17Z</time>
      </trkpt>
      <trkpt lat="49.83138" lon="2.17609">
        <ele>97.3</ele>
        <time>2015-11-01T13:21:19Z</time>
      </trkpt>
      <trkpt lat="49.83142" lon="2.17612">
        <ele>97.8</ele>
        <time>2015-11-01T13:21:22Z</time>
      </trkpt>
      <trkpt lat="49.83144" lon="2.17616">
        <ele>97.8</ele>
        <time>2015-11-01T13:21:25Z</time>
      </trkpt>
      <trkpt lat="49.83147" lon="2.1762">
        <ele>98.1</ele>
        <time>2015-11-01T13:21:28Z</time>
      </trkpt>
      <trkpt lat="49.83149" lon="2.17626">
        <ele>98</ele>
        <time>2015-11-01T13:21:32Z</time>
      </trkpt>
      <trkpt lat="49.83152" lon="2.17629">
        <ele>98.3</ele>
        <time>2015-11-01T13:21:36Z</time>
      </trkpt>
      <trkpt lat="49.83153" lon="2.17632">
        <ele>98.4</ele>
        <time>2015-11-01T13:21:40Z</time>
      </trkpt>
      <trkpt lat="49.83155" lon="2.17637">
        <ele>98.5</ele>
        <time>2015-11-01T13:21:42Z</time>
      </trkpt>
      <trkpt lat="49.83156" lon="2.1764">
        <ele>98.5</ele>
        <time>2015-11-01T13:21:45Z</time>
      </trkpt>
      <trkpt lat="49.83159" lon="2.17644">
        <ele>98.7</ele>
        <time>2015-11-01T13:21:50Z</time>
      </trkpt>
      <trkpt lat="49.83161" lon="2.17647">
        <ele>98.9</ele>
        <time>2015-11-01T13:21:54Z</time>
      </trkpt>
      <trkpt lat="49.83164" lon="2.17651">
        <ele>99.1</ele>
        <time>2015-11-01T13:21:57Z</time>
      </trkpt>
      <trkpt lat="49.83167" lon="2.17654">
        <ele>99.5</ele>
        <time>2015-11-01T13:22:02Z</time>
      </trkpt>
      <trkpt lat="49.8317" lon="2.17658">
        <ele>99.6</ele>
        <time>2015-11-01T13:22:08Z</time>
      </trkpt>
      <trkpt lat="49.83171" lon="2.17662">
        <ele>99.7</ele>
        <time>2015-11-01T13:22:10Z</time>
      </trkpt>
      <trkpt lat="49.83174" lon="2.17664">
        <ele>99.9</ele>
        <time>2015-11-01T13:22:13Z</time>
      </trkpt>
      <trkpt lat="49.83176" lon="2.17665">
        <ele>100.2</ele>
        <time>2015-11-01T13:22:17Z</time>
      </trkpt>
      <trkpt lat="49.8318" lon="2.1767">
        <ele>100.4</ele>
        <time>2015-11-01T13:22:23Z</time>
      </trkpt>
      <trkpt lat="49.83182" lon="2.17673">
        <ele>100.5</ele>
        <time>2015-11-01T13:22:28Z</time>
      </trkpt>
      <trkpt lat="49.83185" lon="2.17676">
        <ele>100.6</ele>
        <time>2015-11-01T13:22:32Z</time>
      </trkpt>
      <trkpt lat="49.83187" lon="2.17679">
        <ele>100.7</ele>
        <time>2015-11-01T13:22:35Z</time>
      </trkpt>
      <trkpt lat="49.8319" lon="2.17682">
        <ele>100.8</ele>
        <time>2015-11-01T13:22:37Z</time>
      </trkpt>
      <trkpt lat="49.83191" lon="2.17686">
        <ele>100.7</ele>
        <time>2015-11-01T13:22:40Z</time>
      </trkpt>
      <trkpt lat="49.83192" lon="2.1769">
        <ele>100.5</ele>
        <time>2015-11-01T13:22:43Z</time>
      </trkpt>
      <trkpt lat="49.83193" lon="2.17695">
        <ele>100.4</ele>
        <time>2015-11-01T13:22:47Z</time>
      </trkpt>
      <trkpt lat="49.83194" lon="2.17699">
        <ele>100.2</ele>
        <time>2015-11-01T13:22:50Z</time>
      </trkpt>
      <trkpt lat="49.83195" lon="2.17703">
        <ele>100</ele>
        <time>2015-11-01T13:22:55Z</time>
      </trkpt>
      <trkpt lat="49.83199" lon="2.17703">
        <ele>100.4</ele>
        <time>2015-11-01T13:22:56Z</time>
      </trkpt>
      <trkpt lat="49.83201" lon="2.17706">
        <ele>100.4</ele>
        <time>2015-11-01T13:23:00Z</time>
      </trkpt>
      <trkpt lat="49.83204" lon="2.17709">
        <ele>100.5</ele>
        <time>2015-11-01T13:23:05Z</time>
      </trkpt>
      <trkpt lat="49.83205" lon="2.17715">
        <ele>100.4</ele>
        <time>2015-11-01T13:23:10Z</time>
      </trkpt>
      <trkpt lat="49.83206" lon="2.17719">
        <ele>100.4</ele>
        <time>2015-11-01T13:23:13Z</time>
      </trkpt>
      <trkpt lat="49.83207" lon="2.17724">
        <ele>100.3</ele>
        <time>2015-11-01T13:23:16Z</time>
      </trkpt>
      <trkpt lat="49.83207" lon="2.17728">
        <ele>100.1</ele>
        <time>2015-11-01T13:23:21Z</time>
      </trkpt>
      <trkpt lat="49.83209" lon="2.17732">
        <ele>100.3</ele>
        <time>2015-11-01T13:23:29Z</time>
      </trkpt>
      <trkpt lat="49.83211" lon="2.17735">
        <ele>100.4</ele>
        <time>2015-11-01T13:23:34Z</time>
      </trkpt>
      <trkpt lat="49.83214" lon="2.17736">
        <ele>101</ele>
        <time>2015-11-01T13:23:37Z</time>
      </trkpt>
      <trkpt lat="49.83217" lon="2.17738">
        <ele>101.3</ele>
        <time>2015-11-01T13:23:40Z</time>
      </trkpt>
      <trkpt lat="49.83219" lon="2.17742">
        <ele>101.5</ele>
        <time>2015-11-01T13:23:43Z</time>
      </trkpt>
      <trkpt lat="49.83221" lon="2.17745">
        <ele>101.8</ele>
        <time>2015-11-01T13:23:46Z</time>
      </trkpt>
      <trkpt lat="49.83224" lon="2.17748">
        <ele>102.1</ele>
        <time>2015-11-01T13:23:50Z</time>
      </trkpt>
      <trkpt lat="49.83226" lon="2.17752">
        <ele>102.3</ele>
        <time>2015-11-01T13:23:55Z</time>
      </trkpt>
      <trkpt lat="49.83229" lon="2.17754">
        <ele>102.7</ele>
        <time>2015-11-01T13:23:58Z</time>
      </trkpt>
      <trkpt lat="49.83232" lon="2.17756">
        <ele>103</ele>
        <time>2015-11-01T13:24:03Z</time>
      </trkpt>
      <trkpt lat="49.83235" lon="2.17759">
        <ele>103.4</ele>
        <time>2015-11-01T13:24:08Z</time>
      </trkpt>
      <trkpt lat="49.83238" lon="2.17759">
        <ele>103.8</ele>
        <time>2015-11-01T13:24:12Z</time>
      </trkpt>
      <trkpt lat="49.83241" lon="2.17762">
        <ele>104.2</ele>
        <time>2015-11-01T13:24:15Z</time>
      </trkpt>
      <trkpt lat="49.83242" lon="2.17767">
        <ele>104.1</ele>
        <time>2015-11-01T13:24:19Z</time>
      </trkpt>
      <trkpt lat="49.83246" lon="2.17769">
        <ele>104.5</ele>
        <time>2015-11-01T13:24:29Z</time>
      </trkpt>
      <trkpt lat="49.83249" lon="2.17772">
        <ele>104.8</ele>
        <time>2015-11-01T13:24:36Z</time>
      </trkpt>
      <trkpt lat="49.8325" lon="2.17777">
        <ele>104.8</ele>
        <time>2015-11-01T13:24:41Z</time>
      </trkpt>
      <trkpt lat="49.83253" lon="2.1778">
        <ele>105</ele>
        <time>2015-11-01T13:24:44Z</time>
      </trkpt>
      <trkpt lat="49.83255" lon="2.17784">
        <ele>105.1</ele>
        <time>2015-11-01T13:24:47Z</time>
      </trkpt>
      <trkpt lat="49.83257" lon="2.17788">
        <ele>105.3</ele>
        <time>2015-11-01T13:24:50Z</time>
      </trkpt>
      <trkpt lat="49.83259" lon="2.17792">
        <ele>105.3</ele>
        <time>2015-11-01T13:24:53Z</time>
      </trkpt>
      <trkpt lat="49.83262" lon="2.17796">
        <ele>105.5</ele>
        <time>2015-11-01T13:24:57Z</time>
      </trkpt>
      <trkpt lat="49.83265" lon="2.178">
        <ele>105.6</ele>
        <time>2015-11-01T13:25:00Z</time>
      </trkpt>
      <trkpt lat="49.83266" lon="2.17803">
        <ele>105.7</ele>
        <time>2015-11-01T13:25:04Z</time>
      </trkpt>
      <trkpt lat="49.83267" lon="2.17808">
        <ele>105.5</ele>
        <time>2015-11-01T13:25:09Z</time>
      </trkpt>
      <trkpt lat="49.83269" lon="2.17812">
        <ele>105.5</ele>
        <time>2015-11-01T13:25:11Z</time>
      </trkpt>
      <trkpt lat="49.83271" lon="2.17814">
        <ele>105.7</ele>
        <time>2015-11-01T13:25:18Z</time>
      </trkpt>
      <trkpt lat="49.83274" lon="2.17817">
        <ele>105.9</ele>
        <time>2015-11-01T13:25:37Z</time>
      </trkpt>
      <trkpt lat="49.83275" lon="2.17821">
        <ele>105.8</ele>
        <time>2015-11-01T13:25:44Z</time>
      </trkpt>
      <trkpt lat="49.83276" lon="2.17826">
        <ele>105.6</ele>
        <time>2015-11-01T13:26:43Z</time>
      </trkpt>
      <trkpt lat="49.83279" lon="2.17828">
        <ele>105.8</ele>
        <time>2015-11-01T13:26:47Z</time>
      </trkpt>
      <trkpt lat="49.83281" lon="2.17831">
        <ele>105.9</ele>
        <time>2015-11-01T13:26:50Z</time>
      </trkpt>
      <trkpt lat="49.83284" lon="2.17836">
        <ele>105.9</ele>
        <time>2015-11-01T13:26:53Z</time>
      </trkpt>
      <trkpt lat="49.83286" lon="2.17839">
        <ele>106</ele>
        <time>2015-11-01T13:26:56Z</time>
      </trkpt>
      <trkpt lat="49.83289" lon="2.17842">
        <ele>106</ele>
        <time>2015-11-01T13:26:59Z</time>
      </trkpt>
      <trkpt lat="49.8329" lon="2.17846">
        <ele>105.9</ele>
        <time>2015-11-01T13:27:03Z</time>
      </trkpt>
      <trkpt lat="49.83293" lon="2.17849">
        <ele>106</ele>
        <time>2015-11-01T13:27:06Z</time>
      </trkpt>
      <trkpt lat="49.83294" lon="2.17854">
        <ele>105.9</ele>
        <time>2015-11-01T13:27:11Z</time>
      </trkpt>
      <trkpt lat="49.83297" lon="2.17859">
        <ele>105.8</ele>
        <time>2015-11-01T13:27:13Z</time>
      </trkpt>
      <trkpt lat="49.833" lon="2.17863">
        <ele>105.9</ele>
        <time>2015-11-01T13:27:24Z</time>
      </trkpt>
      <trkpt lat="49.83303" lon="2.17863">
        <ele>106.3</ele>
        <time>2015-11-01T13:27:37Z</time>
      </trkpt>
      <trkpt lat="49.83306" lon="2.17862">
        <ele>106.7</ele>
        <time>2015-11-01T13:30:17Z</time>
      </trkpt>
      <trkpt lat="49.83308" lon="2.17862">
        <ele>107.1</ele>
        <time>2015-11-01T13:30:19Z</time>
      </trkpt>
      <trkpt lat="49.83305" lon="2.17864">
        <ele>106.6</ele>
        <time>2015-11-01T13:30:20Z</time>
      </trkpt>
      <trkpt lat="49.83308" lon="2.1787">
        <ele>106.6</ele>
        <time>2015-11-01T13:30:22Z</time>
      </trkpt>
      <trkpt lat="49.8331" lon="2.17874">
        <ele>106.5</ele>
        <time>2015-11-01T13:30:23Z</time>
      </trkpt>
      <trkpt lat="49.83317" lon="2.17884">
        <ele>106.6</ele>
        <time>2015-11-01T13:32:29Z</time>
      </trkpt>
      <trkpt lat="49.83318" lon="2.17888">
        <ele>106.5</ele>
        <time>2015-11-01T13:32:33Z</time>
      </trkpt>
      <trkpt lat="49.83321" lon="2.1789">
        <ele>106.7</ele>
        <time>2015-11-01T13:32:35Z</time>
      </trkpt>
      <trkpt lat="49.83323" lon="2.17895">
        <ele>106.5</ele>
        <time>2015-11-01T13:32:38Z</time>
      </trkpt>
      <trkpt lat="49.83323" lon="2.17899">
        <ele>106.4</ele>
        <time>2015-11-01T13:32:45Z</time>
      </trkpt>
      <trkpt lat="49.83326" lon="2.17902">
        <ele>106.4</ele>
        <time>2015-11-01T13:32:49Z</time>
      </trkpt>
      <trkpt lat="49.83329" lon="2.17904">
        <ele>106.7</ele>
        <time>2015-11-01T13:32:57Z</time>
      </trkpt>
      <trkpt lat="49.83328" lon="2.17908">
        <ele>106.2</ele>
        <time>2015-11-01T13:32:59Z</time>
      </trkpt>
      <trkpt lat="49.83329" lon="2.17912">
        <ele>106</ele>
        <time>2015-11-01T13:33:04Z</time>
      </trkpt>
      <trkpt lat="49.83331" lon="2.17916">
        <ele>106</ele>
        <time>2015-11-01T13:33:08Z</time>
      </trkpt>
      <trkpt lat="49.83334" lon="2.17919">
        <ele>106.2</ele>
        <time>2015-11-01T13:33:11Z</time>
      </trkpt>
      <trkpt lat="49.83337" lon="2.17921">
        <ele>106.4</ele>
        <time>2015-11-01T13:33:14Z</time>
      </trkpt>
      <trkpt lat="49.83339" lon="2.17925">
        <ele>106.3</ele>
        <time>2015-11-01T13:33:19Z</time>
      </trkpt>
      <trkpt lat="49.83342" lon="2.17927">
        <ele>106.5</ele>
        <time>2015-11-01T13:33:24Z</time>
      </trkpt>
      <trkpt lat="49.83345" lon="2.17927">
        <ele>106.9</ele>
        <time>2015-11-01T13:33:28Z</time>
      </trkpt>
      <trkpt lat="49.83346" lon="2.17932">
        <ele>106.7</ele>
        <time>2015-11-01T13:33:33Z</time>
      </trkpt>
      <trkpt lat="49.83348" lon="2.17937">
        <ele>106.5</ele>
        <time>2015-11-01T13:33:35Z</time>
      </trkpt>
      <trkpt lat="49.83349" lon="2.17941">
        <ele>106.3</ele>
        <time>2015-11-01T13:33:37Z</time>
      </trkpt>
      <trkpt lat="49.83351" lon="2.17945">
        <ele>106.2</ele>
        <time>2015-11-01T13:33:40Z</time>
      </trkpt>
      <trkpt lat="49.83352" lon="2.1795">
        <ele>105.9</ele>
        <time>2015-11-01T13:33:44Z</time>
      </trkpt>
      <trkpt lat="49.83352" lon="2.17955">
        <ele>105.5</ele>
        <time>2015-11-01T13:33:48Z</time>
      </trkpt>
      <trkpt lat="49.83353" lon="2.1796">
        <ele>105.3</ele>
        <time>2015-11-01T13:33:53Z</time>
      </trkpt>
      <trkpt lat="49.83355" lon="2.17965">
        <ele>105.2</ele>
        <time>2015-11-01T13:33:56Z</time>
      </trkpt>
      <trkpt lat="49.83356" lon="2.17969">
        <ele>105</ele>
        <time>2015-11-01T13:33:58Z</time>
      </trkpt>
      <trkpt lat="49.83357" lon="2.17973">
        <ele>104.9</ele>
        <time>2015-11-01T13:34:00Z</time>
      </trkpt>
      <trkpt lat="49.83359" lon="2.17977">
        <ele>104.9</ele>
        <time>2015-11-01T13:34:03Z</time>
      </trkpt>
      <trkpt lat="49.83363" lon="2.17979">
        <ele>105.2</ele>
        <time>2015-11-01T13:34:06Z</time>
      </trkpt>
      <trkpt lat="49.83364" lon="2.17982">
        <ele>105.2</ele>
        <time>2015-11-01T13:34:08Z</time>
      </trkpt>
      <trkpt lat="49.83367" lon="2.17986">
        <ele>105.2</ele>
        <time>2015-11-01T13:34:10Z</time>
      </trkpt>
      <trkpt lat="49.83368" lon="2.17991">
        <ele>105.1</ele>
        <time>2015-11-01T13:34:12Z</time>
      </trkpt>
      <trkpt lat="49.8337" lon="2.17995">
        <ele>105.1</ele>
        <time>2015-11-01T13:34:14Z</time>
      </trkpt>
      <trkpt lat="49.83373" lon="2.17998">
        <ele>105.4</ele>
        <time>2015-11-01T13:34:18Z</time>
      </trkpt>
      <trkpt lat="49.83373" lon="2.18003">
        <ele>105.1</ele>
        <time>2015-11-01T13:34:21Z</time>
      </trkpt>
      <trkpt lat="49.83371" lon="2.18007">
        <ele>104.6</ele>
        <time>2015-11-01T13:34:24Z</time>
      </trkpt>
      <trkpt lat="49.8337" lon="2.18011">
        <ele>104.2</ele>
        <time>2015-11-01T13:34:27Z</time>
      </trkpt>
      <trkpt lat="49.8337" lon="2.1802">
        <ele>103.6</ele>
        <time>2015-11-01T13:34:43Z</time>
      </trkpt>
      <trkpt lat="49.83371" lon="2.18024">
        <ele>103.5</ele>
        <time>2015-11-01T13:34:46Z</time>
      </trkpt>
      <trkpt lat="49.83372" lon="2.18029">
        <ele>103.3</ele>
        <time>2015-11-01T13:34:57Z</time>
      </trkpt>
      <trkpt lat="49.83372" lon="2.18033">
        <ele>103.1</ele>
        <time>2015-11-01T13:34:59Z</time>
      </trkpt>
      <trkpt lat="49.83373" lon="2.18039">
        <ele>102.8</ele>
        <time>2015-11-01T13:35:04Z</time>
      </trkpt>
      <trkpt lat="49.83376" lon="2.18043">
        <ele>103</ele>
        <time>2015-11-01T13:35:07Z</time>
      </trkpt>
      <trkpt lat="49.83377" lon="2.18049">
        <ele>102.9</ele>
        <time>2015-11-01T13:35:10Z</time>
      </trkpt>
      <trkpt lat="49.83379" lon="2.18056">
        <ele>102.9</ele>
        <time>2015-11-01T13:35:11Z</time>
      </trkpt>
      <trkpt lat="49.83382" lon="2.18061">
        <ele>103</ele>
        <time>2015-11-01T13:35:13Z</time>
      </trkpt>
      <trkpt lat="49.83383" lon="2.18067">
        <ele>102.9</ele>
        <time>2015-11-01T13:35:17Z</time>
      </trkpt>
      <trkpt lat="49.83384" lon="2.18071">
        <ele>102.9</ele>
        <time>2015-11-01T13:35:20Z</time>
      </trkpt>
      <trkpt lat="49.83383" lon="2.18076">
        <ele>102.6</ele>
        <time>2015-11-01T13:35:23Z</time>
      </trkpt>
      <trkpt lat="49.83385" lon="2.18081">
        <ele>102.6</ele>
        <time>2015-11-01T13:35:27Z</time>
      </trkpt>
      <trkpt lat="49.83386" lon="2.18086">
        <ele>102.5</ele>
        <time>2015-11-01T13:35:29Z</time>
      </trkpt>
      <trkpt lat="49.83387" lon="2.18092">
        <ele>102.4</ele>
        <time>2015-11-01T13:35:32Z</time>
      </trkpt>
      <trkpt lat="49.83389" lon="2.18097">
        <ele>102.4</ele>
        <time>2015-11-01T13:35:34Z</time>
      </trkpt>
      <trkpt lat="49.83391" lon="2.18101">
        <ele>102.6</ele>
        <time>2015-11-01T13:35:37Z</time>
      </trkpt>
      <trkpt lat="49.83391" lon="2.18105">
        <ele>102.5</ele>
        <time>2015-11-01T13:35:40Z</time>
      </trkpt>
      <trkpt lat="49.83392" lon="2.18111">
        <ele>102.2</ele>
        <time>2015-11-01T13:35:44Z</time>
      </trkpt>
      <trkpt lat="49.83391" lon="2.18115">
        <ele>101.9</ele>
        <time>2015-11-01T13:35:46Z</time>
      </trkpt>
      <trkpt lat="49.83392" lon="2.1812">
        <ele>101.8</ele>
        <time>2015-11-01T13:35:48Z</time>
      </trkpt>
      <trkpt lat="49.83392" lon="2.18126">
        <ele>101.7</ele>
        <time>2015-11-01T13:35:51Z</time>
      </trkpt>
      <trkpt lat="49.83392" lon="2.18134">
        <ele>101.5</ele>
        <time>2015-11-01T13:35:55Z</time>
      </trkpt>
      <trkpt lat="49.83394" lon="2.18138">
        <ele>101.7</ele>
        <time>2015-11-01T13:35:57Z</time>
      </trkpt>
      <trkpt lat="49.83393" lon="2.18142">
        <ele>101.4</ele>
        <time>2015-11-01T13:35:59Z</time>
      </trkpt>
      <trkpt lat="49.83394" lon="2.18146">
        <ele>101.5</ele>
        <time>2015-11-01T13:36:03Z</time>
      </trkpt>
      <trkpt lat="49.83396" lon="2.1815">
        <ele>101.7</ele>
        <time>2015-11-01T13:36:08Z</time>
      </trkpt>
      <trkpt lat="49.83394" lon="2.18155">
        <ele>101.3</ele>
        <time>2015-11-01T13:36:11Z</time>
      </trkpt>
      <trkpt lat="49.83395" lon="2.18162">
        <ele>101.2</ele>
        <time>2015-11-01T13:36:14Z</time>
      </trkpt>
      <trkpt lat="49.83396" lon="2.18167">
        <ele>101.3</ele>
        <time>2015-11-01T13:36:17Z</time>
      </trkpt>
      <trkpt lat="49.83397" lon="2.18172">
        <ele>101.3</ele>
        <time>2015-11-01T13:36:20Z</time>
      </trkpt>
      <trkpt lat="49.83397" lon="2.18176">
        <ele>101.3</ele>
        <time>2015-11-01T13:36:22Z</time>
      </trkpt>
      <trkpt lat="49.83397" lon="2.18181">
        <ele>101.1</ele>
        <time>2015-11-01T13:36:24Z</time>
      </trkpt>
      <trkpt lat="49.83396" lon="2.18188">
        <ele>100.8</ele>
        <time>2015-11-01T13:36:27Z</time>
      </trkpt>
      <trkpt lat="49.83399" lon="2.1819">
        <ele>101.1</ele>
        <time>2015-11-01T13:36:34Z</time>
      </trkpt>
      <trkpt lat="49.83401" lon="2.18194">
        <ele>101.4</ele>
        <time>2015-11-01T13:36:38Z</time>
      </trkpt>
      <trkpt lat="49.83403" lon="2.182">
        <ele>101.5</ele>
        <time>2015-11-01T13:36:41Z</time>
      </trkpt>
      <trkpt lat="49.83404" lon="2.18204">
        <ele>101.6</ele>
        <time>2015-11-01T13:36:44Z</time>
      </trkpt>
      <trkpt lat="49.83406" lon="2.18207">
        <ele>101.9</ele>
        <time>2015-11-01T13:36:47Z</time>
      </trkpt>
      <trkpt lat="49.83408" lon="2.18211">
        <ele>102</ele>
        <time>2015-11-01T13:36:50Z</time>
      </trkpt>
      <trkpt lat="49.83408" lon="2.18217">
        <ele>101.6</ele>
        <time>2015-11-01T13:36:52Z</time>
      </trkpt>
      <trkpt lat="49.83409" lon="2.18222">
        <ele>101.6</ele>
        <time>2015-11-01T13:36:56Z</time>
      </trkpt>
      <trkpt lat="49.83409" lon="2.18227">
        <ele>101.3</ele>
        <time>2015-11-01T13:36:59Z</time>
      </trkpt>
      <trkpt lat="49.83409" lon="2.18233">
        <ele>101.1</ele>
        <time>2015-11-01T13:37:02Z</time>
      </trkpt>
      <trkpt lat="49.83411" lon="2.18236">
        <ele>101.1</ele>
        <time>2015-11-01T13:37:05Z</time>
      </trkpt>
      <trkpt lat="49.83412" lon="2.18242">
        <ele>100.9</ele>
        <time>2015-11-01T13:37:08Z</time>
      </trkpt>
      <trkpt lat="49.83412" lon="2.18248">
        <ele>100.7</ele>
        <time>2015-11-01T13:37:11Z</time>
      </trkpt>
      <trkpt lat="49.83413" lon="2.18252">
        <ele>100.7</ele>
        <time>2015-11-01T13:37:13Z</time>
      </trkpt>
      <trkpt lat="49.83415" lon="2.18255">
        <ele>100.7</ele>
        <time>2015-11-01T13:37:16Z</time>
      </trkpt>
      <trkpt lat="49.83415" lon="2.18261">
        <ele>100.4</ele>
        <time>2015-11-01T13:37:19Z</time>
      </trkpt>
      <trkpt lat="49.83418" lon="2.18264">
        <ele>100.6</ele>
        <time>2015-11-01T13:37:23Z</time>
      </trkpt>
      <trkpt lat="49.83418" lon="2.18268">
        <ele>100.5</ele>
        <time>2015-11-01T13:37:25Z</time>
      </trkpt>
      <trkpt lat="49.83419" lon="2.18273">
        <ele>100.3</ele>
        <time>2015-11-01T13:37:27Z</time>
      </trkpt>
      <trkpt lat="49.83419" lon="2.18279">
        <ele>100</ele>
        <time>2015-11-01T13:37:30Z</time>
      </trkpt>
      <trkpt lat="49.8342" lon="2.18282">
        <ele>100</ele>
        <time>2015-11-01T13:37:33Z</time>
      </trkpt>
      <trkpt lat="49.83423" lon="2.18285">
        <ele>100.3</ele>
        <time>2015-11-01T13:37:37Z</time>
      </trkpt>
      <trkpt lat="49.83425" lon="2.18289">
        <ele>100.3</ele>
        <time>2015-11-01T13:37:42Z</time>
      </trkpt>
      <trkpt lat="49.83426" lon="2.18294">
        <ele>100.2</ele>
        <time>2015-11-01T13:37:47Z</time>
      </trkpt>
      <trkpt lat="49.83429" lon="2.18298">
        <ele>100.4</ele>
        <time>2015-11-01T13:37:51Z</time>
      </trkpt>
      <trkpt lat="49.83431" lon="2.18301">
        <ele>100.4</ele>
        <time>2015-11-01T13:37:55Z</time>
      </trkpt>
      <trkpt lat="49.83433" lon="2.18303">
        <ele>100.6</ele>
        <time>2015-11-01T13:37:58Z</time>
      </trkpt>
      <trkpt lat="49.83435" lon="2.18307">
        <ele>100.5</ele>
        <time>2015-11-01T13:38:01Z</time>
      </trkpt>
      <trkpt lat="49.83437" lon="2.1831">
        <ele>100.6</ele>
        <time>2015-11-01T13:38:04Z</time>
      </trkpt>
      <trkpt lat="49.83436" lon="2.18315">
        <ele>100</ele>
        <time>2015-11-01T13:38:06Z</time>
      </trkpt>
      <trkpt lat="49.83436" lon="2.18321">
        <ele>99.5</ele>
        <time>2015-11-01T13:38:12Z</time>
      </trkpt>
      <trkpt lat="49.83435" lon="2.18326">
        <ele>99.1</ele>
        <time>2015-11-01T13:38:15Z</time>
      </trkpt>
      <trkpt lat="49.83436" lon="2.1833">
        <ele>99</ele>
        <time>2015-11-01T13:38:19Z</time>
      </trkpt>
      <trkpt lat="49.83438" lon="2.18334">
        <ele>98.9</ele>
        <time>2015-11-01T13:38:24Z</time>
      </trkpt>
      <trkpt lat="49.83437" lon="2.18329">
        <ele>99.2</ele>
        <time>2015-11-01T13:38:52Z</time>
      </trkpt>
      <trkpt lat="49.83437" lon="2.18324">
        <ele>99.5</ele>
        <time>2015-11-01T13:38:55Z</time>
      </trkpt>
      <trkpt lat="49.83435" lon="2.18317">
        <ele>99.8</ele>
        <time>2015-11-01T13:51:36Z</time>
      </trkpt>
      <trkpt lat="49.83431" lon="2.18312">
        <ele>99.6</ele>
        <time>2015-11-01T14:02:40Z</time>
      </trkpt>
      <trkpt lat="49.83429" lon="2.18309">
        <ele>99.5</ele>
        <time>2015-11-01T14:02:45Z</time>
      </trkpt>
      <trkpt lat="49.83428" lon="2.18303">
        <ele>99.8</ele>
        <time>2015-11-01T14:02:47Z</time>
      </trkpt>
      <trkpt lat="49.83427" lon="2.18297">
        <ele>100.1</ele>
        <time>2015-11-01T14:02:49Z</time>
      </trkpt>
      <trkpt lat="49.83427" lon="2.18291">
        <ele>100.6</ele>
        <time>2015-11-01T14:02:52Z</time>
      </trkpt>
      <trkpt lat="49.83426" lon="2.18287">
        <ele>100.6</ele>
        <time>2015-11-01T14:02:55Z</time>
      </trkpt>
      <trkpt lat="49.83425" lon="2.18283">
        <ele>100.6</ele>
        <time>2015-11-01T14:03:02Z</time>
      </trkpt>
      <trkpt lat="49.83423" lon="2.18278">
        <ele>100.7</ele>
        <time>2015-11-01T14:03:17Z</time>
      </trkpt>
      <trkpt lat="49.83424" lon="2.18274">
        <ele>101</ele>
        <time>2015-11-01T14:03:19Z</time>
      </trkpt>
      <trkpt lat="49.83423" lon="2.18269">
        <ele>101.2</ele>
        <time>2015-11-01T14:03:28Z</time>
      </trkpt>
      <trkpt lat="49.83426" lon="2.18269">
        <ele>101.6</ele>
        <time>2015-11-01T14:03:34Z</time>
      </trkpt>
      <trkpt lat="49.83427" lon="2.18265">
        <ele>102</ele>
        <time>2015-11-01T14:03:38Z</time>
      </trkpt>
      <trkpt lat="49.83431" lon="2.18261">
        <ele>102.7</ele>
        <time>2015-11-01T14:03:42Z</time>
      </trkpt>
      <trkpt lat="49.83434" lon="2.18257">
        <ele>103.4</ele>
        <time>2015-11-01T14:03:45Z</time>
      </trkpt>
      <trkpt lat="49.83436" lon="2.18253">
        <ele>104</ele>
        <time>2015-11-01T14:03:50Z</time>
      </trkpt>
      <trkpt lat="49.83439" lon="2.18252">
        <ele>104.6</ele>
        <time>2015-11-01T14:03:54Z</time>
      </trkpt>
      <trkpt lat="49.83441" lon="2.18247">
        <ele>105</ele>
        <time>2015-11-01T14:03:59Z</time>
      </trkpt>
      <trkpt lat="49.8344" lon="2.18242">
        <ele>105.2</ele>
        <time>2015-11-01T14:04:05Z</time>
      </trkpt>
      <trkpt lat="49.83439" lon="2.18237">
        <ele>105.4</ele>
        <time>2015-11-01T14:04:09Z</time>
      </trkpt>
      <trkpt lat="49.83439" lon="2.18233">
        <ele>105.6</ele>
        <time>2015-11-01T14:04:15Z</time>
      </trkpt>
      <trkpt lat="49.83441" lon="2.18229">
        <ele>106</ele>
        <time>2015-11-01T14:04:20Z</time>
      </trkpt>
      <trkpt lat="49.8344" lon="2.18224">
        <ele>106.2</ele>
        <time>2015-11-01T14:04:26Z</time>
      </trkpt>
      <trkpt lat="49.8344" lon="2.18218">
        <ele>106.5</ele>
        <time>2015-11-01T14:04:29Z</time>
      </trkpt>
      <trkpt lat="49.8344" lon="2.18213">
        <ele>106.8</ele>
        <time>2015-11-01T14:04:32Z</time>
      </trkpt>
      <trkpt lat="49.83439" lon="2.18208">
        <ele>107</ele>
        <time>2015-11-01T14:04:36Z</time>
      </trkpt>
      <trkpt lat="49.83437" lon="2.18204">
        <ele>106.8</ele>
        <time>2015-11-01T14:04:40Z</time>
      </trkpt>
      <trkpt lat="49.83441" lon="2.18203">
        <ele>107.5</ele>
        <time>2015-11-01T14:04:46Z</time>
      </trkpt>
      <trkpt lat="49.8344" lon="2.18199">
        <ele>107.3</ele>
        <time>2015-11-01T14:04:50Z</time>
      </trkpt>
      <trkpt lat="49.8344" lon="2.18194">
        <ele>107.4</ele>
        <time>2015-11-01T14:04:52Z</time>
      </trkpt>
      <trkpt lat="49.83443" lon="2.18192">
        <ele>107.9</ele>
        <time>2015-11-01T14:04:54Z</time>
      </trkpt>
      <trkpt lat="49.83442" lon="2.18187">
        <ele>108</ele>
        <time>2015-11-01T14:04:57Z</time>
      </trkpt>
      <trkpt lat="49.83441" lon="2.18182">
        <ele>108</ele>
        <time>2015-11-01T14:04:59Z</time>
      </trkpt>
      <trkpt lat="49.83441" lon="2.18178">
        <ele>108</ele>
        <time>2015-11-01T14:05:01Z</time>
      </trkpt>
      <trkpt lat="49.8344" lon="2.18173">
        <ele>107.9</ele>
        <time>2015-11-01T14:05:03Z</time>
      </trkpt>
      <trkpt lat="49.83437" lon="2.18168">
        <ele>107.6</ele>
        <time>2015-11-01T14:05:05Z</time>
      </trkpt>
      <trkpt lat="49.83435" lon="2.18164">
        <ele>107.5</ele>
        <time>2015-11-01T14:05:07Z</time>
      </trkpt>
      <trkpt lat="49.83437" lon="2.1816">
        <ele>107.8</ele>
        <time>2015-11-01T14:05:11Z</time>
      </trkpt>
      <trkpt lat="49.83435" lon="2.18153">
        <ele>107.7</ele>
        <time>2015-11-01T14:05:18Z</time>
      </trkpt>
      <trkpt lat="49.83435" lon="2.18148">
        <ele>107.8</ele>
        <time>2015-11-01T14:05:22Z</time>
      </trkpt>
      <trkpt lat="49.83434" lon="2.18141">
        <ele>107.8</ele>
        <time>2015-11-01T14:05:30Z</time>
      </trkpt>
      <trkpt lat="49.83432" lon="2.18136">
        <ele>107.7</ele>
        <time>2015-11-01T14:05:32Z</time>
      </trkpt>
      <trkpt lat="49.83436" lon="2.18131">
        <ele>108.4</ele>
        <time>2015-11-01T14:05:36Z</time>
      </trkpt>
      <trkpt lat="49.83437" lon="2.18126">
        <ele>108.7</ele>
        <time>2015-11-01T14:05:39Z</time>
      </trkpt>
      <trkpt lat="49.83436" lon="2.18121">
        <ele>108.7</ele>
        <time>2015-11-01T14:05:41Z</time>
      </trkpt>
      <trkpt lat="49.83438" lon="2.18117">
        <ele>109.1</ele>
        <time>2015-11-01T14:05:44Z</time>
      </trkpt>
      <trkpt lat="49.83439" lon="2.18112">
        <ele>109.5</ele>
        <time>2015-11-01T14:05:49Z</time>
      </trkpt>
      <trkpt lat="49.83439" lon="2.18108">
        <ele>109.7</ele>
        <time>2015-11-01T14:05:53Z</time>
      </trkpt>
      <trkpt lat="49.8344" lon="2.18104">
        <ele>110</ele>
        <time>2015-11-01T14:05:57Z</time>
      </trkpt>
      <trkpt lat="49.83441" lon="2.18097">
        <ele>110.4</ele>
        <time>2015-11-01T14:06:07Z</time>
      </trkpt>
      <trkpt lat="49.83443" lon="2.18093">
        <ele>110.8</ele>
        <time>2015-11-01T14:06:12Z</time>
      </trkpt>
      <trkpt lat="49.8344" lon="2.18089">
        <ele>110.6</ele>
        <time>2015-11-01T14:06:16Z</time>
      </trkpt>
      <trkpt lat="49.83438" lon="2.18086">
        <ele>110.3</ele>
        <time>2015-11-01T14:06:19Z</time>
      </trkpt>
      <trkpt lat="49.83434" lon="2.18083">
        <ele>109.9</ele>
        <time>2015-11-01T14:06:23Z</time>
      </trkpt>
      <trkpt lat="49.83432" lon="2.18078">
        <ele>109.7</ele>
        <time>2015-11-01T14:06:27Z</time>
      </trkpt>
      <trkpt lat="49.8343" lon="2.18076">
        <ele>109.5</ele>
        <time>2015-11-01T14:06:31Z</time>
      </trkpt>
      <trkpt lat="49.83428" lon="2.18072">
        <ele>109.4</ele>
        <time>2015-11-01T14:06:36Z</time>
      </trkpt>
      <trkpt lat="49.83426" lon="2.1807">
        <ele>109.2</ele>
        <time>2015-11-01T14:06:38Z</time>
      </trkpt>
      <trkpt lat="49.83422" lon="2.18067">
        <ele>108.8</ele>
        <time>2015-11-01T14:06:43Z</time>
      </trkpt>
      <trkpt lat="49.83421" lon="2.18063">
        <ele>108.7</ele>
        <time>2015-11-01T14:06:44Z</time>
      </trkpt>
      <trkpt lat="49.83418" lon="2.1806">
        <ele>108.4</ele>
        <time>2015-11-01T14:06:46Z</time>
      </trkpt>
      <trkpt lat="49.83415" lon="2.18057">
        <ele>108.1</ele>
        <time>2015-11-01T14:06:50Z</time>
      </trkpt>
      <trkpt lat="49.83413" lon="2.18053">
        <ele>108</ele>
        <time>2015-11-01T14:06:52Z</time>
      </trkpt>
      <trkpt lat="49.83412" lon="2.18049">
        <ele>108</ele>
        <time>2015-11-01T14:06:56Z</time>
      </trkpt>
      <trkpt lat="49.8341" lon="2.18047">
        <ele>107.8</ele>
        <time>2015-11-01T14:06:59Z</time>
      </trkpt>
      <trkpt lat="49.83408" lon="2.18044">
        <ele>107.7</ele>
        <time>2015-11-01T14:07:04Z</time>
      </trkpt>
      <trkpt lat="49.83408" lon="2.18039">
        <ele>107.9</ele>
        <time>2015-11-01T14:07:14Z</time>
      </trkpt>
      <trkpt lat="49.83406" lon="2.18036">
        <ele>107.8</ele>
        <time>2015-11-01T14:07:15Z</time>
      </trkpt>
      <trkpt lat="49.83403" lon="2.18032">
        <ele>107.6</ele>
        <time>2015-11-01T14:07:17Z</time>
      </trkpt>
      <trkpt lat="49.83401" lon="2.18028">
        <ele>107.5</ele>
        <time>2015-11-01T14:07:20Z</time>
      </trkpt>
      <trkpt lat="49.83399" lon="2.18024">
        <ele>107.4</ele>
        <time>2015-11-01T14:07:22Z</time>
      </trkpt>
      <trkpt lat="49.83397" lon="2.18021">
        <ele>107.4</ele>
        <time>2015-11-01T14:07:24Z</time>
      </trkpt>
      <trkpt lat="49.83394" lon="2.18015">
        <ele>107.2</ele>
        <time>2015-11-01T14:07:28Z</time>
      </trkpt>
      <trkpt lat="49.83392" lon="2.18011">
        <ele>107.2</ele>
        <time>2015-11-01T14:07:33Z</time>
      </trkpt>
      <trkpt lat="49.83389" lon="2.18007">
        <ele>107</ele>
        <time>2015-11-01T14:07:36Z</time>
      </trkpt>
      <trkpt lat="49.83387" lon="2.18004">
        <ele>107</ele>
        <time>2015-11-01T14:07:39Z</time>
      </trkpt>
      <trkpt lat="49.83385" lon="2.18">
        <ele>107</ele>
        <time>2015-11-01T14:07:45Z</time>
      </trkpt>
      <trkpt lat="49.83383" lon="2.17996">
        <ele>106.9</ele>
        <time>2015-11-01T14:07:48Z</time>
      </trkpt>
      <trkpt lat="49.83381" lon="2.17992">
        <ele>106.8</ele>
        <time>2015-11-01T14:07:52Z</time>
      </trkpt>
      <trkpt lat="49.83379" lon="2.17989">
        <ele>106.7</ele>
        <time>2015-11-01T14:07:58Z</time>
      </trkpt>
      <trkpt lat="49.83377" lon="2.17986">
        <ele>106.6</ele>
        <time>2015-11-01T14:08:04Z</time>
      </trkpt>
      <trkpt lat="49.83375" lon="2.17982">
        <ele>106.6</ele>
        <time>2015-11-01T14:08:08Z</time>
      </trkpt>
      <trkpt lat="49.83374" lon="2.17977">
        <ele>106.7</ele>
        <time>2015-11-01T14:08:09Z</time>
      </trkpt>
      <trkpt lat="49.83372" lon="2.17973">
        <ele>106.8</ele>
        <time>2015-11-01T14:08:11Z</time>
      </trkpt>
      <trkpt lat="49.8337" lon="2.17969">
        <ele>106.7</ele>
        <time>2015-11-01T14:08:12Z</time>
      </trkpt>
      <trkpt lat="49.83367" lon="2.17966">
        <ele>106.6</ele>
        <time>2015-11-01T14:08:17Z</time>
      </trkpt>
      <trkpt lat="49.83368" lon="2.17962">
        <ele>106.9</ele>
        <time>2015-11-01T14:08:21Z</time>
      </trkpt>
      <trkpt lat="49.83369" lon="2.17958">
        <ele>107.4</ele>
        <time>2015-11-01T14:08:25Z</time>
      </trkpt>
      <trkpt lat="49.83369" lon="2.17954">
        <ele>107.7</ele>
        <time>2015-11-01T14:08:28Z</time>
      </trkpt>
      <trkpt lat="49.83367" lon="2.17948">
        <ele>107.9</ele>
        <time>2015-11-01T14:08:30Z</time>
      </trkpt>
      <trkpt lat="49.83364" lon="2.17946">
        <ele>107.7</ele>
        <time>2015-11-01T14:08:34Z</time>
      </trkpt>
      <trkpt lat="49.83361" lon="2.17943">
        <ele>107.6</ele>
        <time>2015-11-01T14:08:36Z</time>
      </trkpt>
      <trkpt lat="49.83359" lon="2.17941">
        <ele>107.5</ele>
        <time>2015-11-01T14:08:43Z</time>
      </trkpt>
      <trkpt lat="49.83356" lon="2.1794">
        <ele>107.2</ele>
        <time>2015-11-01T14:08:50Z</time>
      </trkpt>
      <trkpt lat="49.83355" lon="2.17936">
        <ele>107.4</ele>
        <time>2015-11-01T14:08:54Z</time>
      </trkpt>
      <trkpt lat="49.83351" lon="2.17932">
        <ele>107.3</ele>
        <time>2015-11-01T14:09:00Z</time>
      </trkpt>
      <trkpt lat="49.83349" lon="2.1793">
        <ele>107.2</ele>
        <time>2015-11-01T14:09:03Z</time>
      </trkpt>
      <trkpt lat="49.83348" lon="2.17926">
        <ele>107.3</ele>
        <time>2015-11-01T14:09:06Z</time>
      </trkpt>
      <trkpt lat="49.8334" lon="2.17919">
        <ele>106.9</ele>
        <time>2015-11-01T14:09:22Z</time>
      </trkpt>
      <trkpt lat="49.83336" lon="2.17918">
        <ele>106.5</ele>
        <time>2015-11-01T14:09:24Z</time>
      </trkpt>
      <trkpt lat="49.83333" lon="2.17913">
        <ele>106.5</ele>
        <time>2015-11-01T14:09:27Z</time>
      </trkpt>
      <trkpt lat="49.83331" lon="2.17908">
        <ele>106.7</ele>
        <time>2015-11-01T14:09:34Z</time>
      </trkpt>
      <trkpt lat="49.83329" lon="2.17905">
        <ele>106.7</ele>
        <time>2015-11-01T14:09:39Z</time>
      </trkpt>
      <trkpt lat="49.83327" lon="2.17901">
        <ele>106.7</ele>
        <time>2015-11-01T14:09:42Z</time>
      </trkpt>
      <trkpt lat="49.83325" lon="2.17897">
        <ele>106.7</ele>
        <time>2015-11-01T14:09:48Z</time>
      </trkpt>
      <trkpt lat="49.83322" lon="2.17893">
        <ele>106.7</ele>
        <time>2015-11-01T14:09:51Z</time>
      </trkpt>
      <trkpt lat="49.8332" lon="2.1789">
        <ele>106.6</ele>
        <time>2015-11-01T14:09:56Z</time>
      </trkpt>
      <trkpt lat="49.83318" lon="2.17886">
        <ele>106.6</ele>
        <time>2015-11-01T14:10:00Z</time>
      </trkpt>
      <trkpt lat="49.83315" lon="2.17883">
        <ele>106.6</ele>
        <time>2015-11-01T14:10:04Z</time>
      </trkpt>
      <trkpt lat="49.83313" lon="2.17879">
        <ele>106.5</ele>
        <time>2015-11-01T14:10:07Z</time>
      </trkpt>
      <trkpt lat="49.8331" lon="2.17875">
        <ele>106.4</ele>
        <time>2015-11-01T14:10:09Z</time>
      </trkpt>
      <trkpt lat="49.83307" lon="2.17874">
        <ele>106.2</ele>
        <time>2015-11-01T14:10:13Z</time>
      </trkpt>
      <trkpt lat="49.83306" lon="2.1787">
        <ele>106.2</ele>
        <time>2015-11-01T14:10:18Z</time>
      </trkpt>
      <trkpt lat="49.83304" lon="2.17865">
        <ele>106.3</ele>
        <time>2015-11-01T14:10:25Z</time>
      </trkpt>
      <trkpt lat="49.83303" lon="2.17862">
        <ele>106.4</ele>
        <time>2015-11-01T14:10:27Z</time>
      </trkpt>
      <trkpt lat="49.83301" lon="2.17857">
        <ele>106.4</ele>
        <time>2015-11-01T14:10:31Z</time>
      </trkpt>
      <trkpt lat="49.83299" lon="2.17854">
        <ele>106.4</ele>
        <time>2015-11-01T14:10:34Z</time>
      </trkpt>
      <trkpt lat="49.83297" lon="2.1785">
        <ele>106.4</ele>
        <time>2015-11-01T14:10:37Z</time>
      </trkpt>
      <trkpt lat="49.83294" lon="2.17844">
        <ele>106.6</ele>
        <time>2015-11-01T14:10:40Z</time>
      </trkpt>
      <trkpt lat="49.83292" lon="2.17841">
        <ele>106.5</ele>
        <time>2015-11-01T14:10:43Z</time>
      </trkpt>
      <trkpt lat="49.8329" lon="2.17838">
        <ele>106.5</ele>
        <time>2015-11-01T14:10:45Z</time>
      </trkpt>
      <trkpt lat="49.83288" lon="2.17835">
        <ele>106.4</ele>
        <time>2015-11-01T14:10:47Z</time>
      </trkpt>
      <trkpt lat="49.83285" lon="2.17832">
        <ele>106.3</ele>
        <time>2015-11-01T14:10:49Z</time>
      </trkpt>
      <trkpt lat="49.83283" lon="2.17828">
        <ele>106.3</ele>
        <time>2015-11-01T14:10:51Z</time>
      </trkpt>
      <trkpt lat="49.83281" lon="2.17825">
        <ele>106.3</ele>
        <time>2015-11-01T14:10:53Z</time>
      </trkpt>
      <trkpt lat="49.8328" lon="2.17821">
        <ele>106.3</ele>
        <time>2015-11-01T14:10:55Z</time>
      </trkpt>
      <trkpt lat="49.83277" lon="2.17817">
        <ele>106.3</ele>
        <time>2015-11-01T14:10:59Z</time>
      </trkpt>
      <trkpt lat="49.83276" lon="2.17812">
        <ele>106.4</ele>
        <time>2015-11-01T14:11:03Z</time>
      </trkpt>
      <trkpt lat="49.83274" lon="2.17808">
        <ele>106.4</ele>
        <time>2015-11-01T14:11:06Z</time>
      </trkpt>
      <trkpt lat="49.83271" lon="2.17806">
        <ele>106.2</ele>
        <time>2015-11-01T14:11:08Z</time>
      </trkpt>
      <trkpt lat="49.83269" lon="2.17803">
        <ele>106.1</ele>
        <time>2015-11-01T14:11:12Z</time>
      </trkpt>
      <trkpt lat="49.83268" lon="2.17798">
        <ele>106.2</ele>
        <time>2015-11-01T14:11:17Z</time>
      </trkpt>
      <trkpt lat="49.83268" lon="2.17794">
        <ele>106.4</ele>
        <time>2015-11-01T14:11:25Z</time>
      </trkpt>
      <trkpt lat="49.83268" lon="2.1779">
        <ele>106.8</ele>
        <time>2015-11-01T14:11:31Z</time>
      </trkpt>
      <trkpt lat="49.83268" lon="2.17785">
        <ele>107</ele>
        <time>2015-11-01T14:11:36Z</time>
      </trkpt>
      <trkpt lat="49.8327" lon="2.17782">
        <ele>107.5</ele>
        <time>2015-11-01T14:11:56Z</time>
      </trkpt>
      <trkpt lat="49.83273" lon="2.17777">
        <ele>108.2</ele>
        <time>2015-11-01T14:11:59Z</time>
      </trkpt>
      <trkpt lat="49.83272" lon="2.17772">
        <ele>108.4</ele>
        <time>2015-11-01T14:12:03Z</time>
      </trkpt>
      <trkpt lat="49.83275" lon="2.17769">
        <ele>109.1</ele>
        <time>2015-11-01T14:12:08Z</time>
      </trkpt>
      <trkpt lat="49.83278" lon="2.1777">
        <ele>109.5</ele>
        <time>2015-11-01T14:12:12Z</time>
      </trkpt>
      <trkpt lat="49.83283" lon="2.17767">
        <ele>110.4</ele>
        <time>2015-11-01T14:12:16Z</time>
      </trkpt>
      <trkpt lat="49.83284" lon="2.17763">
        <ele>110.9</ele>
        <time>2015-11-01T14:12:20Z</time>
      </trkpt>
      <trkpt lat="49.83286" lon="2.17759">
        <ele>111.5</ele>
        <time>2015-11-01T14:12:23Z</time>
      </trkpt>
      <trkpt lat="49.83287" lon="2.17754">
        <ele>111.9</ele>
        <time>2015-11-01T14:12:34Z</time>
      </trkpt>
      <trkpt lat="49.83291" lon="2.17752">
        <ele>112.8</ele>
        <time>2015-11-01T14:12:39Z</time>
      </trkpt>
      <trkpt lat="49.83293" lon="2.17748">
        <ele>113.3</ele>
        <time>2015-11-01T14:12:44Z</time>
      </trkpt>
      <trkpt lat="49.83296" lon="2.17746">
        <ele>113.7</ele>
        <time>2015-11-01T14:12:48Z</time>
      </trkpt>
      <trkpt lat="49.83299" lon="2.17746">
        <ele>114</ele>
        <time>2015-11-01T14:12:51Z</time>
      </trkpt>
      <trkpt lat="49.83301" lon="2.17743">
        <ele>114.5</ele>
        <time>2015-11-01T14:12:55Z</time>
      </trkpt>
      <trkpt lat="49.83304" lon="2.17742">
        <ele>114.9</ele>
        <time>2015-11-01T14:12:58Z</time>
      </trkpt>
      <trkpt lat="49.83307" lon="2.17741">
        <ele>115.3</ele>
        <time>2015-11-01T14:13:02Z</time>
      </trkpt>
      <trkpt lat="49.83309" lon="2.17738">
        <ele>115.7</ele>
        <time>2015-11-01T14:13:05Z</time>
      </trkpt>
      <trkpt lat="49.83312" lon="2.17736">
        <ele>116.2</ele>
        <time>2015-11-01T14:13:07Z</time>
      </trkpt>
      <trkpt lat="49.83316" lon="2.17733">
        <ele>116.7</ele>
        <time>2015-11-01T14:13:10Z</time>
      </trkpt>
      <trkpt lat="49.83319" lon="2.17733">
        <ele>117.1</ele>
        <time>2015-11-01T14:13:13Z</time>
      </trkpt>
      <trkpt lat="49.83322" lon="2.17729">
        <ele>117.6</ele>
        <time>2015-11-01T14:13:17Z</time>
      </trkpt>
      <trkpt lat="49.83324" lon="2.17726">
        <ele>118</ele>
        <time>2015-11-01T14:13:21Z</time>
      </trkpt>
      <trkpt lat="49.83327" lon="2.17724">
        <ele>118.4</ele>
        <time>2015-11-01T14:13:24Z</time>
      </trkpt>
      <trkpt lat="49.83329" lon="2.17721">
        <ele>118.8</ele>
        <time>2015-11-01T14:13:27Z</time>
      </trkpt>
      <trkpt lat="49.83332" lon="2.17721">
        <ele>119.1</ele>
        <time>2015-11-01T14:13:29Z</time>
      </trkpt>
      <trkpt lat="49.83335" lon="2.17719">
        <ele>119.6</ele>
        <time>2015-11-01T14:13:33Z</time>
      </trkpt>
      <trkpt lat="49.83339" lon="2.17714">
        <ele>120.2</ele>
        <time>2015-11-01T14:13:39Z</time>
      </trkpt>
      <trkpt lat="49.83341" lon="2.17712">
        <ele>120.5</ele>
        <time>2015-11-01T14:13:41Z</time>
      </trkpt>
      <trkpt lat="49.83345" lon="2.1771">
        <ele>121</ele>
        <time>2015-11-01T14:13:46Z</time>
      </trkpt>
      <trkpt lat="49.83346" lon="2.17706">
        <ele>121.3</ele>
        <time>2015-11-01T14:13:50Z</time>
      </trkpt>
      <trkpt lat="49.83348" lon="2.17702">
        <ele>121.6</ele>
        <time>2015-11-01T14:13:54Z</time>
      </trkpt>
      <trkpt lat="49.83351" lon="2.177">
        <ele>122</ele>
        <time>2015-11-01T14:13:58Z</time>
      </trkpt>
      <trkpt lat="49.83351" lon="2.17695">
        <ele>122.2</ele>
        <time>2015-11-01T14:14:05Z</time>
      </trkpt>
      <trkpt lat="49.83355" lon="2.17692">
        <ele>122.7</ele>
        <time>2015-11-01T14:14:10Z</time>
      </trkpt>
      <trkpt lat="49.83357" lon="2.1769">
        <ele>123</ele>
        <time>2015-11-01T14:14:12Z</time>
      </trkpt>
      <trkpt lat="49.8336" lon="2.17688">
        <ele>123.3</ele>
        <time>2015-11-01T14:14:18Z</time>
      </trkpt>
      <trkpt lat="49.83363" lon="2.17685">
        <ele>123.7</ele>
        <time>2015-11-01T14:14:22Z</time>
      </trkpt>
      <trkpt lat="49.83365" lon="2.17682">
        <ele>124</ele>
        <time>2015-11-01T14:14:27Z</time>
      </trkpt>
      <trkpt lat="49.83368" lon="2.17679">
        <ele>124.4</ele>
        <time>2015-11-01T14:14:30Z</time>
      </trkpt>
      <trkpt lat="49.83372" lon="2.17676">
        <ele>124.8</ele>
        <time>2015-11-01T14:14:33Z</time>
      </trkpt>
      <trkpt lat="49.83375" lon="2.17673">
        <ele>125.3</ele>
        <time>2015-11-01T14:14:39Z</time>
      </trkpt>
      <trkpt lat="49.83378" lon="2.17672">
        <ele>125.3</ele>
        <time>2015-11-01T14:14:41Z</time>
      </trkpt>
      <trkpt lat="49.83382" lon="2.17671">
        <ele>125.3</ele>
        <time>2015-11-01T14:14:43Z</time>
      </trkpt>
      <trkpt lat="49.83385" lon="2.17667">
        <ele>125.4</ele>
        <time>2015-11-01T14:14:46Z</time>
      </trkpt>
      <trkpt lat="49.83388" lon="2.17665">
        <ele>125.4</ele>
        <time>2015-11-01T14:14:48Z</time>
      </trkpt>
      <trkpt lat="49.83391" lon="2.17664">
        <ele>125.4</ele>
        <time>2015-11-01T14:14:52Z</time>
      </trkpt>
      <trkpt lat="49.83395" lon="2.17661">
        <ele>125.4</ele>
        <time>2015-11-01T14:14:57Z</time>
      </trkpt>
      <trkpt lat="49.83398" lon="2.17658">
        <ele>125.5</ele>
        <time>2015-11-01T14:15:00Z</time>
      </trkpt>
      <trkpt lat="49.83401" lon="2.17656">
        <ele>125.5</ele>
        <time>2015-11-01T14:15:02Z</time>
      </trkpt>
      <trkpt lat="49.83404" lon="2.17652">
        <ele>125.6</ele>
        <time>2015-11-01T14:15:05Z</time>
      </trkpt>
      <trkpt lat="49.83407" lon="2.17651">
        <ele>125.6</ele>
        <time>2015-11-01T14:15:07Z</time>
      </trkpt>
      <trkpt lat="49.8341" lon="2.17648">
        <ele>125.6</ele>
        <time>2015-11-01T14:15:11Z</time>
      </trkpt>
      <trkpt lat="49.83412" lon="2.17646">
        <ele>125.6</ele>
        <time>2015-11-01T14:15:14Z</time>
      </trkpt>
      <trkpt lat="49.83414" lon="2.17642">
        <ele>125.7</ele>
        <time>2015-11-01T14:15:19Z</time>
      </trkpt>
      <trkpt lat="49.83416" lon="2.17639">
        <ele>125.7</ele>
        <time>2015-11-01T14:15:23Z</time>
      </trkpt>
      <trkpt lat="49.83419" lon="2.17638">
        <ele>125.6</ele>
        <time>2015-11-01T14:15:26Z</time>
      </trkpt>
      <trkpt lat="49.83422" lon="2.17635">
        <ele>125.6</ele>
        <time>2015-11-01T14:15:29Z</time>
      </trkpt>
      <trkpt lat="49.83426" lon="2.17633">
        <ele>125.6</ele>
        <time>2015-11-01T14:15:33Z</time>
      </trkpt>
      <trkpt lat="49.83429" lon="2.17633">
        <ele>125.6</ele>
        <time>2015-11-01T14:15:36Z</time>
      </trkpt>
      <trkpt lat="49.83431" lon="2.17629">
        <ele>125.6</ele>
        <time>2015-11-01T14:15:40Z</time>
      </trkpt>
      <trkpt lat="49.83434" lon="2.17628">
        <ele>125.5</ele>
        <time>2015-11-01T14:15:43Z</time>
      </trkpt>
      <trkpt lat="49.83437" lon="2.17625">
        <ele>125.5</ele>
        <time>2015-11-01T14:15:46Z</time>
      </trkpt>
      <trkpt lat="49.83439" lon="2.17622">
        <ele>125.5</ele>
        <time>2015-11-01T14:15:51Z</time>
      </trkpt>
      <trkpt lat="49.83443" lon="2.1762">
        <ele>125.5</ele>
        <time>2015-11-01T14:15:55Z</time>
      </trkpt>
      <trkpt lat="49.83448" lon="2.17617">
        <ele>125.4</ele>
        <time>2015-11-01T14:16:08Z</time>
      </trkpt>
      <trkpt lat="49.83449" lon="2.17612">
        <ele>125.5</ele>
        <time>2015-11-01T14:16:11Z</time>
      </trkpt>
      <trkpt lat="49.83451" lon="2.17608">
        <ele>125.5</ele>
        <time>2015-11-01T14:16:14Z</time>
      </trkpt>
      <trkpt lat="49.83455" lon="2.17608">
        <ele>125.5</ele>
        <time>2015-11-01T14:16:17Z</time>
      </trkpt>
      <trkpt lat="49.83457" lon="2.17605">
        <ele>125.5</ele>
        <time>2015-11-01T14:16:19Z</time>
      </trkpt>
      <trkpt lat="49.8346" lon="2.17604">
        <ele>125.4</ele>
        <time>2015-11-01T14:16:23Z</time>
      </trkpt>
      <trkpt lat="49.83487" lon="2.17586">
        <ele>124.9</ele>
        <time>2015-11-01T14:17:26Z</time>
      </trkpt>
      <trkpt lat="49.83489" lon="2.17584">
        <ele>124.9</ele>
        <time>2015-11-01T14:17:30Z</time>
      </trkpt>
      <trkpt lat="49.83489" lon="2.17578">
        <ele>125</ele>
        <time>2015-11-01T14:17:38Z</time>
      </trkpt>
      <trkpt lat="49.83496" lon="2.17573">
        <ele>124.9</ele>
        <time>2015-11-01T14:17:42Z</time>
      </trkpt>
      <trkpt lat="49.83497" lon="2.17569">
        <ele>125</ele>
        <time>2015-11-01T14:17:47Z</time>
      </trkpt>
      <trkpt lat="49.835" lon="2.17569">
        <ele>124.9</ele>
        <time>2015-11-01T14:17:50Z</time>
      </trkpt>
      <trkpt lat="49.83502" lon="2.17566">
        <ele>124.9</ele>
        <time>2015-11-01T14:17:53Z</time>
      </trkpt>
      <trkpt lat="49.83506" lon="2.17566">
        <ele>124.7</ele>
        <time>2015-11-01T14:18:03Z</time>
      </trkpt>
      <trkpt lat="49.83509" lon="2.17564">
        <ele>124.7</ele>
        <time>2015-11-01T14:18:06Z</time>
      </trkpt>
      <trkpt lat="49.83513" lon="2.17566">
        <ele>124.5</ele>
        <time>2015-11-01T14:18:10Z</time>
      </trkpt>
      <trkpt lat="49.83515" lon="2.17563">
        <ele>124.5</ele>
        <time>2015-11-01T14:18:19Z</time>
      </trkpt>
      <trkpt lat="49.83518" lon="2.17564">
        <ele>124.3</ele>
        <time>2015-11-01T14:18:27Z</time>
      </trkpt>
      <trkpt lat="49.8352" lon="2.17561">
        <ele>124.3</ele>
        <time>2015-11-01T14:18:37Z</time>
      </trkpt>
      <trkpt lat="49.83522" lon="2.17558">
        <ele>124.3</ele>
        <time>2015-11-01T14:18:39Z</time>
      </trkpt>
      <trkpt lat="49.83523" lon="2.17553">
        <ele>124.4</ele>
        <time>2015-11-01T14:18:41Z</time>
      </trkpt>
      <trkpt lat="49.83526" lon="2.17549">
        <ele>124.4</ele>
        <time>2015-11-01T14:18:43Z</time>
      </trkpt>
      <trkpt lat="49.83527" lon="2.17545">
        <ele>124.5</ele>
        <time>2015-11-01T14:18:49Z</time>
      </trkpt>
      <trkpt lat="49.83531" lon="2.17537">
        <ele>124.4</ele>
        <time>2015-11-01T14:19:07Z</time>
      </trkpt>
      <trkpt lat="49.83532" lon="2.17531">
        <ele>124.5</ele>
        <time>2015-11-01T14:19:11Z</time>
      </trkpt>
      <trkpt lat="49.83532" lon="2.17524">
        <ele>124.5</ele>
        <time>2015-11-01T14:19:21Z</time>
      </trkpt>
      <trkpt lat="49.83532" lon="2.1752">
        <ele>124.6</ele>
        <time>2015-11-01T14:19:25Z</time>
      </trkpt>
      <trkpt lat="49.8353" lon="2.17514">
        <ele>124.7</ele>
        <time>2015-11-01T14:19:26Z</time>
      </trkpt>
      <trkpt lat="49.8353" lon="2.1751">
        <ele>124.7</ele>
        <time>2015-11-01T14:19:29Z</time>
      </trkpt>
      <trkpt lat="49.83532" lon="2.17506">
        <ele>124.7</ele>
        <time>2015-11-01T14:19:34Z</time>
      </trkpt>
      <trkpt lat="49.83535" lon="2.17501">
        <ele>124.7</ele>
        <time>2015-11-01T14:19:37Z</time>
      </trkpt>
      <trkpt lat="49.83537" lon="2.17497">
        <ele>124.7</ele>
        <time>2015-11-01T14:19:42Z</time>
      </trkpt>
      <trkpt lat="49.83539" lon="2.17492">
        <ele>124.7</ele>
        <time>2015-11-01T14:19:46Z</time>
      </trkpt>
      <trkpt lat="49.8354" lon="2.17488">
        <ele>124.7</ele>
        <time>2015-11-01T14:19:47Z</time>
      </trkpt>
      <trkpt lat="49.83543" lon="2.17486">
        <ele>124.6</ele>
        <time>2015-11-01T14:19:50Z</time>
      </trkpt>
      <trkpt lat="49.83545" lon="2.17483">
        <ele>124.5</ele>
        <time>2015-11-01T14:19:52Z</time>
      </trkpt>
      <trkpt lat="49.83547" lon="2.17477">
        <ele>124.4</ele>
        <time>2015-11-01T14:19:55Z</time>
      </trkpt>
      <trkpt lat="49.83548" lon="2.17472">
        <ele>124.4</ele>
        <time>2015-11-01T14:20:00Z</time>
      </trkpt>
      <trkpt lat="49.83551" lon="2.17471">
        <ele>124.2</ele>
        <time>2015-11-01T14:20:03Z</time>
      </trkpt>
      <trkpt lat="49.83554" lon="2.17471">
        <ele>124</ele>
        <time>2015-11-01T14:20:13Z</time>
      </trkpt>
      <trkpt lat="49.83555" lon="2.17467">
        <ele>123.9</ele>
        <time>2015-11-01T14:20:21Z</time>
      </trkpt>
      <trkpt lat="49.83558" lon="2.17467">
        <ele>123.7</ele>
        <time>2015-11-01T14:20:23Z</time>
      </trkpt>
      <trkpt lat="49.83561" lon="2.17467">
        <ele>123.5</ele>
        <time>2015-11-01T14:20:26Z</time>
      </trkpt>
      <trkpt lat="49.83565" lon="2.17465">
        <ele>123.2</ele>
        <time>2015-11-01T14:20:32Z</time>
      </trkpt>
      <trkpt lat="49.83569" lon="2.17465">
        <ele>123</ele>
        <time>2015-11-01T14:20:33Z</time>
      </trkpt>
      <trkpt lat="49.83572" lon="2.17464">
        <ele>122.8</ele>
        <time>2015-11-01T14:20:41Z</time>
      </trkpt>
      <trkpt lat="49.83575" lon="2.17462">
        <ele>122.6</ele>
        <time>2015-11-01T14:20:45Z</time>
      </trkpt>
      <trkpt lat="49.83578" lon="2.17459">
        <ele>122.4</ele>
        <time>2015-11-01T14:20:47Z</time>
      </trkpt>
      <trkpt lat="49.83581" lon="2.17457">
        <ele>122.2</ele>
        <time>2015-11-01T14:20:49Z</time>
      </trkpt>
      <trkpt lat="49.83585" lon="2.17453">
        <ele>122</ele>
        <time>2015-11-01T14:20:53Z</time>
      </trkpt>
      <trkpt lat="49.83587" lon="2.17447">
        <ele>121.9</ele>
        <time>2015-11-01T14:20:56Z</time>
      </trkpt>
      <trkpt lat="49.8359" lon="2.17445">
        <ele>121.7</ele>
        <time>2015-11-01T14:20:58Z</time>
      </trkpt>
      <trkpt lat="49.83593" lon="2.17444">
        <ele>121.5</ele>
        <time>2015-11-01T14:21:03Z</time>
      </trkpt>
      <trkpt lat="49.83595" lon="2.17441">
        <ele>121.4</ele>
        <time>2015-11-01T14:21:07Z</time>
      </trkpt>
      <trkpt lat="49.83597" lon="2.17437">
        <ele>121.3</ele>
        <time>2015-11-01T14:21:16Z</time>
      </trkpt>
      <trkpt lat="49.83601" lon="2.17432">
        <ele>121.1</ele>
        <time>2015-11-01T14:21:18Z</time>
      </trkpt>
      <trkpt lat="49.83604" lon="2.17432">
        <ele>120.8</ele>
        <time>2015-11-01T14:21:20Z</time>
      </trkpt>
      <trkpt lat="49.83607" lon="2.1743">
        <ele>120.6</ele>
        <time>2015-11-01T14:21:22Z</time>
      </trkpt>
      <trkpt lat="49.8361" lon="2.17428">
        <ele>120.4</ele>
        <time>2015-11-01T14:21:25Z</time>
      </trkpt>
      <trkpt lat="49.83613" lon="2.17426">
        <ele>120.2</ele>
        <time>2015-11-01T14:21:27Z</time>
      </trkpt>
      <trkpt lat="49.83617" lon="2.17424">
        <ele>120</ele>
        <time>2015-11-01T14:21:31Z</time>
      </trkpt>
      <trkpt lat="49.83619" lon="2.1742">
        <ele>119.9</ele>
        <time>2015-11-01T14:21:35Z</time>
      </trkpt>
      <trkpt lat="49.83622" lon="2.17418">
        <ele>119.7</ele>
        <time>2015-11-01T14:21:38Z</time>
      </trkpt>
      <trkpt lat="49.83625" lon="2.17411">
        <ele>119.6</ele>
        <time>2015-11-01T14:21:41Z</time>
      </trkpt>
      <trkpt lat="49.83628" lon="2.17408">
        <ele>119.1</ele>
        <time>2015-11-01T14:21:42Z</time>
      </trkpt>
      <trkpt lat="49.8363" lon="2.17404">
        <ele>118.8</ele>
        <time>2015-11-01T14:21:46Z</time>
      </trkpt>
      <trkpt lat="49.83633" lon="2.17402">
        <ele>118.4</ele>
        <time>2015-11-01T14:21:51Z</time>
      </trkpt>
      <trkpt lat="49.83636" lon="2.17402">
        <ele>117.9</ele>
        <time>2015-11-01T14:21:58Z</time>
      </trkpt>
      <trkpt lat="49.83639" lon="2.17399">
        <ele>117.5</ele>
        <time>2015-11-01T14:22:00Z</time>
      </trkpt>
      <trkpt lat="49.83641" lon="2.17396">
        <ele>117.1</ele>
        <time>2015-11-01T14:22:03Z</time>
      </trkpt>
      <trkpt lat="49.83643" lon="2.17393">
        <ele>116.8</ele>
        <time>2015-11-01T14:22:08Z</time>
      </trkpt>
      <trkpt lat="49.83646" lon="2.17393">
        <ele>116.4</ele>
        <time>2015-11-01T14:22:12Z</time>
      </trkpt>
      <trkpt lat="49.83649" lon="2.1739">
        <ele>116</ele>
        <time>2015-11-01T14:22:16Z</time>
      </trkpt>
      <trkpt lat="49.83651" lon="2.17387">
        <ele>115.6</ele>
        <time>2015-11-01T14:22:18Z</time>
      </trkpt>
      <trkpt lat="49.83655" lon="2.17387">
        <ele>115.1</ele>
        <time>2015-11-01T14:22:20Z</time>
      </trkpt>
      <trkpt lat="49.83657" lon="2.17383">
        <ele>114.9</ele>
        <time>2015-11-01T14:22:23Z</time>
      </trkpt>
      <trkpt lat="49.83659" lon="2.17379">
        <ele>114.6</ele>
        <time>2015-11-01T14:22:25Z</time>
      </trkpt>
      <trkpt lat="49.83663" lon="2.17375">
        <ele>114.1</ele>
        <time>2015-11-01T14:22:27Z</time>
      </trkpt>
      <trkpt lat="49.83666" lon="2.17372">
        <ele>113.6</ele>
        <time>2015-11-01T14:22:29Z</time>
      </trkpt>
      <trkpt lat="49.83667" lon="2.17368">
        <ele>113.4</ele>
        <time>2015-11-01T14:22:35Z</time>
      </trkpt>
      <trkpt lat="49.83669" lon="2.17363">
        <ele>113.2</ele>
        <time>2015-11-01T14:22:43Z</time>
      </trkpt>
      <trkpt lat="49.83672" lon="2.17361">
        <ele>112.7</ele>
        <time>2015-11-01T14:22:46Z</time>
      </trkpt>
      <trkpt lat="49.83675" lon="2.1736">
        <ele>112.2</ele>
        <time>2015-11-01T14:22:52Z</time>
      </trkpt>
      <trkpt lat="49.83692" lon="2.17347">
        <ele>109.6</ele>
        <time>2015-11-01T14:23:33Z</time>
      </trkpt>
      <trkpt lat="49.83696" lon="2.17344">
        <ele>108.9</ele>
        <time>2015-11-01T14:23:35Z</time>
      </trkpt>
      <trkpt lat="49.83699" lon="2.17341">
        <ele>108.5</ele>
        <time>2015-11-01T14:23:37Z</time>
      </trkpt>
      <trkpt lat="49.83702" lon="2.1734">
        <ele>108.1</ele>
        <time>2015-11-01T14:23:40Z</time>
      </trkpt>
      <trkpt lat="49.83704" lon="2.17337">
        <ele>107.7</ele>
        <time>2015-11-01T14:23:44Z</time>
      </trkpt>
      <trkpt lat="49.83706" lon="2.17332">
        <ele>107.4</ele>
        <time>2015-11-01T14:23:46Z</time>
      </trkpt>
      <trkpt lat="49.83709" lon="2.1733">
        <ele>106.9</ele>
        <time>2015-11-01T14:23:49Z</time>
      </trkpt>
      <trkpt lat="49.83711" lon="2.17328">
        <ele>106.2</ele>
        <time>2015-11-01T14:23:55Z</time>
      </trkpt>
      <trkpt lat="49.83713" lon="2.17325">
        <ele>105.7</ele>
        <time>2015-11-01T14:23:57Z</time>
      </trkpt>
      <trkpt lat="49.83716" lon="2.17323">
        <ele>104.9</ele>
        <time>2015-11-01T14:24:01Z</time>
      </trkpt>
      <trkpt lat="49.83718" lon="2.1732">
        <ele>104.4</ele>
        <time>2015-11-01T14:24:03Z</time>
      </trkpt>
      <trkpt lat="49.8372" lon="2.17313">
        <ele>103.9</ele>
        <time>2015-11-01T14:24:08Z</time>
      </trkpt>
      <trkpt lat="49.83723" lon="2.1731">
        <ele>103.3</ele>
        <time>2015-11-01T14:24:16Z</time>
      </trkpt>
      <trkpt lat="49.83724" lon="2.17306">
        <ele>103</ele>
        <time>2015-11-01T14:24:20Z</time>
      </trkpt>
      <trkpt lat="49.83726" lon="2.17303">
        <ele>102.4</ele>
        <time>2015-11-01T14:24:23Z</time>
      </trkpt>
      <trkpt lat="49.83729" lon="2.17299">
        <ele>101.8</ele>
        <time>2015-11-01T14:24:25Z</time>
      </trkpt>
      <trkpt lat="49.8373" lon="2.17294">
        <ele>101.6</ele>
        <time>2015-11-01T14:24:29Z</time>
      </trkpt>
      <trkpt lat="49.8373" lon="2.17289">
        <ele>101.4</ele>
        <time>2015-11-01T14:24:32Z</time>
      </trkpt>
      <trkpt lat="49.83733" lon="2.17286">
        <ele>100.7</ele>
        <time>2015-11-01T14:24:36Z</time>
      </trkpt>
      <trkpt lat="49.83732" lon="2.17281">
        <ele>100.7</ele>
        <time>2015-11-01T14:24:38Z</time>
      </trkpt>
      <trkpt lat="49.83732" lon="2.17269">
        <ele>100.6</ele>
        <time>2015-11-01T14:25:02Z</time>
      </trkpt>
      <trkpt lat="49.83731" lon="2.17265">
        <ele>100.6</ele>
        <time>2015-11-01T14:25:06Z</time>
      </trkpt>
      <trkpt lat="49.83732" lon="2.17259">
        <ele>100.3</ele>
        <time>2015-11-01T14:25:08Z</time>
      </trkpt>
      <trkpt lat="49.83731" lon="2.17255">
        <ele>100.2</ele>
        <time>2015-11-01T14:25:11Z</time>
      </trkpt>
      <trkpt lat="49.83733" lon="2.1725">
        <ele>99.7</ele>
        <time>2015-11-01T14:25:16Z</time>
      </trkpt>
      <trkpt lat="49.83732" lon="2.1724">
        <ele>99.8</ele>
        <time>2015-11-01T14:25:29Z</time>
      </trkpt>
      <trkpt lat="49.8373" lon="2.17235">
        <ele>100.1</ele>
        <time>2015-11-01T14:25:32Z</time>
      </trkpt>
      <trkpt lat="49.83727" lon="2.17231">
        <ele>100.6</ele>
        <time>2015-11-01T14:25:35Z</time>
      </trkpt>
      <trkpt lat="49.83727" lon="2.17225">
        <ele>100.6</ele>
        <time>2015-11-01T14:25:40Z</time>
      </trkpt>
      <trkpt lat="49.83726" lon="2.1722">
        <ele>100.6</ele>
        <time>2015-11-01T14:25:43Z</time>
      </trkpt>
      <trkpt lat="49.83726" lon="2.17215">
        <ele>100.4</ele>
        <time>2015-11-01T14:25:46Z</time>
      </trkpt>
      <trkpt lat="49.83727" lon="2.17211">
        <ele>100.1</ele>
        <time>2015-11-01T14:25:48Z</time>
      </trkpt>
      <trkpt lat="49.83726" lon="2.17206">
        <ele>100.3</ele>
        <time>2015-11-01T14:25:51Z</time>
      </trkpt>
      <trkpt lat="49.83728" lon="2.17202">
        <ele>99.6</ele>
        <time>2015-11-01T14:25:53Z</time>
      </trkpt>
      <trkpt lat="49.83728" lon="2.17197">
        <ele>99.3</ele>
        <time>2015-11-01T14:25:58Z</time>
      </trkpt>
      <trkpt lat="49.83729" lon="2.17192">
        <ele>98.8</ele>
        <time>2015-11-01T14:26:03Z</time>
      </trkpt>
      <trkpt lat="49.83729" lon="2.17187">
        <ele>98.4</ele>
        <time>2015-11-01T14:26:06Z</time>
      </trkpt>
      <trkpt lat="49.83728" lon="2.17182">
        <ele>98.5</ele>
        <time>2015-11-01T14:26:08Z</time>
      </trkpt>
      <trkpt lat="49.83724" lon="2.17175">
        <ele>99.1</ele>
        <time>2015-11-01T14:26:10Z</time>
      </trkpt>
      <trkpt lat="49.83722" lon="2.17172">
        <ele>99.6</ele>
        <time>2015-11-01T14:26:12Z</time>
      </trkpt>
      <trkpt lat="49.83721" lon="2.17168">
        <ele>99.6</ele>
        <time>2015-11-01T14:26:14Z</time>
      </trkpt>
      <trkpt lat="49.83721" lon="2.17163">
        <ele>99.3</ele>
        <time>2015-11-01T14:26:19Z</time>
      </trkpt>
      <trkpt lat="49.83718" lon="2.17159">
        <ele>100</ele>
        <time>2015-11-01T14:26:27Z</time>
      </trkpt>
      <trkpt lat="49.83716" lon="2.17154">
        <ele>100.4</ele>
        <time>2015-11-01T14:26:31Z</time>
      </trkpt>
      <trkpt lat="49.83712" lon="2.17151">
        <ele>101.2</ele>
        <time>2015-11-01T14:26:32Z</time>
      </trkpt>
      <trkpt lat="49.83709" lon="2.17143">
        <ele>101.8</ele>
        <time>2015-11-01T14:26:34Z</time>
      </trkpt>
      <trkpt lat="49.83707" lon="2.17139">
        <ele>102</ele>
        <time>2015-11-01T14:26:45Z</time>
      </trkpt>
      <trkpt lat="49.83703" lon="2.17135">
        <ele>102.4</ele>
        <time>2015-11-01T14:26:49Z</time>
      </trkpt>
      <trkpt lat="49.837" lon="2.17133">
        <ele>103</ele>
        <time>2015-11-01T14:26:51Z</time>
      </trkpt>
      <trkpt lat="49.83696" lon="2.17131">
        <ele>103.4</ele>
        <time>2015-11-01T14:26:54Z</time>
      </trkpt>
      <trkpt lat="49.83694" lon="2.17128">
        <ele>103.7</ele>
        <time>2015-11-01T14:26:57Z</time>
      </trkpt>
      <trkpt lat="49.83692" lon="2.17125">
        <ele>104</ele>
        <time>2015-11-01T14:27:00Z</time>
      </trkpt>
      <trkpt lat="49.83689" lon="2.17121">
        <ele>104.3</ele>
        <time>2015-11-01T14:27:02Z</time>
      </trkpt>
      <trkpt lat="49.83687" lon="2.17118">
        <ele>104.5</ele>
        <time>2015-11-01T14:27:04Z</time>
      </trkpt>
      <trkpt lat="49.83685" lon="2.17114">
        <ele>104.8</ele>
        <time>2015-11-01T14:27:09Z</time>
      </trkpt>
      <trkpt lat="49.83685" lon="2.17109">
        <ele>104.6</ele>
        <time>2015-11-01T14:27:38Z</time>
      </trkpt>
      <trkpt lat="49.83682" lon="2.17107">
        <ele>105</ele>
        <time>2015-11-01T14:27:40Z</time>
      </trkpt>
      <trkpt lat="49.83679" lon="2.17106">
        <ele>105.6</ele>
        <time>2015-11-01T14:27:43Z</time>
      </trkpt>
      <trkpt lat="49.83676" lon="2.17105">
        <ele>106.2</ele>
        <time>2015-11-01T14:27:48Z</time>
      </trkpt>
      <trkpt lat="49.83674" lon="2.17102">
        <ele>106.5</ele>
        <time>2015-11-01T14:27:56Z</time>
      </trkpt>
      <trkpt lat="49.83672" lon="2.17097">
        <ele>106.7</ele>
        <time>2015-11-01T14:28:06Z</time>
      </trkpt>
      <trkpt lat="49.8367" lon="2.17092">
        <ele>106.9</ele>
        <time>2015-11-01T14:28:15Z</time>
      </trkpt>
      <trkpt lat="49.83667" lon="2.17082">
        <ele>107.1</ele>
        <time>2015-11-01T14:28:40Z</time>
      </trkpt>
      <trkpt lat="49.83666" lon="2.17077">
        <ele>107.1</ele>
        <time>2015-11-01T14:28:50Z</time>
      </trkpt>
      <trkpt lat="49.83664" lon="2.17073">
        <ele>107.4</ele>
        <time>2015-11-01T14:28:52Z</time>
      </trkpt>
      <trkpt lat="49.83664" lon="2.17067">
        <ele>107.3</ele>
        <time>2015-11-01T14:29:00Z</time>
      </trkpt>
      <trkpt lat="49.83665" lon="2.17062">
        <ele>106.9</ele>
        <time>2015-11-01T14:29:05Z</time>
      </trkpt>
      <trkpt lat="49.83663" lon="2.17058">
        <ele>107.2</ele>
        <time>2015-11-01T14:29:09Z</time>
      </trkpt>
      <trkpt lat="49.83662" lon="2.17053">
        <ele>107.3</ele>
        <time>2015-11-01T14:29:12Z</time>
      </trkpt>
      <trkpt lat="49.83663" lon="2.17049">
        <ele>107.1</ele>
        <time>2015-11-01T14:29:16Z</time>
      </trkpt>
      <trkpt lat="49.83663" lon="2.17044">
        <ele>106.9</ele>
        <time>2015-11-01T14:29:22Z</time>
      </trkpt>
      <trkpt lat="49.83661" lon="2.1704">
        <ele>107.1</ele>
        <time>2015-11-01T14:29:27Z</time>
      </trkpt>
      <trkpt lat="49.83661" lon="2.17035">
        <ele>106.9</ele>
        <time>2015-11-01T14:29:32Z</time>
      </trkpt>
      <trkpt lat="49.83661" lon="2.1703">
        <ele>106.9</ele>
        <time>2015-11-01T14:29:37Z</time>
      </trkpt>
      <trkpt lat="49.83661" lon="2.17025">
        <ele>106.7</ele>
        <time>2015-11-01T14:29:42Z</time>
      </trkpt>
      <trkpt lat="49.83658" lon="2.17021">
        <ele>107.1</ele>
        <time>2015-11-01T14:29:46Z</time>
      </trkpt>
      <trkpt lat="49.83658" lon="2.17017">
        <ele>106.9</ele>
        <time>2015-11-01T14:29:49Z</time>
      </trkpt>
      <trkpt lat="49.83658" lon="2.17012">
        <ele>106.8</ele>
        <time>2015-11-01T14:29:55Z</time>
      </trkpt>
      <trkpt lat="49.83656" lon="2.17008">
        <ele>107.1</ele>
        <time>2015-11-01T14:29:56Z</time>
      </trkpt>
      <trkpt lat="49.83656" lon="2.17003">
        <ele>106.9</ele>
        <time>2015-11-01T14:29:59Z</time>
      </trkpt>
      <trkpt lat="49.83656" lon="2.16999">
        <ele>106.9</ele>
        <time>2015-11-01T14:30:05Z</time>
      </trkpt>
      <trkpt lat="49.83649" lon="2.16989">
        <ele>108.3</ele>
        <time>2015-11-01T14:30:07Z</time>
      </trkpt>
      <trkpt lat="49.83649" lon="2.16984">
        <ele>108.2</ele>
        <time>2015-11-01T14:30:10Z</time>
      </trkpt>
      <trkpt lat="49.83648" lon="2.1698">
        <ele>108.2</ele>
        <time>2015-11-01T14:30:16Z</time>
      </trkpt>
      <trkpt lat="49.83643" lon="2.16962">
        <ele>109.2</ele>
        <time>2015-11-01T14:30:38Z</time>
      </trkpt>
      <trkpt lat="49.83642" lon="2.16958">
        <ele>109.2</ele>
        <time>2015-11-01T14:30:42Z</time>
      </trkpt>
      <trkpt lat="49.83638" lon="2.16949">
        <ele>110.2</ele>
        <time>2015-11-01T14:30:47Z</time>
      </trkpt>
      <trkpt lat="49.83637" lon="2.16945">
        <ele>110.1</ele>
        <time>2015-11-01T14:30:55Z</time>
      </trkpt>
      <trkpt lat="49.83635" lon="2.16941">
        <ele>110.5</ele>
        <time>2015-11-01T14:30:58Z</time>
      </trkpt>
      <trkpt lat="49.83634" lon="2.16937">
        <ele>110.7</ele>
        <time>2015-11-01T14:31:02Z</time>
      </trkpt>
      <trkpt lat="49.8363" lon="2.16933">
        <ele>111.6</ele>
        <time>2015-11-01T14:31:05Z</time>
      </trkpt>
      <trkpt lat="49.83628" lon="2.1693">
        <ele>112.2</ele>
        <time>2015-11-01T14:31:07Z</time>
      </trkpt>
      <trkpt lat="49.83626" lon="2.16926">
        <ele>112.5</ele>
        <time>2015-11-01T14:31:10Z</time>
      </trkpt>
      <trkpt lat="49.83625" lon="2.16921">
        <ele>112.7</ele>
        <time>2015-11-01T14:31:14Z</time>
      </trkpt>
      <trkpt lat="49.83625" lon="2.16916">
        <ele>112.5</ele>
        <time>2015-11-01T14:31:17Z</time>
      </trkpt>
      <trkpt lat="49.83624" lon="2.16911">
        <ele>112.4</ele>
        <time>2015-11-01T14:31:22Z</time>
      </trkpt>
      <trkpt lat="49.83624" lon="2.16907">
        <ele>112.3</ele>
        <time>2015-11-01T14:31:27Z</time>
      </trkpt>
      <trkpt lat="49.83623" lon="2.16902">
        <ele>112.2</ele>
        <time>2015-11-01T14:31:29Z</time>
      </trkpt>
      <trkpt lat="49.83625" lon="2.16898">
        <ele>111.9</ele>
        <time>2015-11-01T14:31:32Z</time>
      </trkpt>
      <trkpt lat="49.83625" lon="2.16893">
        <ele>111.7</ele>
        <time>2015-11-01T14:31:36Z</time>
      </trkpt>
      <trkpt lat="49.83621" lon="2.16891">
        <ele>112.1</ele>
        <time>2015-11-01T14:31:39Z</time>
      </trkpt>
      <trkpt lat="49.83618" lon="2.16886">
        <ele>112.2</ele>
        <time>2015-11-01T14:31:44Z</time>
      </trkpt>
      <trkpt lat="49.83617" lon="2.16883">
        <ele>112.3</ele>
        <time>2015-11-01T14:31:52Z</time>
      </trkpt>
      <trkpt lat="49.83616" lon="2.16879">
        <ele>112.3</ele>
        <time>2015-11-01T14:31:58Z</time>
      </trkpt>
      <trkpt lat="49.83611" lon="2.16872">
        <ele>112.6</ele>
        <time>2015-11-01T14:32:03Z</time>
      </trkpt>
      <trkpt lat="49.83609" lon="2.16866">
        <ele>112.6</ele>
        <time>2015-11-01T14:32:07Z</time>
      </trkpt>
      <trkpt lat="49.83607" lon="2.16861">
        <ele>112.7</ele>
        <time>2015-11-01T14:32:12Z</time>
      </trkpt>
      <trkpt lat="49.83605" lon="2.16856">
        <ele>112.5</ele>
        <time>2015-11-01T14:32:15Z</time>
      </trkpt>
      <trkpt lat="49.83604" lon="2.1685">
        <ele>112.4</ele>
        <time>2015-11-01T14:32:18Z</time>
      </trkpt>
      <trkpt lat="49.83602" lon="2.16847">
        <ele>112.5</ele>
        <time>2015-11-01T14:32:21Z</time>
      </trkpt>
      <trkpt lat="49.83603" lon="2.16842">
        <ele>112.2</ele>
        <time>2015-11-01T14:32:25Z</time>
      </trkpt>
      <trkpt lat="49.83601" lon="2.16833">
        <ele>112</ele>
        <time>2015-11-01T14:32:48Z</time>
      </trkpt>
      <trkpt lat="49.836" lon="2.16829">
        <ele>111.9</ele>
        <time>2015-11-01T14:32:52Z</time>
      </trkpt>
      <trkpt lat="49.83599" lon="2.16824">
        <ele>111.8</ele>
        <time>2015-11-01T14:32:56Z</time>
      </trkpt>
      <trkpt lat="49.836" lon="2.16819">
        <ele>111.5</ele>
        <time>2015-11-01T14:32:59Z</time>
      </trkpt>
      <trkpt lat="49.836" lon="2.16814">
        <ele>111.2</ele>
        <time>2015-11-01T14:33:02Z</time>
      </trkpt>
      <trkpt lat="49.83599" lon="2.1681">
        <ele>111.2</ele>
        <time>2015-11-01T14:33:08Z</time>
      </trkpt>
      <trkpt lat="49.83602" lon="2.16794">
        <ele>109.8</ele>
        <time>2015-11-01T14:33:21Z</time>
      </trkpt>
      <trkpt lat="49.83602" lon="2.16789">
        <ele>109.5</ele>
        <time>2015-11-01T14:33:23Z</time>
      </trkpt>
      <trkpt lat="49.83603" lon="2.16784">
        <ele>109.4</ele>
        <time>2015-11-01T14:33:28Z</time>
      </trkpt>
      <trkpt lat="49.83602" lon="2.16779">
        <ele>109.5</ele>
        <time>2015-11-01T14:33:32Z</time>
      </trkpt>
      <trkpt lat="49.83601" lon="2.16774">
        <ele>109.5</ele>
        <time>2015-11-01T14:33:39Z</time>
      </trkpt>
      <trkpt lat="49.836" lon="2.1677">
        <ele>109.7</ele>
        <time>2015-11-01T14:33:40Z</time>
      </trkpt>
      <trkpt lat="49.83596" lon="2.16763">
        <ele>110.3</ele>
        <time>2015-11-01T14:33:42Z</time>
      </trkpt>
      <trkpt lat="49.83594" lon="2.16759">
        <ele>110.7</ele>
        <time>2015-11-01T14:33:43Z</time>
      </trkpt>
      <trkpt lat="49.83592" lon="2.16756">
        <ele>111.1</ele>
        <time>2015-11-01T14:33:46Z</time>
      </trkpt>
      <trkpt lat="49.83592" lon="2.16751">
        <ele>111</ele>
        <time>2015-11-01T14:33:54Z</time>
      </trkpt>
      <trkpt lat="49.83592" lon="2.16747">
        <ele>110.8</ele>
        <time>2015-11-01T14:33:57Z</time>
      </trkpt>
      <trkpt lat="49.83593" lon="2.16742">
        <ele>110.6</ele>
        <time>2015-11-01T14:34:04Z</time>
      </trkpt>
      <trkpt lat="49.83592" lon="2.16738">
        <ele>110.7</ele>
        <time>2015-11-01T14:34:08Z</time>
      </trkpt>
      <trkpt lat="49.83589" lon="2.16734">
        <ele>111.2</ele>
        <time>2015-11-01T14:34:12Z</time>
      </trkpt>
      <trkpt lat="49.83586" lon="2.16731">
        <ele>111.8</ele>
        <time>2015-11-01T14:34:15Z</time>
      </trkpt>
      <trkpt lat="49.83584" lon="2.16728">
        <ele>112.3</ele>
        <time>2015-11-01T14:34:18Z</time>
      </trkpt>
      <trkpt lat="49.83582" lon="2.16721">
        <ele>112.6</ele>
        <time>2015-11-01T14:34:26Z</time>
      </trkpt>
      <trkpt lat="49.8358" lon="2.16717">
        <ele>112.8</ele>
        <time>2015-11-01T14:34:34Z</time>
      </trkpt>
      <trkpt lat="49.83578" lon="2.16714">
        <ele>113.2</ele>
        <time>2015-11-01T14:34:36Z</time>
      </trkpt>
      <trkpt lat="49.83577" lon="2.1671">
        <ele>113.3</ele>
        <time>2015-11-01T14:34:39Z</time>
      </trkpt>
      <trkpt lat="49.83576" lon="2.16705">
        <ele>113.4</ele>
        <time>2015-11-01T14:34:43Z</time>
      </trkpt>
      <trkpt lat="49.83573" lon="2.16704">
        <ele>114.1</ele>
        <time>2015-11-01T14:34:45Z</time>
      </trkpt>
      <trkpt lat="49.83569" lon="2.16704">
        <ele>114.8</ele>
        <time>2015-11-01T14:34:47Z</time>
      </trkpt>
      <trkpt lat="49.83567" lon="2.167">
        <ele>115.3</ele>
        <time>2015-11-01T14:34:54Z</time>
      </trkpt>
      <trkpt lat="49.83564" lon="2.16692">
        <ele>115.6</ele>
        <time>2015-11-01T14:35:03Z</time>
      </trkpt>
      <trkpt lat="49.83565" lon="2.16687">
        <ele>115.3</ele>
        <time>2015-11-01T14:35:07Z</time>
      </trkpt>
      <trkpt lat="49.83566" lon="2.16682">
        <ele>114.9</ele>
        <time>2015-11-01T14:35:09Z</time>
      </trkpt>
      <trkpt lat="49.83566" lon="2.16678">
        <ele>114.7</ele>
        <time>2015-11-01T14:35:16Z</time>
      </trkpt>
      <trkpt lat="49.83565" lon="2.16672">
        <ele>114.6</ele>
        <time>2015-11-01T14:35:21Z</time>
      </trkpt>
      <trkpt lat="49.83565" lon="2.16666">
        <ele>114.5</ele>
        <time>2015-11-01T14:35:25Z</time>
      </trkpt>
      <trkpt lat="49.83566" lon="2.16662">
        <ele>114.2</ele>
        <time>2015-11-01T14:35:29Z</time>
      </trkpt>
      <trkpt lat="49.83566" lon="2.16656">
        <ele>114</ele>
        <time>2015-11-01T14:35:31Z</time>
      </trkpt>
      <trkpt lat="49.83565" lon="2.16652">
        <ele>114</ele>
        <time>2015-11-01T14:35:33Z</time>
      </trkpt>
      <trkpt lat="49.83565" lon="2.16647">
        <ele>113.9</ele>
        <time>2015-11-01T14:35:40Z</time>
      </trkpt>
      <trkpt lat="49.83564" lon="2.16643">
        <ele>113.9</ele>
        <time>2015-11-01T14:35:43Z</time>
      </trkpt>
      <trkpt lat="49.83563" lon="2.16639">
        <ele>114</ele>
        <time>2015-11-01T14:35:46Z</time>
      </trkpt>
      <trkpt lat="49.83566" lon="2.16632">
        <ele>113.1</ele>
        <time>2015-11-01T14:35:50Z</time>
      </trkpt>
      <trkpt lat="49.83567" lon="2.16628">
        <ele>112.7</ele>
        <time>2015-11-01T14:35:57Z</time>
      </trkpt>
      <trkpt lat="49.83567" lon="2.16619">
        <ele>112.5</ele>
        <time>2015-11-01T14:36:15Z</time>
      </trkpt>
      <trkpt lat="49.83565" lon="2.16615">
        <ele>112.9</ele>
        <time>2015-11-01T14:36:18Z</time>
      </trkpt>
      <trkpt lat="49.83563" lon="2.16612">
        <ele>113.6</ele>
        <time>2015-11-01T14:36:19Z</time>
      </trkpt>
      <trkpt lat="49.83562" lon="2.16608">
        <ele>113.6</ele>
        <time>2015-11-01T14:36:24Z</time>
      </trkpt>
      <trkpt lat="49.83562" lon="2.16601">
        <ele>113.7</ele>
        <time>2015-11-01T14:36:28Z</time>
      </trkpt>
      <trkpt lat="49.83561" lon="2.16596">
        <ele>113.7</ele>
        <time>2015-11-01T14:36:30Z</time>
      </trkpt>
      <trkpt lat="49.83562" lon="2.16591">
        <ele>113.5</ele>
        <time>2015-11-01T14:36:37Z</time>
      </trkpt>
      <trkpt lat="49.8356" lon="2.16587">
        <ele>113.9</ele>
        <time>2015-11-01T14:36:40Z</time>
      </trkpt>
      <trkpt lat="49.83558" lon="2.16583">
        <ele>114.3</ele>
        <time>2015-11-01T14:36:45Z</time>
      </trkpt>
      <trkpt lat="49.83556" lon="2.1658">
        <ele>114.9</ele>
        <time>2015-11-01T14:36:48Z</time>
      </trkpt>
      <trkpt lat="49.83553" lon="2.16573">
        <ele>115.6</ele>
        <time>2015-11-01T14:36:51Z</time>
      </trkpt>
      <trkpt lat="49.83551" lon="2.16568">
        <ele>115.9</ele>
        <time>2015-11-01T14:36:53Z</time>
      </trkpt>
      <trkpt lat="49.83552" lon="2.16563">
        <ele>115.6</ele>
        <time>2015-11-01T14:36:56Z</time>
      </trkpt>
      <trkpt lat="49.83552" lon="2.16558">
        <ele>115.6</ele>
        <time>2015-11-01T14:37:00Z</time>
      </trkpt>
      <trkpt lat="49.83553" lon="2.16554">
        <ele>115.4</ele>
        <time>2015-11-01T14:37:04Z</time>
      </trkpt>
      <trkpt lat="49.83553" lon="2.16549">
        <ele>115.4</ele>
        <time>2015-11-01T14:37:08Z</time>
      </trkpt>
      <trkpt lat="49.83552" lon="2.16542">
        <ele>115.5</ele>
        <time>2015-11-01T14:37:12Z</time>
      </trkpt>
      <trkpt lat="49.83553" lon="2.16538">
        <ele>115</ele>
        <time>2015-11-01T14:37:17Z</time>
      </trkpt>
      <trkpt lat="49.83551" lon="2.16534">
        <ele>115.4</ele>
        <time>2015-11-01T14:37:20Z</time>
      </trkpt>
      <trkpt lat="49.83553" lon="2.16529">
        <ele>114.7</ele>
        <time>2015-11-01T14:37:26Z</time>
      </trkpt>
      <trkpt lat="49.83554" lon="2.16524">
        <ele>114.3</ele>
        <time>2015-11-01T14:37:32Z</time>
      </trkpt>
      <trkpt lat="49.83555" lon="2.16517">
        <ele>114</ele>
        <time>2015-11-01T14:37:35Z</time>
      </trkpt>
      <trkpt lat="49.83555" lon="2.16513">
        <ele>113.7</ele>
        <time>2015-11-01T14:37:37Z</time>
      </trkpt>
      <trkpt lat="49.83556" lon="2.16509">
        <ele>113.4</ele>
        <time>2015-11-01T14:37:42Z</time>
      </trkpt>
      <trkpt lat="49.83556" lon="2.16504">
        <ele>113.2</ele>
        <time>2015-11-01T14:37:46Z</time>
      </trkpt>
      <trkpt lat="49.83557" lon="2.16498">
        <ele>112.9</ele>
        <time>2015-11-01T14:37:52Z</time>
      </trkpt>
      <trkpt lat="49.83559" lon="2.16493">
        <ele>112</ele>
        <time>2015-11-01T14:37:54Z</time>
      </trkpt>
      <trkpt lat="49.83561" lon="2.16489">
        <ele>111.6</ele>
        <time>2015-11-01T14:38:00Z</time>
      </trkpt>
      <trkpt lat="49.8356" lon="2.16483">
        <ele>111.6</ele>
        <time>2015-11-01T14:38:05Z</time>
      </trkpt>
      <trkpt lat="49.83561" lon="2.16478">
        <ele>111.3</ele>
        <time>2015-11-01T14:38:09Z</time>
      </trkpt>
      <trkpt lat="49.83561" lon="2.16471">
        <ele>110.9</ele>
        <time>2015-11-01T14:38:13Z</time>
      </trkpt>
      <trkpt lat="49.83561" lon="2.16467">
        <ele>110.9</ele>
        <time>2015-11-01T14:38:16Z</time>
      </trkpt>
      <trkpt lat="49.83563" lon="2.16463">
        <ele>110.3</ele>
        <time>2015-11-01T14:38:21Z</time>
      </trkpt>
      <trkpt lat="49.83562" lon="2.16459">
        <ele>110.3</ele>
        <time>2015-11-01T14:38:27Z</time>
      </trkpt>
      <trkpt lat="49.83561" lon="2.16454">
        <ele>110.6</ele>
        <time>2015-11-01T14:38:33Z</time>
      </trkpt>
      <trkpt lat="49.83561" lon="2.16449">
        <ele>110.4</ele>
        <time>2015-11-01T14:38:38Z</time>
      </trkpt>
      <trkpt lat="49.83559" lon="2.16446">
        <ele>110.7</ele>
        <time>2015-11-01T14:38:40Z</time>
      </trkpt>
      <trkpt lat="49.8356" lon="2.16441">
        <ele>110.4</ele>
        <time>2015-11-01T14:38:44Z</time>
      </trkpt>
      <trkpt lat="49.83559" lon="2.16435">
        <ele>110.5</ele>
        <time>2015-11-01T14:38:49Z</time>
      </trkpt>
      <trkpt lat="49.8356" lon="2.16425">
        <ele>110.2</ele>
        <time>2015-11-01T14:38:57Z</time>
      </trkpt>
      <trkpt lat="49.83562" lon="2.16422">
        <ele>109.5</ele>
        <time>2015-11-01T14:39:00Z</time>
      </trkpt>
      <trkpt lat="49.83564" lon="2.16419">
        <ele>109.1</ele>
        <time>2015-11-01T14:39:05Z</time>
      </trkpt>
      <trkpt lat="49.8356" lon="2.16415">
        <ele>109.8</ele>
        <time>2015-11-01T14:39:08Z</time>
      </trkpt>
      <trkpt lat="49.8356" lon="2.1641">
        <ele>109.9</ele>
        <time>2015-11-01T14:39:15Z</time>
      </trkpt>
      <trkpt lat="49.83561" lon="2.16406">
        <ele>109.6</ele>
        <time>2015-11-01T14:39:22Z</time>
      </trkpt>
      <trkpt lat="49.8356" lon="2.164">
        <ele>109.6</ele>
        <time>2015-11-01T14:39:28Z</time>
      </trkpt>
      <trkpt lat="49.83562" lon="2.16396">
        <ele>109.1</ele>
        <time>2015-11-01T14:39:32Z</time>
      </trkpt>
      <trkpt lat="49.83563" lon="2.16391">
        <ele>108.8</ele>
        <time>2015-11-01T14:39:35Z</time>
      </trkpt>
      <trkpt lat="49.8356" lon="2.16383">
        <ele>109.2</ele>
        <time>2015-11-01T14:39:37Z</time>
      </trkpt>
      <trkpt lat="49.83561" lon="2.16378">
        <ele>109</ele>
        <time>2015-11-01T14:39:45Z</time>
      </trkpt>
      <trkpt lat="49.8356" lon="2.16373">
        <ele>108.9</ele>
        <time>2015-11-01T14:39:51Z</time>
      </trkpt>
      <trkpt lat="49.83559" lon="2.16369">
        <ele>108.8</ele>
        <time>2015-11-01T14:39:55Z</time>
      </trkpt>
      <trkpt lat="49.83558" lon="2.16364">
        <ele>108.6</ele>
        <time>2015-11-01T14:40:00Z</time>
      </trkpt>
      <trkpt lat="49.83555" lon="2.16361">
        <ele>108.9</ele>
        <time>2015-11-01T14:40:03Z</time>
      </trkpt>
      <trkpt lat="49.83556" lon="2.16356">
        <ele>108.3</ele>
        <time>2015-11-01T14:40:07Z</time>
      </trkpt>
      <trkpt lat="49.83557" lon="2.16352">
        <ele>107.9</ele>
        <time>2015-11-01T14:40:11Z</time>
      </trkpt>
      <trkpt lat="49.83556" lon="2.16347">
        <ele>107.6</ele>
        <time>2015-11-01T14:40:18Z</time>
      </trkpt>
      <trkpt lat="49.83557" lon="2.16343">
        <ele>107.1</ele>
        <time>2015-11-01T14:40:22Z</time>
      </trkpt>
      <trkpt lat="49.83557" lon="2.16337">
        <ele>106.6</ele>
        <time>2015-11-01T14:40:25Z</time>
      </trkpt>
      <trkpt lat="49.83555" lon="2.16333">
        <ele>106.6</ele>
        <time>2015-11-01T14:40:28Z</time>
      </trkpt>
      <trkpt lat="49.83554" lon="2.16329">
        <ele>106.4</ele>
        <time>2015-11-01T14:40:35Z</time>
      </trkpt>
      <trkpt lat="49.83553" lon="2.16325">
        <ele>106.3</ele>
        <time>2015-11-01T14:40:39Z</time>
      </trkpt>
      <trkpt lat="49.83559" lon="2.16308">
        <ele>104</ele>
        <time>2015-11-01T14:41:23Z</time>
      </trkpt>
      <trkpt lat="49.83555" lon="2.16306">
        <ele>104.4</ele>
        <time>2015-11-01T14:41:26Z</time>
      </trkpt>
      <trkpt lat="49.83552" lon="2.16306">
        <ele>104.9</ele>
        <time>2015-11-01T14:41:28Z</time>
      </trkpt>
      <trkpt lat="49.83549" lon="2.16304">
        <ele>105.1</ele>
        <time>2015-11-01T14:41:31Z</time>
      </trkpt>
      <trkpt lat="49.83548" lon="2.163">
        <ele>105</ele>
        <time>2015-11-01T14:41:39Z</time>
      </trkpt>
      <trkpt lat="49.83545" lon="2.16297">
        <ele>105</ele>
        <time>2015-11-01T14:41:45Z</time>
      </trkpt>
      <trkpt lat="49.83542" lon="2.16297">
        <ele>105.4</ele>
        <time>2015-11-01T14:41:48Z</time>
      </trkpt>
      <trkpt lat="49.83539" lon="2.16295">
        <ele>105.6</ele>
        <time>2015-11-01T14:41:52Z</time>
      </trkpt>
      <trkpt lat="49.83536" lon="2.16293">
        <ele>105.7</ele>
        <time>2015-11-01T14:41:55Z</time>
      </trkpt>
      <trkpt lat="49.83533" lon="2.16291">
        <ele>105.9</ele>
        <time>2015-11-01T14:42:00Z</time>
      </trkpt>
      <trkpt lat="49.8353" lon="2.16288">
        <ele>106</ele>
        <time>2015-11-01T14:42:04Z</time>
      </trkpt>
      <trkpt lat="49.83528" lon="2.16284">
        <ele>106</ele>
        <time>2015-11-01T14:42:15Z</time>
      </trkpt>
      <trkpt lat="49.83526" lon="2.16281">
        <ele>106</ele>
        <time>2015-11-01T14:42:17Z</time>
      </trkpt>
      <trkpt lat="49.83515" lon="2.16292">
        <ele>107.9</ele>
        <time>2015-11-01T14:43:12Z</time>
      </trkpt>
      <trkpt lat="49.83513" lon="2.16295">
        <ele>108.5</ele>
        <time>2015-11-01T14:43:17Z</time>
      </trkpt>
      <trkpt lat="49.8351" lon="2.16297">
        <ele>108.9</ele>
        <time>2015-11-01T14:43:24Z</time>
      </trkpt>
      <trkpt lat="49.83502" lon="2.16303">
        <ele>110.3</ele>
        <time>2015-11-01T14:43:53Z</time>
      </trkpt>
      <trkpt lat="49.83502" lon="2.16307">
        <ele>110.8</ele>
        <time>2015-11-01T14:44:02Z</time>
      </trkpt>
      <trkpt lat="49.83501" lon="2.16312">
        <ele>111.4</ele>
        <time>2015-11-01T14:44:16Z</time>
      </trkpt>
      <trkpt lat="49.83498" lon="2.16314">
        <ele>111.9</ele>
        <time>2015-11-01T14:44:25Z</time>
      </trkpt>
      <trkpt lat="49.83485" lon="2.16346">
        <ele>116.3</ele>
        <time>2015-11-01T14:59:04Z</time>
      </trkpt>
      <trkpt lat="49.83484" lon="2.16342">
        <ele>116.1</ele>
        <time>2015-11-01T14:59:07Z</time>
      </trkpt>
      <trkpt lat="49.83482" lon="2.16338">
        <ele>115.9</ele>
        <time>2015-11-01T14:59:09Z</time>
      </trkpt>
      <trkpt lat="49.83479" lon="2.16341">
        <ele>116.5</ele>
        <time>2015-11-01T14:59:23Z</time>
      </trkpt>
      <trkpt lat="49.83476" lon="2.16343">
        <ele>117</ele>
        <time>2015-11-01T14:59:29Z</time>
      </trkpt>
      <trkpt lat="49.83474" lon="2.16346">
        <ele>117.5</ele>
        <time>2015-11-01T14:59:33Z</time>
      </trkpt>
      <trkpt lat="49.83471" lon="2.16346">
        <ele>117.8</ele>
        <time>2015-11-01T14:59:38Z</time>
      </trkpt>
      <trkpt lat="49.83468" lon="2.16345">
        <ele>118.1</ele>
        <time>2015-11-01T14:59:44Z</time>
      </trkpt>
      <trkpt lat="49.83467" lon="2.16349">
        <ele>118.6</ele>
        <time>2015-11-01T14:59:47Z</time>
      </trkpt>
      <trkpt lat="49.83463" lon="2.16351">
        <ele>119.2</ele>
        <time>2015-11-01T14:59:50Z</time>
      </trkpt>
      <trkpt lat="49.8346" lon="2.16353">
        <ele>119.7</ele>
        <time>2015-11-01T14:59:53Z</time>
      </trkpt>
      <trkpt lat="49.83457" lon="2.16355">
        <ele>120.2</ele>
        <time>2015-11-01T14:59:56Z</time>
      </trkpt>
      <trkpt lat="49.83455" lon="2.16356">
        <ele>120.5</ele>
        <time>2015-11-01T14:59:58Z</time>
      </trkpt>
      <trkpt lat="49.83452" lon="2.1636">
        <ele>121.1</ele>
        <time>2015-11-01T15:00:00Z</time>
      </trkpt>
      <trkpt lat="49.83449" lon="2.1636">
        <ele>121.4</ele>
        <time>2015-11-01T15:00:05Z</time>
      </trkpt>
      <trkpt lat="49.83447" lon="2.16364">
        <ele>121.9</ele>
        <time>2015-11-01T15:00:10Z</time>
      </trkpt>
      <trkpt lat="49.83445" lon="2.1637">
        <ele>122.7</ele>
        <time>2015-11-01T15:00:18Z</time>
      </trkpt>
      <trkpt lat="49.83442" lon="2.16372">
        <ele>123.1</ele>
        <time>2015-11-01T15:00:20Z</time>
      </trkpt>
      <trkpt lat="49.83439" lon="2.16371">
        <ele>123.3</ele>
        <time>2015-11-01T15:00:24Z</time>
      </trkpt>
      <trkpt lat="49.83437" lon="2.16374">
        <ele>123.8</ele>
        <time>2015-11-01T15:00:28Z</time>
      </trkpt>
      <trkpt lat="49.83434" lon="2.16376">
        <ele>124.1</ele>
        <time>2015-11-01T15:00:32Z</time>
      </trkpt>
      <trkpt lat="49.83432" lon="2.16381">
        <ele>124.3</ele>
        <time>2015-11-01T15:00:36Z</time>
      </trkpt>
      <trkpt lat="49.8343" lon="2.16384">
        <ele>124.5</ele>
        <time>2015-11-01T15:00:49Z</time>
      </trkpt>
      <trkpt lat="49.83428" lon="2.16388">
        <ele>124.6</ele>
        <time>2015-11-01T15:00:54Z</time>
      </trkpt>
      <trkpt lat="49.83426" lon="2.1639">
        <ele>124.8</ele>
        <time>2015-11-01T15:01:00Z</time>
      </trkpt>
      <trkpt lat="49.83423" lon="2.16393">
        <ele>125.1</ele>
        <time>2015-11-01T15:01:06Z</time>
      </trkpt>
      <trkpt lat="49.8342" lon="2.16393">
        <ele>125.4</ele>
        <time>2015-11-01T15:01:09Z</time>
      </trkpt>
      <trkpt lat="49.83417" lon="2.16396">
        <ele>125.6</ele>
        <time>2015-11-01T15:01:13Z</time>
      </trkpt>
      <trkpt lat="49.83413" lon="2.16398">
        <ele>125.9</ele>
        <time>2015-11-01T15:01:17Z</time>
      </trkpt>
      <trkpt lat="49.83411" lon="2.164">
        <ele>126.1</ele>
        <time>2015-11-01T15:01:23Z</time>
      </trkpt>
      <trkpt lat="49.83408" lon="2.16404">
        <ele>126.4</ele>
        <time>2015-11-01T15:01:28Z</time>
      </trkpt>
      <trkpt lat="49.83405" lon="2.16404">
        <ele>126.7</ele>
        <time>2015-11-01T15:01:31Z</time>
      </trkpt>
      <trkpt lat="49.83403" lon="2.16402">
        <ele>126.9</ele>
        <time>2015-11-01T15:01:33Z</time>
      </trkpt>
      <trkpt lat="49.83402" lon="2.16406">
        <ele>127</ele>
        <time>2015-11-01T15:01:35Z</time>
      </trkpt>
      <trkpt lat="49.83399" lon="2.16407">
        <ele>127.3</ele>
        <time>2015-11-01T15:01:37Z</time>
      </trkpt>
      <trkpt lat="49.83396" lon="2.16411">
        <ele>127.6</ele>
        <time>2015-11-01T15:01:42Z</time>
      </trkpt>
      <trkpt lat="49.83394" lon="2.16414">
        <ele>127.8</ele>
        <time>2015-11-01T15:01:45Z</time>
      </trkpt>
      <trkpt lat="49.83391" lon="2.16416">
        <ele>128.1</ele>
        <time>2015-11-01T15:01:48Z</time>
      </trkpt>
      <trkpt lat="49.83389" lon="2.1642">
        <ele>128.3</ele>
        <time>2015-11-01T15:01:51Z</time>
      </trkpt>
      <trkpt lat="49.83386" lon="2.1642">
        <ele>128.6</ele>
        <time>2015-11-01T15:01:54Z</time>
      </trkpt>
      <trkpt lat="49.83383" lon="2.16423">
        <ele>128.9</ele>
        <time>2015-11-01T15:01:59Z</time>
      </trkpt>
      <trkpt lat="49.8338" lon="2.16426">
        <ele>129.2</ele>
        <time>2015-11-01T15:02:03Z</time>
      </trkpt>
      <trkpt lat="49.83378" lon="2.16429">
        <ele>129.4</ele>
        <time>2015-11-01T15:02:05Z</time>
      </trkpt>
      <trkpt lat="49.83376" lon="2.16433">
        <ele>129.6</ele>
        <time>2015-11-01T15:02:08Z</time>
      </trkpt>
      <trkpt lat="49.83373" lon="2.16435">
        <ele>129.8</ele>
        <time>2015-11-01T15:02:15Z</time>
      </trkpt>
      <trkpt lat="49.8337" lon="2.16437">
        <ele>129.9</ele>
        <time>2015-11-01T15:02:21Z</time>
      </trkpt>
      <trkpt lat="49.83368" lon="2.1644">
        <ele>130</ele>
        <time>2015-11-01T15:02:35Z</time>
      </trkpt>
      <trkpt lat="49.83367" lon="2.16443">
        <ele>130.1</ele>
        <time>2015-11-01T15:02:41Z</time>
      </trkpt>
      <trkpt lat="49.83364" lon="2.16445">
        <ele>130.2</ele>
        <time>2015-11-01T15:02:44Z</time>
      </trkpt>
      <trkpt lat="49.83362" lon="2.16448">
        <ele>130.3</ele>
        <time>2015-11-01T15:02:48Z</time>
      </trkpt>
      <trkpt lat="49.83359" lon="2.1645">
        <ele>130.5</ele>
        <time>2015-11-01T15:02:51Z</time>
      </trkpt>
      <trkpt lat="49.83357" lon="2.16452">
        <ele>130.6</ele>
        <time>2015-11-01T15:02:56Z</time>
      </trkpt>
      <trkpt lat="49.83355" lon="2.16455">
        <ele>130.7</ele>
        <time>2015-11-01T15:02:59Z</time>
      </trkpt>
      <trkpt lat="49.83352" lon="2.16456">
        <ele>130.8</ele>
        <time>2015-11-01T15:03:02Z</time>
      </trkpt>
      <trkpt lat="49.83349" lon="2.1646">
        <ele>130.9</ele>
        <time>2015-11-01T15:03:05Z</time>
      </trkpt>
      <trkpt lat="49.83345" lon="2.16462">
        <ele>131</ele>
        <time>2015-11-01T15:03:08Z</time>
      </trkpt>
      <trkpt lat="49.83342" lon="2.16463">
        <ele>131.1</ele>
        <time>2015-11-01T15:03:11Z</time>
      </trkpt>
      <trkpt lat="49.8334" lon="2.16461">
        <ele>131.2</ele>
        <time>2015-11-01T15:03:12Z</time>
      </trkpt>
      <trkpt lat="49.83337" lon="2.16462">
        <ele>131.3</ele>
        <time>2015-11-01T15:03:14Z</time>
      </trkpt>
      <trkpt lat="49.83336" lon="2.16466">
        <ele>131.3</ele>
        <time>2015-11-01T15:03:18Z</time>
      </trkpt>
      <trkpt lat="49.83333" lon="2.16464">
        <ele>131.4</ele>
        <time>2015-11-01T15:03:22Z</time>
      </trkpt>
      <trkpt lat="49.8333" lon="2.16465">
        <ele>131.5</ele>
        <time>2015-11-01T15:03:24Z</time>
      </trkpt>
      <trkpt lat="49.83325" lon="2.16468">
        <ele>131.7</ele>
        <time>2015-11-01T15:03:26Z</time>
      </trkpt>
      <trkpt lat="49.83322" lon="2.16471">
        <ele>131.7</ele>
        <time>2015-11-01T15:03:30Z</time>
      </trkpt>
      <trkpt lat="49.83321" lon="2.16475">
        <ele>131.7</ele>
        <time>2015-11-01T15:03:36Z</time>
      </trkpt>
      <trkpt lat="49.83318" lon="2.16477">
        <ele>131.8</ele>
        <time>2015-11-01T15:03:42Z</time>
      </trkpt>
      <trkpt lat="49.83315" lon="2.16479">
        <ele>131.9</ele>
        <time>2015-11-01T15:03:46Z</time>
      </trkpt>
      <trkpt lat="49.83313" lon="2.16482">
        <ele>131.9</ele>
        <time>2015-11-01T15:03:49Z</time>
      </trkpt>
      <trkpt lat="49.83311" lon="2.16485">
        <ele>132</ele>
        <time>2015-11-01T15:03:50Z</time>
      </trkpt>
      <trkpt lat="49.8331" lon="2.1649">
        <ele>132</ele>
        <time>2015-11-01T15:03:52Z</time>
      </trkpt>
      <trkpt lat="49.83307" lon="2.16491">
        <ele>132.1</ele>
        <time>2015-11-01T15:03:57Z</time>
      </trkpt>
      <trkpt lat="49.83305" lon="2.16494">
        <ele>132.1</ele>
        <time>2015-11-01T15:04:01Z</time>
      </trkpt>
      <trkpt lat="49.83302" lon="2.16495">
        <ele>132.2</ele>
        <time>2015-11-01T15:04:05Z</time>
      </trkpt>
      <trkpt lat="49.83299" lon="2.16497">
        <ele>132.3</ele>
        <time>2015-11-01T15:04:08Z</time>
      </trkpt>
      <trkpt lat="49.83297" lon="2.165">
        <ele>132.3</ele>
        <time>2015-11-01T15:04:10Z</time>
      </trkpt>
      <trkpt lat="49.83294" lon="2.16503">
        <ele>132.4</ele>
        <time>2015-11-01T15:04:13Z</time>
      </trkpt>
      <trkpt lat="49.83291" lon="2.16505">
        <ele>132.4</ele>
        <time>2015-11-01T15:04:16Z</time>
      </trkpt>
      <trkpt lat="49.83289" lon="2.16508">
        <ele>132.4</ele>
        <time>2015-11-01T15:04:19Z</time>
      </trkpt>
      <trkpt lat="49.83286" lon="2.16509">
        <ele>132.5</ele>
        <time>2015-11-01T15:04:22Z</time>
      </trkpt>
      <trkpt lat="49.83283" lon="2.16511">
        <ele>132.5</ele>
        <time>2015-11-01T15:04:25Z</time>
      </trkpt>
      <trkpt lat="49.8328" lon="2.16513">
        <ele>132.5</ele>
        <time>2015-11-01T15:04:28Z</time>
      </trkpt>
      <trkpt lat="49.83277" lon="2.16516">
        <ele>132.5</ele>
        <time>2015-11-01T15:04:31Z</time>
      </trkpt>
      <trkpt lat="49.83274" lon="2.16519">
        <ele>132.5</ele>
        <time>2015-11-01T15:04:34Z</time>
      </trkpt>
      <trkpt lat="49.83275" lon="2.16523">
        <ele>132.4</ele>
        <time>2015-11-01T15:04:38Z</time>
      </trkpt>
      <trkpt lat="49.83271" lon="2.16526">
        <ele>132.4</ele>
        <time>2015-11-01T15:04:41Z</time>
      </trkpt>
      <trkpt lat="49.83269" lon="2.16528">
        <ele>132.4</ele>
        <time>2015-11-01T15:04:44Z</time>
      </trkpt>
      <trkpt lat="49.83266" lon="2.16531">
        <ele>132.4</ele>
        <time>2015-11-01T15:04:47Z</time>
      </trkpt>
      <trkpt lat="49.83263" lon="2.16533">
        <ele>132.5</ele>
        <time>2015-11-01T15:04:49Z</time>
      </trkpt>
      <trkpt lat="49.8326" lon="2.16535">
        <ele>132.5</ele>
        <time>2015-11-01T15:04:51Z</time>
      </trkpt>
      <trkpt lat="49.83257" lon="2.16536">
        <ele>132.5</ele>
        <time>2015-11-01T15:04:56Z</time>
      </trkpt>
      <trkpt lat="49.83255" lon="2.16539">
        <ele>132.5</ele>
        <time>2015-11-01T15:05:02Z</time>
      </trkpt>
      <trkpt lat="49.83252" lon="2.16542">
        <ele>132.5</ele>
        <time>2015-11-01T15:05:06Z</time>
      </trkpt>
      <trkpt lat="49.83249" lon="2.16544">
        <ele>132.5</ele>
        <time>2015-11-01T15:05:09Z</time>
      </trkpt>
      <trkpt lat="49.83246" lon="2.16547">
        <ele>132.4</ele>
        <time>2015-11-01T15:05:12Z</time>
      </trkpt>
      <trkpt lat="49.83244" lon="2.1655">
        <ele>132.4</ele>
        <time>2015-11-01T15:05:15Z</time>
      </trkpt>
      <trkpt lat="49.83241" lon="2.16553">
        <ele>132.3</ele>
        <time>2015-11-01T15:05:18Z</time>
      </trkpt>
      <trkpt lat="49.83238" lon="2.16556">
        <ele>132.3</ele>
        <time>2015-11-01T15:05:22Z</time>
      </trkpt>
      <trkpt lat="49.83235" lon="2.16559">
        <ele>132.3</ele>
        <time>2015-11-01T15:05:26Z</time>
      </trkpt>
      <trkpt lat="49.83233" lon="2.16563">
        <ele>132.2</ele>
        <time>2015-11-01T15:05:29Z</time>
      </trkpt>
      <trkpt lat="49.8323" lon="2.16565">
        <ele>132.2</ele>
        <time>2015-11-01T15:05:33Z</time>
      </trkpt>
      <trkpt lat="49.83227" lon="2.16568">
        <ele>132.1</ele>
        <time>2015-11-01T15:05:36Z</time>
      </trkpt>
      <trkpt lat="49.83224" lon="2.1657">
        <ele>132.1</ele>
        <time>2015-11-01T15:05:39Z</time>
      </trkpt>
      <trkpt lat="49.83222" lon="2.16573">
        <ele>132.1</ele>
        <time>2015-11-01T15:05:43Z</time>
      </trkpt>
      <trkpt lat="49.83218" lon="2.16575">
        <ele>132.1</ele>
        <time>2015-11-01T15:05:47Z</time>
      </trkpt>
      <trkpt lat="49.83215" lon="2.16577">
        <ele>132.1</ele>
        <time>2015-11-01T15:05:52Z</time>
      </trkpt>
      <trkpt lat="49.83212" lon="2.16579">
        <ele>132.1</ele>
        <time>2015-11-01T15:05:56Z</time>
      </trkpt>
      <trkpt lat="49.83209" lon="2.16582">
        <ele>132</ele>
        <time>2015-11-01T15:06:00Z</time>
      </trkpt>
      <trkpt lat="49.83206" lon="2.16584">
        <ele>132</ele>
        <time>2015-11-01T15:06:02Z</time>
      </trkpt>
      <trkpt lat="49.83204" lon="2.16587">
        <ele>132</ele>
        <time>2015-11-01T15:06:05Z</time>
      </trkpt>
      <trkpt lat="49.83201" lon="2.16589">
        <ele>132</ele>
        <time>2015-11-01T15:06:08Z</time>
      </trkpt>
      <trkpt lat="49.83198" lon="2.16591">
        <ele>132</ele>
        <time>2015-11-01T15:06:11Z</time>
      </trkpt>
      <trkpt lat="49.83195" lon="2.16594">
        <ele>131.9</ele>
        <time>2015-11-01T15:06:16Z</time>
      </trkpt>
      <trkpt lat="49.83192" lon="2.16597">
        <ele>131.9</ele>
        <time>2015-11-01T15:06:21Z</time>
      </trkpt>
      <trkpt lat="49.83189" lon="2.16599">
        <ele>131.9</ele>
        <time>2015-11-01T15:06:24Z</time>
      </trkpt>
      <trkpt lat="49.83187" lon="2.16602">
        <ele>131.9</ele>
        <time>2015-11-01T15:06:28Z</time>
      </trkpt>
      <trkpt lat="49.83185" lon="2.16606">
        <ele>131.9</ele>
        <time>2015-11-01T15:06:32Z</time>
      </trkpt>
      <trkpt lat="49.83182" lon="2.16608">
        <ele>131.9</ele>
        <time>2015-11-01T15:06:34Z</time>
      </trkpt>
      <trkpt lat="49.83179" lon="2.16611">
        <ele>131.9</ele>
        <time>2015-11-01T15:06:40Z</time>
      </trkpt>
      <trkpt lat="49.83176" lon="2.16615">
        <ele>131.9</ele>
        <time>2015-11-01T15:06:43Z</time>
      </trkpt>
      <trkpt lat="49.83173" lon="2.16616">
        <ele>132</ele>
        <time>2015-11-01T15:06:46Z</time>
      </trkpt>
      <trkpt lat="49.8317" lon="2.16617">
        <ele>132</ele>
        <time>2015-11-01T15:06:48Z</time>
      </trkpt>
      <trkpt lat="49.83167" lon="2.16618">
        <ele>132.1</ele>
        <time>2015-11-01T15:06:51Z</time>
      </trkpt>
      <trkpt lat="49.83163" lon="2.16618">
        <ele>132.2</ele>
        <time>2015-11-01T15:06:54Z</time>
      </trkpt>
      <trkpt lat="49.83153" lon="2.16621">
        <ele>132.4</ele>
        <time>2015-11-01T15:07:23Z</time>
      </trkpt>
      <trkpt lat="49.83151" lon="2.1662">
        <ele>132.4</ele>
        <time>2015-11-01T15:07:28Z</time>
      </trkpt>
      <trkpt lat="49.83148" lon="2.1662">
        <ele>132.5</ele>
        <time>2015-11-01T15:07:34Z</time>
      </trkpt>
      <trkpt lat="49.83144" lon="2.16618">
        <ele>132.6</ele>
        <time>2015-11-01T15:07:39Z</time>
      </trkpt>
      <trkpt lat="49.83141" lon="2.16621">
        <ele>132.6</ele>
        <time>2015-11-01T15:07:45Z</time>
      </trkpt>
      <trkpt lat="49.83139" lon="2.16619">
        <ele>132.7</ele>
        <time>2015-11-01T15:07:49Z</time>
      </trkpt>
      <trkpt lat="49.83135" lon="2.1662">
        <ele>132.8</ele>
        <time>2015-11-01T15:07:53Z</time>
      </trkpt>
      <trkpt lat="49.83132" lon="2.16619">
        <ele>132.9</ele>
        <time>2015-11-01T15:07:57Z</time>
      </trkpt>
      <trkpt lat="49.8313" lon="2.16616">
        <ele>132.9</ele>
        <time>2015-11-01T15:08:10Z</time>
      </trkpt>
      <trkpt lat="49.8313" lon="2.1662">
        <ele>132.9</ele>
        <time>2015-11-01T15:09:45Z</time>
      </trkpt>
      <trkpt lat="49.83128" lon="2.16622">
        <ele>132.9</ele>
        <time>2015-11-01T15:09:49Z</time>
      </trkpt>
      <trkpt lat="49.83125" lon="2.16623">
        <ele>133</ele>
        <time>2015-11-01T15:09:54Z</time>
      </trkpt>
      <trkpt lat="49.83122" lon="2.16624">
        <ele>132.9</ele>
        <time>2015-11-01T15:09:59Z</time>
      </trkpt>
      <trkpt lat="49.8312" lon="2.16621">
        <ele>132.9</ele>
        <time>2015-11-01T15:10:04Z</time>
      </trkpt>
      <trkpt lat="49.83117" lon="2.16618">
        <ele>132.8</ele>
        <time>2015-11-01T15:10:09Z</time>
      </trkpt>
      <trkpt lat="49.83115" lon="2.16615">
        <ele>132.8</ele>
        <time>2015-11-01T15:10:21Z</time>
      </trkpt>
      <trkpt lat="49.83112" lon="2.16615">
        <ele>132.7</ele>
        <time>2015-11-01T15:10:26Z</time>
      </trkpt>
      <trkpt lat="49.83109" lon="2.16615">
        <ele>132.6</ele>
        <time>2015-11-01T15:10:31Z</time>
      </trkpt>
      <trkpt lat="49.83104" lon="2.16615">
        <ele>132.5</ele>
        <time>2015-11-01T15:10:36Z</time>
      </trkpt>
      <trkpt lat="49.83099" lon="2.16611">
        <ele>132.4</ele>
        <time>2015-11-01T15:10:47Z</time>
      </trkpt>
      <trkpt lat="49.83097" lon="2.16606">
        <ele>132.4</ele>
        <time>2015-11-01T15:10:51Z</time>
      </trkpt>
      <trkpt lat="49.83094" lon="2.16603">
        <ele>132.4</ele>
        <time>2015-11-01T15:10:53Z</time>
      </trkpt>
      <trkpt lat="49.83095" lon="2.16598">
        <ele>132.4</ele>
        <time>2015-11-01T15:10:56Z</time>
      </trkpt>
      <trkpt lat="49.83092" lon="2.16595">
        <ele>132.4</ele>
        <time>2015-11-01T15:10:58Z</time>
      </trkpt>
      <trkpt lat="49.83092" lon="2.16586">
        <ele>132.4</ele>
        <time>2015-11-01T15:11:03Z</time>
      </trkpt>
      <trkpt lat="49.83089" lon="2.16582">
        <ele>132.4</ele>
        <time>2015-11-01T15:11:06Z</time>
      </trkpt>
      <trkpt lat="49.83089" lon="2.16574">
        <ele>132.4</ele>
        <time>2015-11-01T15:11:09Z</time>
      </trkpt>
      <trkpt lat="49.83088" lon="2.1657">
        <ele>132.4</ele>
        <time>2015-11-01T15:11:23Z</time>
      </trkpt>
      <trkpt lat="49.83085" lon="2.16566">
        <ele>132.4</ele>
        <time>2015-11-01T15:11:27Z</time>
      </trkpt>
      <trkpt lat="49.83083" lon="2.16563">
        <ele>132.4</ele>
        <time>2015-11-01T15:11:30Z</time>
      </trkpt>
      <trkpt lat="49.83082" lon="2.1656">
        <ele>132.4</ele>
        <time>2015-11-01T15:11:33Z</time>
      </trkpt>
      <trkpt lat="49.8308" lon="2.16555">
        <ele>132.4</ele>
        <time>2015-11-01T15:11:38Z</time>
      </trkpt>
      <trkpt lat="49.83079" lon="2.16551">
        <ele>132.4</ele>
        <time>2015-11-01T15:11:42Z</time>
      </trkpt>
      <trkpt lat="49.83077" lon="2.16547">
        <ele>132.4</ele>
        <time>2015-11-01T15:11:45Z</time>
      </trkpt>
      <trkpt lat="49.83075" lon="2.16543">
        <ele>132.4</ele>
        <time>2015-11-01T15:11:51Z</time>
      </trkpt>
      <trkpt lat="49.83074" lon="2.16539">
        <ele>132.4</ele>
        <time>2015-11-01T15:11:54Z</time>
      </trkpt>
      <trkpt lat="49.83072" lon="2.16536">
        <ele>132.4</ele>
        <time>2015-11-01T15:11:57Z</time>
      </trkpt>
      <trkpt lat="49.83069" lon="2.16533">
        <ele>132.4</ele>
        <time>2015-11-01T15:12:00Z</time>
      </trkpt>
      <trkpt lat="49.83068" lon="2.16529">
        <ele>132.4</ele>
        <time>2015-11-01T15:12:02Z</time>
      </trkpt>
      <trkpt lat="49.83066" lon="2.16525">
        <ele>132.4</ele>
        <time>2015-11-01T15:12:05Z</time>
      </trkpt>
      <trkpt lat="49.83063" lon="2.1652">
        <ele>132.4</ele>
        <time>2015-11-01T15:12:09Z</time>
      </trkpt>
      <trkpt lat="49.83061" lon="2.16515">
        <ele>132.5</ele>
        <time>2015-11-01T15:12:13Z</time>
      </trkpt>
      <trkpt lat="49.8306" lon="2.16511">
        <ele>132.5</ele>
        <time>2015-11-01T15:12:15Z</time>
      </trkpt>
      <trkpt lat="49.83059" lon="2.16507">
        <ele>132.5</ele>
        <time>2015-11-01T15:12:17Z</time>
      </trkpt>
      <trkpt lat="49.83058" lon="2.16502">
        <ele>132.6</ele>
        <time>2015-11-01T15:12:20Z</time>
      </trkpt>
      <trkpt lat="49.83057" lon="2.16497">
        <ele>132.6</ele>
        <time>2015-11-01T15:12:24Z</time>
      </trkpt>
      <trkpt lat="49.83056" lon="2.16492">
        <ele>132.7</ele>
        <time>2015-11-01T15:12:26Z</time>
      </trkpt>
      <trkpt lat="49.83054" lon="2.16488">
        <ele>132.7</ele>
        <time>2015-11-01T15:12:29Z</time>
      </trkpt>
      <trkpt lat="49.83053" lon="2.16483">
        <ele>132.7</ele>
        <time>2015-11-01T15:12:34Z</time>
      </trkpt>
      <trkpt lat="49.83053" lon="2.16479">
        <ele>132.8</ele>
        <time>2015-11-01T15:12:37Z</time>
      </trkpt>
      <trkpt lat="49.83052" lon="2.16475">
        <ele>132.8</ele>
        <time>2015-11-01T15:12:38Z</time>
      </trkpt>
      <trkpt lat="49.83049" lon="2.16471">
        <ele>132.9</ele>
        <time>2015-11-01T15:12:41Z</time>
      </trkpt>
      <trkpt lat="49.83046" lon="2.16469">
        <ele>132.9</ele>
        <time>2015-11-01T15:12:44Z</time>
      </trkpt>
      <trkpt lat="49.83045" lon="2.16463">
        <ele>132.9</ele>
        <time>2015-11-01T15:12:48Z</time>
      </trkpt>
      <trkpt lat="49.83043" lon="2.16459">
        <ele>133</ele>
        <time>2015-11-01T15:12:52Z</time>
      </trkpt>
      <trkpt lat="49.83043" lon="2.16455">
        <ele>133.1</ele>
        <time>2015-11-01T15:12:56Z</time>
      </trkpt>
      <trkpt lat="49.83041" lon="2.1645">
        <ele>133.2</ele>
        <time>2015-11-01T15:12:59Z</time>
      </trkpt>
      <trkpt lat="49.83038" lon="2.16446">
        <ele>133.2</ele>
        <time>2015-11-01T15:13:01Z</time>
      </trkpt>
      <trkpt lat="49.83035" lon="2.16442">
        <ele>133.2</ele>
        <time>2015-11-01T15:13:04Z</time>
      </trkpt>
      <trkpt lat="49.83034" lon="2.16438">
        <ele>133.3</ele>
        <time>2015-11-01T15:13:07Z</time>
      </trkpt>
      <trkpt lat="49.83031" lon="2.16436">
        <ele>133.3</ele>
        <time>2015-11-01T15:13:10Z</time>
      </trkpt>
      <trkpt lat="49.83029" lon="2.16433">
        <ele>133.3</ele>
        <time>2015-11-01T15:13:12Z</time>
      </trkpt>
      <trkpt lat="49.83029" lon="2.16427">
        <ele>133.5</ele>
        <time>2015-11-01T15:13:16Z</time>
      </trkpt>
      <trkpt lat="49.83027" lon="2.16424">
        <ele>133.5</ele>
        <time>2015-11-01T15:13:22Z</time>
      </trkpt>
      <trkpt lat="49.83025" lon="2.1642">
        <ele>133.5</ele>
        <time>2015-11-01T15:13:27Z</time>
      </trkpt>
      <trkpt lat="49.83023" lon="2.16417">
        <ele>133.6</ele>
        <time>2015-11-01T15:13:31Z</time>
      </trkpt>
      <trkpt lat="49.83022" lon="2.16413">
        <ele>133.6</ele>
        <time>2015-11-01T15:13:36Z</time>
      </trkpt>
      <trkpt lat="49.83021" lon="2.16408">
        <ele>133.7</ele>
        <time>2015-11-01T15:13:42Z</time>
      </trkpt>
      <trkpt lat="49.83018" lon="2.16404">
        <ele>133.8</ele>
        <time>2015-11-01T15:13:45Z</time>
      </trkpt>
      <trkpt lat="49.83017" lon="2.16401">
        <ele>133.8</ele>
        <time>2015-11-01T15:13:48Z</time>
      </trkpt>
      <trkpt lat="49.83015" lon="2.16397">
        <ele>133.8</ele>
        <time>2015-11-01T15:13:51Z</time>
      </trkpt>
      <trkpt lat="49.83012" lon="2.16393">
        <ele>133.9</ele>
        <time>2015-11-01T15:13:57Z</time>
      </trkpt>
      <trkpt lat="49.83012" lon="2.16387">
        <ele>134</ele>
        <time>2015-11-01T15:14:04Z</time>
      </trkpt>
      <trkpt lat="49.8301" lon="2.16382">
        <ele>134.1</ele>
        <time>2015-11-01T15:14:10Z</time>
      </trkpt>
      <trkpt lat="49.83008" lon="2.16379">
        <ele>134.1</ele>
        <time>2015-11-01T15:14:13Z</time>
      </trkpt>
      <trkpt lat="49.83007" lon="2.16375">
        <ele>134.2</ele>
        <time>2015-11-01T15:14:15Z</time>
      </trkpt>
      <trkpt lat="49.83005" lon="2.16371">
        <ele>134.1</ele>
        <time>2015-11-01T15:14:18Z</time>
      </trkpt>
      <trkpt lat="49.83003" lon="2.16367">
        <ele>134.1</ele>
        <time>2015-11-01T15:14:21Z</time>
      </trkpt>
      <trkpt lat="49.83002" lon="2.16363">
        <ele>134</ele>
        <time>2015-11-01T15:14:25Z</time>
      </trkpt>
      <trkpt lat="49.83001" lon="2.16358">
        <ele>134</ele>
        <time>2015-11-01T15:14:27Z</time>
      </trkpt>
      <trkpt lat="49.83" lon="2.16353">
        <ele>134</ele>
        <time>2015-11-01T15:14:31Z</time>
      </trkpt>
      <trkpt lat="49.82997" lon="2.16351">
        <ele>133.9</ele>
        <time>2015-11-01T15:14:35Z</time>
      </trkpt>
      <trkpt lat="49.82996" lon="2.16347">
        <ele>133.9</ele>
        <time>2015-11-01T15:14:40Z</time>
      </trkpt>
      <trkpt lat="49.82996" lon="2.16342">
        <ele>133.9</ele>
        <time>2015-11-01T15:14:43Z</time>
      </trkpt>
      <trkpt lat="49.82994" lon="2.16337">
        <ele>133.8</ele>
        <time>2015-11-01T15:14:46Z</time>
      </trkpt>
      <trkpt lat="49.82992" lon="2.16333">
        <ele>133.7</ele>
        <time>2015-11-01T15:14:49Z</time>
      </trkpt>
      <trkpt lat="49.82991" lon="2.16329">
        <ele>133.7</ele>
        <time>2015-11-01T15:14:51Z</time>
      </trkpt>
      <trkpt lat="49.82989" lon="2.1632">
        <ele>133.5</ele>
        <time>2015-11-01T15:14:54Z</time>
      </trkpt>
      <trkpt lat="49.82985" lon="2.16321">
        <ele>133.4</ele>
        <time>2015-11-01T15:14:56Z</time>
      </trkpt>
      <trkpt lat="49.82983" lon="2.16317">
        <ele>133.3</ele>
        <time>2015-11-01T15:14:59Z</time>
      </trkpt>
      <trkpt lat="49.82983" lon="2.16311">
        <ele>133.3</ele>
        <time>2015-11-01T15:15:01Z</time>
      </trkpt>
      <trkpt lat="49.82983" lon="2.16307">
        <ele>133.3</ele>
        <time>2015-11-01T15:15:03Z</time>
      </trkpt>
      <trkpt lat="49.82981" lon="2.16303">
        <ele>133.2</ele>
        <time>2015-11-01T15:15:08Z</time>
      </trkpt>
      <trkpt lat="49.82978" lon="2.16299">
        <ele>133</ele>
        <time>2015-11-01T15:15:12Z</time>
      </trkpt>
      <trkpt lat="49.82976" lon="2.16295">
        <ele>132.9</ele>
        <time>2015-11-01T15:15:16Z</time>
      </trkpt>
      <trkpt lat="49.82975" lon="2.16291">
        <ele>132.8</ele>
        <time>2015-11-01T15:15:22Z</time>
      </trkpt>
      <trkpt lat="49.82976" lon="2.16288">
        <ele>132.6</ele>
        <time>2015-11-01T15:15:28Z</time>
      </trkpt>
      <trkpt lat="49.82972" lon="2.16282">
        <ele>132.1</ele>
        <time>2015-11-01T15:15:36Z</time>
      </trkpt>
      <trkpt lat="49.82973" lon="2.16278">
        <ele>131.9</ele>
        <time>2015-11-01T15:15:42Z</time>
      </trkpt>
      <trkpt lat="49.8297" lon="2.16276">
        <ele>131.6</ele>
        <time>2015-11-01T15:15:48Z</time>
      </trkpt>
      <trkpt lat="49.82969" lon="2.16272">
        <ele>131.4</ele>
        <time>2015-11-01T15:15:51Z</time>
      </trkpt>
      <trkpt lat="49.82967" lon="2.16269">
        <ele>131.1</ele>
        <time>2015-11-01T15:15:56Z</time>
      </trkpt>
      <trkpt lat="49.82964" lon="2.16265">
        <ele>130.7</ele>
        <time>2015-11-01T15:16:00Z</time>
      </trkpt>
      <trkpt lat="49.82963" lon="2.16261">
        <ele>130.4</ele>
        <time>2015-11-01T15:16:02Z</time>
      </trkpt>
      <trkpt lat="49.82961" lon="2.16257">
        <ele>130.1</ele>
        <time>2015-11-01T15:16:05Z</time>
      </trkpt>
      <trkpt lat="49.8296" lon="2.16253">
        <ele>129.8</ele>
        <time>2015-11-01T15:16:07Z</time>
      </trkpt>
      <trkpt lat="49.82959" lon="2.16248">
        <ele>129.4</ele>
        <time>2015-11-01T15:16:10Z</time>
      </trkpt>
      <trkpt lat="49.82957" lon="2.16243">
        <ele>128.9</ele>
        <time>2015-11-01T15:16:14Z</time>
      </trkpt>
      <trkpt lat="49.82954" lon="2.16239">
        <ele>128.4</ele>
        <time>2015-11-01T15:16:18Z</time>
      </trkpt>
      <trkpt lat="49.82954" lon="2.16235">
        <ele>128.1</ele>
        <time>2015-11-01T15:16:20Z</time>
      </trkpt>
      <trkpt lat="49.82952" lon="2.1623">
        <ele>127.7</ele>
        <time>2015-11-01T15:16:27Z</time>
      </trkpt>
      <trkpt lat="49.82951" lon="2.16226">
        <ele>127.2</ele>
        <time>2015-11-01T15:16:30Z</time>
      </trkpt>
      <trkpt lat="49.82949" lon="2.16222">
        <ele>126.8</ele>
        <time>2015-11-01T15:16:34Z</time>
      </trkpt>
      <trkpt lat="49.82947" lon="2.16217">
        <ele>126.4</ele>
        <time>2015-11-01T15:16:37Z</time>
      </trkpt>
      <trkpt lat="49.82946" lon="2.16214">
        <ele>126</ele>
        <time>2015-11-01T15:16:40Z</time>
      </trkpt>
      <trkpt lat="49.82944" lon="2.1621">
        <ele>125.5</ele>
        <time>2015-11-01T15:16:42Z</time>
      </trkpt>
      <trkpt lat="49.82942" lon="2.16205">
        <ele>125</ele>
        <time>2015-11-01T15:16:45Z</time>
      </trkpt>
      <trkpt lat="49.82941" lon="2.16201">
        <ele>124.6</ele>
        <time>2015-11-01T15:16:48Z</time>
      </trkpt>
      <trkpt lat="49.82939" lon="2.16197">
        <ele>124.1</ele>
        <time>2015-11-01T15:16:51Z</time>
      </trkpt>
      <trkpt lat="49.82937" lon="2.16193">
        <ele>123.7</ele>
        <time>2015-11-01T15:16:56Z</time>
      </trkpt>
      <trkpt lat="49.82936" lon="2.16188">
        <ele>123.3</ele>
        <time>2015-11-01T15:17:01Z</time>
      </trkpt>
      <trkpt lat="49.82935" lon="2.16183">
        <ele>122.9</ele>
        <time>2015-11-01T15:17:05Z</time>
      </trkpt>
      <trkpt lat="49.82934" lon="2.16179">
        <ele>122.6</ele>
        <time>2015-11-01T15:17:09Z</time>
      </trkpt>
      <trkpt lat="49.82933" lon="2.16175">
        <ele>122.3</ele>
        <time>2015-11-01T15:17:13Z</time>
      </trkpt>
      <trkpt lat="49.82931" lon="2.16171">
        <ele>121.9</ele>
        <time>2015-11-01T15:17:20Z</time>
      </trkpt>
      <trkpt lat="49.8293" lon="2.16166">
        <ele>121.6</ele>
        <time>2015-11-01T15:17:23Z</time>
      </trkpt>
      <trkpt lat="49.82931" lon="2.16157">
        <ele>121.1</ele>
        <time>2015-11-01T15:17:28Z</time>
      </trkpt>
      <trkpt lat="49.82932" lon="2.16153">
        <ele>120.9</ele>
        <time>2015-11-01T15:17:32Z</time>
      </trkpt>
      <trkpt lat="49.82934" lon="2.16149">
        <ele>120.8</ele>
        <time>2015-11-01T15:17:37Z</time>
      </trkpt>
      <trkpt lat="49.82936" lon="2.16145">
        <ele>120.7</ele>
        <time>2015-11-01T15:17:44Z</time>
      </trkpt>
      <trkpt lat="49.82939" lon="2.16142">
        <ele>120.7</ele>
        <time>2015-11-01T15:17:48Z</time>
      </trkpt>
      <trkpt lat="49.82939" lon="2.16138">
        <ele>120.4</ele>
        <time>2015-11-01T15:17:52Z</time>
      </trkpt>
      <trkpt lat="49.82943" lon="2.16136">
        <ele>120.4</ele>
        <time>2015-11-01T15:17:57Z</time>
      </trkpt>
      <trkpt lat="49.82946" lon="2.16138">
        <ele>120.6</ele>
        <time>2015-11-01T15:18:01Z</time>
      </trkpt>
      <trkpt lat="49.82944" lon="2.16141">
        <ele>120.8</ele>
        <time>2015-11-01T15:18:05Z</time>
      </trkpt>
      <trkpt lat="49.82955" lon="2.16126">
        <ele>120</ele>
        <time>2015-11-01T15:20:25Z</time>
      </trkpt>
      <trkpt lat="49.82957" lon="2.1612">
        <ele>119.8</ele>
        <time>2015-11-01T15:20:27Z</time>
      </trkpt>
      <trkpt lat="49.82959" lon="2.16115">
        <ele>119.8</ele>
        <time>2015-11-01T15:20:28Z</time>
      </trkpt>
      <trkpt lat="49.82964" lon="2.16116">
        <ele>120</ele>
        <time>2015-11-01T15:20:30Z</time>
      </trkpt>
      <trkpt lat="49.82966" lon="2.16112">
        <ele>120</ele>
        <time>2015-11-01T15:20:31Z</time>
      </trkpt>
      <trkpt lat="49.82968" lon="2.16107">
        <ele>119.9</ele>
        <time>2015-11-01T15:20:32Z</time>
      </trkpt>
      <trkpt lat="49.82973" lon="2.16106">
        <ele>120</ele>
        <time>2015-11-01T15:20:34Z</time>
      </trkpt>
      <trkpt lat="49.82976" lon="2.16103">
        <ele>120</ele>
        <time>2015-11-01T15:20:36Z</time>
      </trkpt>
      <trkpt lat="49.82978" lon="2.161">
        <ele>120</ele>
        <time>2015-11-01T15:20:38Z</time>
      </trkpt>
      <trkpt lat="49.82981" lon="2.16094">
        <ele>119.9</ele>
        <time>2015-11-01T15:20:40Z</time>
      </trkpt>
      <trkpt lat="49.82983" lon="2.16092">
        <ele>119.8</ele>
        <time>2015-11-01T15:20:41Z</time>
      </trkpt>
      <trkpt lat="49.82987" lon="2.16086">
        <ele>119.6</ele>
        <time>2015-11-01T15:20:43Z</time>
      </trkpt>
      <trkpt lat="49.8299" lon="2.16081">
        <ele>119.4</ele>
        <time>2015-11-01T15:20:45Z</time>
      </trkpt>
      <trkpt lat="49.82992" lon="2.16077">
        <ele>119.3</ele>
        <time>2015-11-01T15:20:47Z</time>
      </trkpt>
      <trkpt lat="49.82996" lon="2.16073">
        <ele>119.1</ele>
        <time>2015-11-01T15:20:49Z</time>
      </trkpt>
      <trkpt lat="49.82999" lon="2.16071">
        <ele>119.1</ele>
        <time>2015-11-01T15:20:50Z</time>
      </trkpt>
      <trkpt lat="49.83002" lon="2.16071">
        <ele>119.1</ele>
        <time>2015-11-01T15:20:51Z</time>
      </trkpt>
      <trkpt lat="49.83005" lon="2.16071">
        <ele>119.1</ele>
        <time>2015-11-01T15:20:52Z</time>
      </trkpt>
      <trkpt lat="49.83009" lon="2.1607">
        <ele>119.1</ele>
        <time>2015-11-01T15:20:53Z</time>
      </trkpt>
      <trkpt lat="49.83014" lon="2.1607">
        <ele>119.1</ele>
        <time>2015-11-01T15:20:54Z</time>
      </trkpt>
      <trkpt lat="49.83018" lon="2.16071">
        <ele>119.2</ele>
        <time>2015-11-01T15:20:55Z</time>
      </trkpt>
      <trkpt lat="49.83023" lon="2.16071">
        <ele>119.3</ele>
        <time>2015-11-01T15:20:56Z</time>
      </trkpt>
      <trkpt lat="49.83027" lon="2.16072">
        <ele>119.4</ele>
        <time>2015-11-01T15:20:57Z</time>
      </trkpt>
      <trkpt lat="49.83032" lon="2.16072">
        <ele>119.4</ele>
        <time>2015-11-01T15:20:58Z</time>
      </trkpt>
    </trkseg>
  </trk>
</gpx>